Wetterdaten: Dienstag, 13.03.2018
Datum Zeit Temp. A. Feuchte A. Luftdruck Regen Wind Richtung Richtung Taupunkt Windben Empfang
13.03.2018 00:00 8,4 C 89 % 994,4 hPa 0,0 l/m 2,2 km/h (1 Bft) SW 214 6,7 C 6,3 km/h (2 Bft) 100 %
13.03.2018 00:01 8,4 C 89 % 994,4 hPa 0,0 l/m 0,0 km/h (0 Bft) SW 214 6,7 C 0,0 km/h (0 Bft) 100 %
13.03.2018 00:02 8,4 C 89 % 994,4 hPa 0,0 l/m 0,0 km/h (0 Bft) SW 214 6,7 C 0,0 km/h (0 Bft) 11 %
13.03.2018 00:03 8,4 C 89 % 994,4 hPa 0,0 l/m 4,6 km/h (1 Bft) S-SW 205 6,7 C 9,4 km/h (2 Bft) 86 %
13.03.2018 00:04 8,4 C 89 % 994,4 hPa 0,0 l/m 3,7 km/h (1 Bft) W-NW 282 6,7 C 6,3 km/h (2 Bft) 100 %
13.03.2018 00:05 8,4 C 89 % 994,4 hPa 0,0 l/m 5,6 km/h (1 Bft) W-SW 253 6,7 C 12,6 km/h (3 Bft) 96 %
13.03.2018 00:06 8,4 C 89 % 994,4 hPa 0,0 l/m 1,1 km/h (1 Bft) S-SO 168 6,7 C 3,1 km/h (1 Bft) 94 %
13.03.2018 00:07 8,4 C 89 % 994,4 hPa 0,0 l/m 4,2 km/h (1 Bft) S-SW 206 6,7 C 15,7 km/h (3 Bft) 93 %
13.03.2018 00:08 8,4 C 89 % 994,4 hPa 0,0 l/m 5,8 km/h (2 Bft) SW 233 6,7 C 18,8 km/h (3 Bft) 87 %
13.03.2018 00:09 8,4 C 89 % 994,3 hPa 0,0 l/m 0,4 km/h (0 Bft) SW 229 6,7 C 3,1 km/h (1 Bft) 100 %
13.03.2018 00:10 8,4 C 89 % 994,4 hPa 0,0 l/m 7,6 km/h (2 Bft) S-SW 207 6,7 C 15,7 km/h (3 Bft) 92 %
13.03.2018 00:11 8,3 C 89 % 994,4 hPa 0,0 l/m 2,5 km/h (1 Bft) S-SO 165 6,6 C 6,3 km/h (2 Bft) 100 %
13.03.2018 00:12 8,3 C 89 % 994,4 hPa 0,0 l/m 5,8 km/h (2 Bft) W 271 6,6 C 12,6 km/h (3 Bft) 96 %
13.03.2018 00:13 8,3 C 89 % 994,4 hPa 0,0 l/m 3,3 km/h (1 Bft) SW 229 6,6 C 12,6 km/h (3 Bft) 100 %
13.03.2018 00:14 8,3 C 89 % 994,3 hPa 0,0 l/m 2,1 km/h (1 Bft) SW 217 6,6 C 12,6 km/h (3 Bft) 93 %
13.03.2018 00:15 8,3 C 89 % 994,3 hPa 0,0 l/m 5,2 km/h (1 Bft) N 7 6,6 C 12,6 km/h (3 Bft) 100 %
13.03.2018 00:16 8,3 C 89 % 994,3 hPa 0,0 l/m 2,2 km/h (1 Bft) W-SW 247 6,6 C 12,6 km/h (3 Bft) 96 %
13.03.2018 00:17 8,3 C 89 % 994,4 hPa 0,0 l/m 0,7 km/h (0 Bft) W 259 6,6 C 3,1 km/h (1 Bft) 100 %
13.03.2018 00:18 8,3 C 89 % 994,4 hPa 0,0 l/m 5,8 km/h (2 Bft) SW 221 6,6 C 9,4 km/h (2 Bft) 96 %
13.03.2018 00:19 8,3 C 89 % 994,4 hPa 0,0 l/m 2,5 km/h (1 Bft) SW 230 6,6 C 15,7 km/h (3 Bft) 96 %
13.03.2018 00:20 8,2 C 89 % 994,4 hPa 0,0 l/m 8,5 km/h (2 Bft) S-SW 196 6,5 C 18,8 km/h (3 Bft) 100 %
13.03.2018 00:21 8,2 C 89 % 994,4 hPa 0,0 l/m 3,4 km/h (1 Bft) W 273 6,5 C 18,8 km/h (3 Bft) 100 %
13.03.2018 00:22 8,2 C 89 % 994,4 hPa 0,0 l/m 2,4 km/h (1 Bft) W-SW 257 6,5 C 6,3 km/h (2 Bft) 100 %
13.03.2018 00:23 8,2 C 89 % 994,4 hPa 0,0 l/m 7,3 km/h (2 Bft) S-SW 205 6,5 C 15,7 km/h (3 Bft) 100 %
13.03.2018 00:24 8,2 C 89 % 994,4 hPa 0,0 l/m 6,1 km/h (2 Bft) SW 229 6,5 C 12,6 km/h (3 Bft) 100 %
13.03.2018 00:25 8,2 C 89 % 994,4 hPa 0,0 l/m 6,3 km/h (2 Bft) S-SW 213 6,5 C 12,6 km/h (3 Bft) 100 %
13.03.2018 00:26 8,2 C 89 % 994,4 hPa 0,0 l/m 8,9 km/h (2 Bft) SO 143 6,5 C 12,6 km/h (3 Bft) 100 %
13.03.2018 00:27 8,3 C 89 % 994,4 hPa 0,0 l/m 4,3 km/h (1 Bft) S 177 6,6 C 12,6 km/h (3 Bft) 100 %
13.03.2018 00:28 8,2 C 89 % 994,4 hPa 0,0 l/m 1,5 km/h (1 Bft) W 278 6,5 C 3,1 km/h (1 Bft) 100 %
13.03.2018 00:29 8,2 C 89 % 994,3 hPa 0,0 l/m 3,1 km/h (1 Bft) SW 217 6,5 C 6,3 km/h (2 Bft) 100 %
13.03.2018 00:30 8,3 C 89 % 994,3 hPa 0,0 l/m 0,9 km/h (0 Bft) W-NW 286 6,6 C 3,1 km/h (1 Bft) 100 %
13.03.2018 00:31 8,2 C 89 % 994,3 hPa 0,0 l/m 1,0 km/h (0 Bft) SW 216 6,5 C 3,1 km/h (1 Bft) 100 %
13.03.2018 00:32 8,2 C 89 % 994,3 hPa 0,0 l/m 2,5 km/h (1 Bft) W 274 6,5 C 6,3 km/h (2 Bft) 96 %
13.03.2018 00:33 8,2 C 89 % 994,4 hPa 0,0 l/m 4,9 km/h (1 Bft) W 265 6,5 C 12,6 km/h (3 Bft) 100 %
13.03.2018 00:34 8,2 C 89 % 994,4 hPa 0,0 l/m 3,7 km/h (1 Bft) S-SO 160 6,5 C 6,3 km/h (2 Bft) 100 %
13.03.2018 00:35 8,2 C 89 % 994,4 hPa 0,0 l/m 5,8 km/h (2 Bft) S-SW 209 6,5 C 9,4 km/h (2 Bft) 100 %
13.03.2018 00:36 8,2 C 89 % 994,4 hPa 0,0 l/m 10,5 km/h (2 Bft) W 278 6,5 C 25,1 km/h (4 Bft) 100 %
13.03.2018 00:37 8,2 C 89 % 994,5 hPa 0,0 l/m 5,2 km/h (1 Bft) W-SW 242 6,5 C 12,6 km/h (3 Bft) 100 %
13.03.2018 00:38 8,2 C 89 % 994,4 hPa 0,0 l/m 2,6 km/h (1 Bft) SW 231 6,5 C 6,3 km/h (2 Bft) 100 %
13.03.2018 00:39 8,3 C 89 % 994,4 hPa 0,0 l/m 3,4 km/h (1 Bft) W-SW 243 6,6 C 9,4 km/h (2 Bft) 88 %
13.03.2018 00:40 8,3 C 89 % 994,5 hPa 0,0 l/m 5,2 km/h (1 Bft) SW 228 6,6 C 12,6 km/h (3 Bft) 96 %
13.03.2018 00:41 8,3 C 89 % 994,5 hPa 0,0 l/m 4,0 km/h (1 Bft) W-SW 246 6,6 C 9,4 km/h (2 Bft) 100 %
13.03.2018 00:42 8,2 C 89 % 994,5 hPa 0,0 l/m 1,7 km/h (1 Bft) W 262 6,5 C 6,3 km/h (2 Bft) 100 %
13.03.2018 00:43 8,2 C 89 % 994,5 hPa 0,0 l/m 4,8 km/h (1 Bft) W-SW 255 6,5 C 9,4 km/h (2 Bft) 100 %
13.03.2018 00:44 8,2 C 89 % 994,5 hPa 0,0 l/m 1,6 km/h (1 Bft) S-SW 207 6,5 C 9,4 km/h (2 Bft) 100 %
13.03.2018 00:45 8,2 C 89 % 994,5 hPa 0,0 l/m 8,8 km/h (2 Bft) SW 221 6,5 C 18,8 km/h (3 Bft) 100 %
13.03.2018 00:46 8,2 C 89 % 994,5 hPa 0,0 l/m 7,5 km/h (2 Bft) SW 223 6,5 C 18,8 km/h (3 Bft) 100 %
13.03.2018 00:47 8,2 C 89 % 994,6 hPa 0,0 l/m 4,1 km/h (1 Bft) W-SW 248 6,5 C 12,6 km/h (3 Bft) 100 %
13.03.2018 00:48 8,1 C 89 % 994,6 hPa 0,0 l/m 7,8 km/h (2 Bft) SW 226 6,4 C 18,8 km/h (3 Bft) 100 %
13.03.2018 00:49 8,1 C 89 % 994,6 hPa 0,0 l/m 2,7 km/h (1 Bft) W-NW 293 6,4 C 6,3 km/h (2 Bft) 100 %
13.03.2018 00:50 8,1 C 89 % 994,6 hPa 0,0 l/m 2,9 km/h (1 Bft) SW 216 6,4 C 6,3 km/h (2 Bft) 100 %
13.03.2018 00:51 8,1 C 89 % 994,6 hPa 0,0 l/m 6,8 km/h (2 Bft) SW 228 6,4 C 18,8 km/h (3 Bft) 100 %
13.03.2018 00:52 8,1 C 89 % 994,5 hPa 0,0 l/m 7,4 km/h (2 Bft) S-SW 193 6,4 C 12,6 km/h (3 Bft) 100 %
13.03.2018 00:53 8,1 C 89 % 994,6 hPa 0,0 l/m 7,9 km/h (2 Bft) SW 217 6,4 C 22,0 km/h (4 Bft) 100 %
13.03.2018 00:54 8,1 C 89 % 994,5 hPa 0,0 l/m 0,4 km/h (0 Bft) SW 221 6,4 C 3,1 km/h (1 Bft) 100 %
13.03.2018 00:55 8,0 C 89 % 994,5 hPa 0,0 l/m 9,1 km/h (2 Bft) W-SW 245 6,3 C 18,8 km/h (3 Bft) 100 %
13.03.2018 00:56 8,0 C 89 % 994,6 hPa 0,0 l/m 7,6 km/h (2 Bft) W-NW 294 6,3 C 12,6 km/h (3 Bft) 100 %
13.03.2018 00:57 8,0 C 89 % 994,6 hPa 0,0 l/m 3,0 km/h (1 Bft) W 278 6,3 C 6,3 km/h (2 Bft) 100 %
13.03.2018 00:58 8,0 C 89 % 994,6 hPa 0,0 l/m 7,7 km/h (2 Bft) W-SW 245 6,3 C 15,7 km/h (3 Bft) 100 %
13.03.2018 00:59 8,0 C 89 % 994,6 hPa 0,0 l/m 6,0 km/h (2 Bft) S-SW 210 6,3 C 15,7 km/h (3 Bft) 100 %
13.03.2018 01:00 8,0 C 89 % 994,6 hPa 0,0 l/m 4,3 km/h (1 Bft) SW 230 6,3 C 12,6 km/h (3 Bft) 100 %
13.03.2018 01:01 8,0 C 89 % 994,6 hPa 0,0 l/m 6,9 km/h (2 Bft) S-SW 208 6,3 C 9,4 km/h (2 Bft) 100 %
13.03.2018 01:02 7,9 C 89 % 994,6 hPa 0,0 l/m 9,1 km/h (2 Bft) W 275 6,2 C 18,8 km/h (3 Bft) 100 %
13.03.2018 01:03 7,9 C 89 % 994,6 hPa 0,0 l/m 2,1 km/h (1 Bft) S 181 6,2 C 6,3 km/h (2 Bft) 100 %
13.03.2018 01:04 7,9 C 89 % 994,6 hPa 0,0 l/m 10,0 km/h (2 Bft) W 271 6,2 C 12,6 km/h (3 Bft) 100 %
13.03.2018 01:05 7,9 C 89 % 994,6 hPa 0,0 l/m 6,4 km/h (2 Bft) W-SW 240 6,2 C 12,6 km/h (3 Bft) 100 %
13.03.2018 01:06 7,9 C 89 % 994,6 hPa 0,0 l/m 5,6 km/h (1 Bft) NW 322 6,2 C 15,7 km/h (3 Bft) 100 %
13.03.2018 01:07 7,9 C 90 % 994,6 hPa 0,0 l/m 3,8 km/h (1 Bft) W-SW 252 6,4 C 12,6 km/h (3 Bft) 96 %
13.03.2018 01:08 7,9 C 90 % 994,7 hPa 0,0 l/m 7,3 km/h (2 Bft) S-SW 207 6,4 C 15,7 km/h (3 Bft) 100 %
13.03.2018 01:09 7,9 C 90 % 994,7 hPa 0,0 l/m 4,4 km/h (1 Bft) W-NW 288 6,4 C 12,6 km/h (3 Bft) 100 %
13.03.2018 01:10 7,9 C 90 % 994,6 hPa 0,0 l/m 6,5 km/h (2 Bft) SW 230 6,4 C 12,6 km/h (3 Bft) 100 %
13.03.2018 01:11 7,9 C 90 % 994,7 hPa 0,0 l/m 9,9 km/h (2 Bft) W 269 6,4 C 25,1 km/h (4 Bft) 100 %
13.03.2018 01:12 7,9 C 90 % 994,7 hPa 0,0 l/m 4,7 km/h (1 Bft) W-SW 244 6,4 C 12,6 km/h (3 Bft) 100 %
13.03.2018 01:13 7,9 C 90 % 994,7 hPa 0,0 l/m 3,4 km/h (1 Bft) W 276 6,4 C 9,4 km/h (2 Bft) 100 %
13.03.2018 01:14 7,9 C 90 % 994,8 hPa 0,0 l/m 1,4 km/h (1 Bft) W-NW 293 6,4 C 6,3 km/h (2 Bft) 100 %
13.03.2018 01:15 7,9 C 90 % 994,7 hPa 0,0 l/m 5,5 km/h (1 Bft) W-NW 297 6,4 C 15,7 km/h (3 Bft) 100 %
13.03.2018 01:16 7,9 C 90 % 994,7 hPa 0,0 l/m 4,9 km/h (1 Bft) W 261 6,4 C 6,3 km/h (2 Bft) 100 %
13.03.2018 01:17 7,9 C 90 % 994,7 hPa 0,0 l/m 3,8 km/h (1 Bft) W 262 6,4 C 6,3 km/h (2 Bft) 100 %
13.03.2018 01:18 7,9 C 90 % 994,7 hPa 0,0 l/m 5,6 km/h (1 Bft) S-SW 204 6,4 C 12,6 km/h (3 Bft) 100 %
13.03.2018 01:19 8,0 C 90 % 994,7 hPa 0,0 l/m 5,8 km/h (2 Bft) W 260 6,5 C 9,4 km/h (2 Bft) 100 %
13.03.2018 01:20 8,0 C 90 % 994,8 hPa 0,0 l/m 5,5 km/h (1 Bft) S-SW 212 6,5 C 12,6 km/h (3 Bft) 100 %
13.03.2018 01:21 8,0 C 90 % 994,7 hPa 0,0 l/m 9,7 km/h (2 Bft) SW 231 6,5 C 22,0 km/h (4 Bft) 100 %
13.03.2018 01:22 8,0 C 90 % 994,8 hPa 0,0 l/m 3,5 km/h (1 Bft) W 261 6,5 C 6,3 km/h (2 Bft) 100 %
13.03.2018 01:23 8,0 C 90 % 994,7 hPa 0,0 l/m 4,7 km/h (1 Bft) SW 214 6,5 C 9,4 km/h (2 Bft) 100 %
13.03.2018 01:24 8,0 C 90 % 994,7 hPa 0,0 l/m 4,1 km/h (1 Bft) SW 217 6,5 C 15,7 km/h (3 Bft) 100 %
13.03.2018 01:25 8,1 C 90 % 994,7 hPa 0,0 l/m 5,1 km/h (1 Bft) SW 218 6,6 C 15,7 km/h (3 Bft) 100 %
13.03.2018 01:26 8,1 C 90 % 994,6 hPa 0,0 l/m 0,0 km/h (0 Bft) SW 234 6,6 C 0,0 km/h (0 Bft) 100 %
13.03.2018 01:27 8,1 C 89 % 994,7 hPa 0,0 l/m 1,2 km/h (1 Bft) SW 227 6,4 C 6,3 km/h (2 Bft) 100 %
13.03.2018 01:28 8,1 C 90 % 994,7 hPa 0,0 l/m 2,8 km/h (1 Bft) S 186 6,6 C 9,4 km/h (2 Bft) 100 %
13.03.2018 01:29 8,1 C 90 % 994,7 hPa 0,0 l/m 3,6 km/h (1 Bft) NW 311 6,6 C 9,4 km/h (2 Bft) 100 %
13.03.2018 01:30 8,0 C 90 % 994,7 hPa 0,0 l/m 2,6 km/h (1 Bft) S 179 6,5 C 15,7 km/h (3 Bft) 100 %
13.03.2018 01:31 8,1 C 90 % 994,7 hPa 0,0 l/m 3,5 km/h (1 Bft) W-SW 245 6,6 C 15,7 km/h (3 Bft) 100 %
13.03.2018 01:32 8,1 C 90 % 994,6 hPa 0,0 l/m 1,7 km/h (1 Bft) W 270 6,6 C 6,3 km/h (2 Bft) 100 %
13.03.2018 01:33 8,1 C 90 % 994,7 hPa 0,0 l/m 3,8 km/h (1 Bft) S-SW 200 6,6 C 9,4 km/h (2 Bft) 100 %
13.03.2018 01:34 8,1 C 89 % 994,7 hPa 0,0 l/m 6,9 km/h (2 Bft) SW 234 6,4 C 15,7 km/h (3 Bft) 100 %
13.03.2018 01:35 8,1 C 89 % 994,7 hPa 0,0 l/m 4,6 km/h (1 Bft) SW 229 6,4 C 12,6 km/h (3 Bft) 96 %
13.03.2018 01:36 8,1 C 89 % 994,6 hPa 0,0 l/m 3,6 km/h (1 Bft) W-SW 243 6,4 C 6,3 km/h (2 Bft) 100 %
13.03.2018 01:37 8,1 C 89 % 994,8 hPa 0,0 l/m 3,9 km/h (1 Bft) W-SW 247 6,4 C 12,6 km/h (3 Bft) 100 %
13.03.2018 01:38 8,1 C 89 % 994,8 hPa 0,0 l/m 0,7 km/h (0 Bft) SW 229 6,4 C 3,1 km/h (1 Bft) 100 %
13.03.2018 01:39 8,1 C 89 % 994,8 hPa 0,0 l/m 3,3 km/h (1 Bft) S 188 6,4 C 9,4 km/h (2 Bft) 100 %
13.03.2018 01:40 8,1 C 89 % 994,8 hPa 0,0 l/m 7,5 km/h (2 Bft) W 262 6,4 C 15,7 km/h (3 Bft) 96 %
13.03.2018 01:41 8,1 C 89 % 994,8 hPa 0,0 l/m 4,4 km/h (1 Bft) W-SW 250 6,4 C 6,3 km/h (2 Bft) 100 %
13.03.2018 01:42 8,1 C 89 % 994,7 hPa 0,0 l/m 6,9 km/h (2 Bft) W-NW 295 6,4 C 15,7 km/h (3 Bft) 96 %
13.03.2018 01:43 8,1 C 89 % 994,8 hPa 0,0 l/m 4,7 km/h (1 Bft) NW 311 6,4 C 12,6 km/h (3 Bft) 96 %
13.03.2018 01:44 8,1 C 89 % 994,8 hPa 0,0 l/m 3,4 km/h (1 Bft) W-SW 250 6,4 C 9,4 km/h (2 Bft) 100 %
13.03.2018 01:45 8,1 C 89 % 994,8 hPa 0,0 l/m 2,7 km/h (1 Bft) S 185 6,4 C 6,3 km/h (2 Bft) 93 %
13.03.2018 01:46 8,1 C 89 % 994,8 hPa 0,0 l/m 4,2 km/h (1 Bft) S-SW 203 6,4 C 9,4 km/h (2 Bft) 100 %
13.03.2018 01:47 8,1 C 89 % 994,8 hPa 0,0 l/m 1,7 km/h (1 Bft) W-SW 242 6,4 C 15,7 km/h (3 Bft) 96 %
13.03.2018 01:48 8,1 C 89 % 994,8 hPa 0,0 l/m 3,3 km/h (1 Bft) S-SW 208 6,4 C 9,4 km/h (2 Bft) 100 %
13.03.2018 01:49 8,1 C 89 % 994,8 hPa 0,0 l/m 4,7 km/h (1 Bft) W-SW 245 6,4 C 6,3 km/h (2 Bft) 96 %
13.03.2018 01:50 8,1 C 89 % 994,8 hPa 0,0 l/m 3,7 km/h (1 Bft) NO 51 6,4 C 9,4 km/h (2 Bft) 96 %
13.03.2018 01:51 8,1 C 89 % 994,8 hPa 0,0 l/m 2,2 km/h (1 Bft) SW 214 6,4 C 9,4 km/h (2 Bft) 100 %
13.03.2018 01:52 8,1 C 89 % 994,9 hPa 0,0 l/m 2,4 km/h (1 Bft) SW 221 6,4 C 6,3 km/h (2 Bft) 100 %
13.03.2018 01:53 8,1 C 89 % 994,9 hPa 0,0 l/m 0,5 km/h (0 Bft) W-NW 289 6,4 C 3,1 km/h (1 Bft) 96 %
13.03.2018 01:54 8,1 C 89 % 994,8 hPa 0,0 l/m 0,5 km/h (0 Bft) SW 217 6,4 C 3,1 km/h (1 Bft) 96 %
13.03.2018 01:55 8,1 C 89 % 994,8 hPa 0,0 l/m 2,1 km/h (1 Bft) S 191 6,4 C 6,3 km/h (2 Bft) 98 %
13.03.2018 01:56 8,1 C 89 % 994,7 hPa 0,0 l/m 4,2 km/h (1 Bft) W-SW 248 6,4 C 6,3 km/h (2 Bft) 98 %
13.03.2018 01:57 8,1 C 89 % 994,8 hPa 0,0 l/m 1,6 km/h (1 Bft) S-SW 213 6,4 C 3,1 km/h (1 Bft) 100 %
13.03.2018 01:58 8,1 C 89 % 994,7 hPa 0,0 l/m 6,5 km/h (2 Bft) SW 222 6,4 C 12,6 km/h (3 Bft) 96 %
13.03.2018 01:59 8,1 C 89 % 994,8 hPa 0,0 l/m 4,2 km/h (1 Bft) W-SW 253 6,4 C 9,4 km/h (2 Bft) 96 %
13.03.2018 02:00 8,1 C 89 % 994,8 hPa 0,0 l/m 0,3 km/h (0 Bft) SW 235 6,4 C 3,1 km/h (1 Bft) 100 %
13.03.2018 02:01 8,1 C 89 % 994,7 hPa 0,0 l/m 8,1 km/h (2 Bft) SW 226 6,4 C 12,6 km/h (3 Bft) 100 %
13.03.2018 02:02 8,1 C 89 % 994,7 hPa 0,0 l/m 5,9 km/h (2 Bft) S-SO 158 6,4 C 12,6 km/h (3 Bft) 100 %
13.03.2018 02:03 8,1 C 89 % 994,8 hPa 0,0 l/m 2,7 km/h (1 Bft) W-SW 258 6,4 C 9,4 km/h (2 Bft) 100 %
13.03.2018 02:04 8,1 C 89 % 994,8 hPa 0,0 l/m 1,6 km/h (1 Bft) W 279 6,4 C 3,1 km/h (1 Bft) 100 %
13.03.2018 02:05 8,1 C 89 % 994,7 hPa 0,0 l/m 8,5 km/h (2 Bft) S-SO 165 6,4 C 22,0 km/h (4 Bft) 100 %
13.03.2018 02:06 8,1 C 88 % 994,8 hPa 0,0 l/m 3,4 km/h (1 Bft) S 173 6,2 C 12,6 km/h (3 Bft) 100 %
13.03.2018 02:07 8,1 C 88 % 994,7 hPa 0,0 l/m 5,6 km/h (1 Bft) S 181 6,2 C 15,7 km/h (3 Bft) 100 %
13.03.2018 02:08 8,1 C 88 % 994,7 hPa 0,0 l/m 9,4 km/h (2 Bft) S-SW 208 6,2 C 18,8 km/h (3 Bft) 100 %
13.03.2018 02:09 8,1 C 88 % 994,7 hPa 0,0 l/m 2,2 km/h (1 Bft) W-SW 240 6,2 C 9,4 km/h (2 Bft) 100 %
13.03.2018 02:10 8,1 C 88 % 994,8 hPa 0,0 l/m 3,0 km/h (1 Bft) SW 222 6,2 C 12,6 km/h (3 Bft) 100 %
13.03.2018 02:11 8,1 C 88 % 994,8 hPa 0,0 l/m 4,4 km/h (1 Bft) S-SW 193 6,2 C 9,4 km/h (2 Bft) 100 %
13.03.2018 02:12 8,1 C 88 % 994,8 hPa 0,0 l/m 2,3 km/h (1 Bft) SW 234 6,2 C 6,3 km/h (2 Bft) 100 %
13.03.2018 02:13 8,0 C 88 % 994,8 hPa 0,0 l/m 0,8 km/h (0 Bft) W-SW 248 6,1 C 6,3 km/h (2 Bft) 100 %
13.03.2018 02:14 8,0 C 88 % 994,8 hPa 0,0 l/m 2,4 km/h (1 Bft) NW 319 6,1 C 6,3 km/h (2 Bft) 100 %
13.03.2018 02:15 8,0 C 88 % 994,8 hPa 0,0 l/m 4,3 km/h (1 Bft) SW 221 6,1 C 9,4 km/h (2 Bft) 100 %
13.03.2018 02:17 7,9 C 88 % 994,8 hPa 0,0 l/m 3,6 km/h (1 Bft) W 279 6,0 C 12,6 km/h (3 Bft) 100 %
13.03.2018 02:18 7,9 C 88 % 994,8 hPa 0,0 l/m 3,4 km/h (1 Bft) W 276 6,0 C 12,6 km/h (3 Bft) 100 %
13.03.2018 02:19 7,9 C 88 % 994,8 hPa 0,0 l/m 1,4 km/h (1 Bft) W 269 6,0 C 3,1 km/h (1 Bft) 100 %
13.03.2018 02:20 7,8 C 88 % 994,8 hPa 0,0 l/m 4,7 km/h (1 Bft) SW 232 5,9 C 12,6 km/h (3 Bft) 100 %
13.03.2018 02:21 7,8 C 89 % 994,8 hPa 0,0 l/m 1,8 km/h (1 Bft) W 278 6,1 C 9,4 km/h (2 Bft) 100 %
13.03.2018 02:22 7,8 C 89 % 994,8 hPa 0,0 l/m 5,3 km/h (1 Bft) W-NW 302 6,1 C 15,7 km/h (3 Bft) 100 %
13.03.2018 02:23 7,8 C 89 % 994,8 hPa 0,0 l/m 1,6 km/h (1 Bft) S-SW 204 6,1 C 6,3 km/h (2 Bft) 100 %
13.03.2018 02:24 7,8 C 89 % 994,8 hPa 0,0 l/m 1,0 km/h (0 Bft) W-NW 300 6,1 C 6,3 km/h (2 Bft) 100 %
13.03.2018 02:25 7,8 C 89 % 994,8 hPa 0,0 l/m 5,8 km/h (2 Bft) W 281 6,1 C 12,6 km/h (3 Bft) 100 %
13.03.2018 02:26 7,8 C 89 % 994,8 hPa 0,0 l/m 2,7 km/h (1 Bft) W-NW 296 6,1 C 9,4 km/h (2 Bft) 100 %
13.03.2018 02:27 7,8 C 89 % 994,8 hPa 0,0 l/m 0,0 km/h (0 Bft) W-NW 296 6,1 C 0,0 km/h (0 Bft) 100 %
13.03.2018 02:28 7,8 C 89 % 994,8 hPa 0,0 l/m 3,7 km/h (1 Bft) N-NW 341 6,1 C 6,3 km/h (2 Bft) 100 %
13.03.2018 02:29 7,8 C 89 % 994,9 hPa 0,0 l/m 7,4 km/h (2 Bft) W-SW 257 6,1 C 25,1 km/h (4 Bft) 100 %
13.03.2018 02:30 7,8 C 89 % 994,9 hPa 0,0 l/m 9,4 km/h (2 Bft) SW 229 6,1 C 18,8 km/h (3 Bft) 100 %
13.03.2018 02:31 7,8 C 89 % 994,9 hPa 0,0 l/m 5,8 km/h (2 Bft) S-SO 160 6,1 C 12,6 km/h (3 Bft) 100 %
13.03.2018 02:32 7,8 C 89 % 994,9 hPa 0,0 l/m 7,2 km/h (2 Bft) W 274 6,1 C 22,0 km/h (4 Bft) 100 %
13.03.2018 02:33 7,8 C 89 % 994,9 hPa 0,0 l/m 7,2 km/h (2 Bft) NW 320 6,1 C 15,7 km/h (3 Bft) 100 %
13.03.2018 02:34 7,8 C 89 % 994,9 hPa 0,0 l/m 9,1 km/h (2 Bft) S-SW 212 6,1 C 15,7 km/h (3 Bft) 100 %
13.03.2018 02:35 7,8 C 89 % 994,9 hPa 0,0 l/m 4,1 km/h (1 Bft) NW 311 6,1 C 9,4 km/h (2 Bft) 100 %
13.03.2018 02:36 7,8 C 89 % 994,9 hPa 0,0 l/m 2,2 km/h (1 Bft) S-SW 205 6,1 C 6,3 km/h (2 Bft) 100 %
13.03.2018 02:37 7,8 C 89 % 994,9 hPa 0,0 l/m 6,0 km/h (2 Bft) SW 229 6,1 C 12,6 km/h (3 Bft) 100 %
13.03.2018 02:38 7,8 C 89 % 994,9 hPa 0,0 l/m 2,8 km/h (1 Bft) S-SW 195 6,1 C 9,4 km/h (2 Bft) 100 %
13.03.2018 02:39 7,9 C 89 % 994,9 hPa 0,0 l/m 3,5 km/h (1 Bft) W 278 6,2 C 9,4 km/h (2 Bft) 100 %
13.03.2018 02:40 7,9 C 89 % 994,9 hPa 0,0 l/m 5,2 km/h (1 Bft) W-NW 300 6,2 C 12,6 km/h (3 Bft) 100 %
13.03.2018 02:41 7,9 C 89 % 994,8 hPa 0,0 l/m 7,1 km/h (2 Bft) S-SW 208 6,2 C 22,0 km/h (4 Bft) 100 %
13.03.2018 02:42 7,9 C 89 % 994,9 hPa 0,0 l/m 6,9 km/h (2 Bft) SW 232 6,2 C 15,7 km/h (3 Bft) 100 %
13.03.2018 02:43 7,9 C 89 % 994,9 hPa 0,0 l/m 5,6 km/h (1 Bft) SW 230 6,2 C 9,4 km/h (2 Bft) 100 %
13.03.2018 02:44 7,9 C 88 % 994,9 hPa 0,0 l/m 10,6 km/h (2 Bft) W 269 6,0 C 25,1 km/h (4 Bft) 100 %
13.03.2018 02:45 7,9 C 88 % 994,9 hPa 0,0 l/m 7,5 km/h (2 Bft) S 174 6,0 C 15,7 km/h (3 Bft) 100 %
13.03.2018 02:46 7,9 C 88 % 994,9 hPa 0,0 l/m 5,6 km/h (1 Bft) SW 231 6,0 C 22,0 km/h (4 Bft) 100 %
13.03.2018 02:47 7,9 C 88 % 994,9 hPa 0,0 l/m 8,4 km/h (2 Bft) W-NW 303 6,0 C 18,8 km/h (3 Bft) 100 %
13.03.2018 02:48 7,9 C 88 % 994,9 hPa 0,0 l/m 4,7 km/h (1 Bft) W-NW 288 6,0 C 12,6 km/h (3 Bft) 100 %
13.03.2018 02:49 7,9 C 88 % 994,9 hPa 0,0 l/m 4,4 km/h (1 Bft) S-SW 193 6,0 C 9,4 km/h (2 Bft) 100 %
13.03.2018 02:50 7,9 C 88 % 995,0 hPa 0,0 l/m 9,6 km/h (2 Bft) SW 218 6,0 C 18,8 km/h (3 Bft) 100 %
13.03.2018 02:51 7,9 C 88 % 995,0 hPa 0,0 l/m 5,2 km/h (1 Bft) S 177 6,0 C 12,6 km/h (3 Bft) 100 %
13.03.2018 02:52 7,9 C 88 % 995,0 hPa 0,0 l/m 3,4 km/h (1 Bft) W-SW 257 6,0 C 9,4 km/h (2 Bft) 100 %
13.03.2018 02:53 7,9 C 88 % 994,9 hPa 0,0 l/m 4,6 km/h (1 Bft) W-SW 237 6,0 C 12,6 km/h (3 Bft) 100 %
13.03.2018 02:54 7,9 C 88 % 995,0 hPa 0,0 l/m 5,5 km/h (1 Bft) W-SW 248 6,0 C 15,7 km/h (3 Bft) 100 %
13.03.2018 02:55 7,9 C 88 % 995,0 hPa 0,0 l/m 4,4 km/h (1 Bft) SW 236 6,0 C 9,4 km/h (2 Bft) 100 %
13.03.2018 02:56 7,9 C 88 % 994,9 hPa 0,0 l/m 4,6 km/h (1 Bft) NW 324 6,0 C 9,4 km/h (2 Bft) 100 %
13.03.2018 02:57 7,9 C 88 % 995,0 hPa 0,0 l/m 2,0 km/h (1 Bft) SW 217 6,0 C 6,3 km/h (2 Bft) 100 %
13.03.2018 02:58 7,9 C 88 % 995,0 hPa 0,0 l/m 4,2 km/h (1 Bft) SW 226 6,0 C 9,4 km/h (2 Bft) 100 %
13.03.2018 02:59 7,9 C 88 % 994,9 hPa 0,0 l/m 7,2 km/h (2 Bft) W 277 6,0 C 18,8 km/h (3 Bft) 100 %
13.03.2018 03:00 7,9 C 88 % 994,9 hPa 0,0 l/m 3,7 km/h (1 Bft) SW 214 6,0 C 6,3 km/h (2 Bft) 100 %
13.03.2018 03:01 8,0 C 88 % 995,0 hPa 0,0 l/m 5,7 km/h (1 Bft) S-SW 207 6,1 C 12,6 km/h (3 Bft) 100 %
13.03.2018 03:02 7,9 C 88 % 995,0 hPa 0,0 l/m 4,7 km/h (1 Bft) SW 228 6,0 C 12,6 km/h (3 Bft) 100 %
13.03.2018 03:03 7,9 C 88 % 995,0 hPa 0,0 l/m 7,1 km/h (2 Bft) SW 234 6,0 C 18,8 km/h (3 Bft) 100 %
13.03.2018 03:04 8,0 C 88 % 995,0 hPa 0,0 l/m 9,3 km/h (2 Bft) S-SO 168 6,1 C 31,4 km/h (5 Bft) 100 %
13.03.2018 03:05 7,9 C 88 % 994,9 hPa 0,0 l/m 4,4 km/h (1 Bft) W 267 6,0 C 9,4 km/h (2 Bft) 100 %
13.03.2018 03:06 7,9 C 88 % 994,9 hPa 0,0 l/m 6,3 km/h (2 Bft) W-NW 290 6,0 C 15,7 km/h (3 Bft) 100 %
13.03.2018 03:07 7,9 C 88 % 994,9 hPa 0,0 l/m 3,0 km/h (1 Bft) W-SW 243 6,0 C 9,4 km/h (2 Bft) 100 %
13.03.2018 03:08 7,9 C 88 % 995,0 hPa 0,0 l/m 3,9 km/h (1 Bft) SW 233 6,0 C 18,8 km/h (3 Bft) 100 %
13.03.2018 03:09 7,9 C 88 % 994,9 hPa 0,0 l/m 7,1 km/h (2 Bft) SW 228 6,0 C 18,8 km/h (3 Bft) 100 %
13.03.2018 03:10 7,9 C 88 % 994,9 hPa 0,0 l/m 9,3 km/h (2 Bft) W 264 6,0 C 22,0 km/h (4 Bft) 100 %
13.03.2018 03:11 7,9 C 88 % 994,9 hPa 0,0 l/m 4,8 km/h (1 Bft) SW 233 6,0 C 18,8 km/h (3 Bft) 100 %
13.03.2018 03:12 7,9 C 88 % 995,0 hPa 0,0 l/m 6,6 km/h (2 Bft) SW 226 6,0 C 12,6 km/h (3 Bft) 100 %
13.03.2018 03:13 7,9 C 88 % 995,0 hPa 0,0 l/m 8,6 km/h (2 Bft) O-SO 115 6,0 C 22,0 km/h (4 Bft) 100 %
13.03.2018 03:14 7,9 C 88 % 995,0 hPa 0,0 l/m 5,4 km/h (1 Bft) W-NW 283 6,0 C 12,6 km/h (3 Bft) 100 %
13.03.2018 03:15 7,9 C 88 % 995,0 hPa 0,0 l/m 2,8 km/h (1 Bft) W 268 6,0 C 6,3 km/h (2 Bft) 100 %
13.03.2018 03:16 7,9 C 88 % 995,0 hPa 0,0 l/m 11,1 km/h (2 Bft) W-SW 256 6,0 C 22,0 km/h (4 Bft) 100 %
13.03.2018 03:17 7,9 C 88 % 995,0 hPa 0,0 l/m 5,4 km/h (1 Bft) SW 232 6,0 C 15,7 km/h (3 Bft) 100 %
13.03.2018 03:18 7,9 C 88 % 995,0 hPa 0,0 l/m 12,2 km/h (2 Bft) W-SW 241 6,0 C 22,0 km/h (4 Bft) 92 %
13.03.2018 03:19 8,0 C 88 % 995,0 hPa 0,0 l/m 5,1 km/h (1 Bft) W-SW 248 6,1 C 18,8 km/h (3 Bft) 100 %
13.03.2018 03:20 7,9 C 88 % 995,0 hPa 0,0 l/m 5,5 km/h (1 Bft) SW 228 6,0 C 22,0 km/h (4 Bft) 100 %
13.03.2018 03:21 8,0 C 88 % 995,0 hPa 0,0 l/m 5,1 km/h (1 Bft) W-SW 243 6,1 C 22,0 km/h (4 Bft) 100 %
13.03.2018 03:22 8,0 C 88 % 995,0 hPa 0,0 l/m 7,5 km/h (2 Bft) SW 216 6,1 C 15,7 km/h (3 Bft) 100 %
13.03.2018 03:23 8,0 C 88 % 995,0 hPa 0,0 l/m 0,1 km/h (0 Bft) SW 226 6,1 C 3,1 km/h (1 Bft) 92 %
13.03.2018 03:24 8,0 C 88 % 995,1 hPa 0,0 l/m 13,1 km/h (3 Bft) SW 217 6,1 C 34,5 km/h (5 Bft) 100 %
13.03.2018 03:25 8,0 C 88 % 995,0 hPa 0,0 l/m 9,5 km/h (2 Bft) SW 217 6,1 C 18,8 km/h (3 Bft) 96 %
13.03.2018 03:26 7,9 C 88 % 994,9 hPa 0,0 l/m 4,6 km/h (1 Bft) W-NW 299 6,0 C 15,7 km/h (3 Bft) 100 %
13.03.2018 03:27 8,0 C 88 % 995,0 hPa 0,0 l/m 6,7 km/h (2 Bft) W-NW 293 6,1 C 9,4 km/h (2 Bft) 92 %
13.03.2018 03:28 8,0 C 88 % 995,0 hPa 0,0 l/m 3,7 km/h (1 Bft) NW 325 6,1 C 6,3 km/h (2 Bft) 100 %
13.03.2018 03:29 8,0 C 88 % 995,0 hPa 0,0 l/m 9,3 km/h (2 Bft) W-SW 240 6,1 C 18,8 km/h (3 Bft) 96 %
13.03.2018 03:30 8,0 C 88 % 995,0 hPa 0,0 l/m 9,5 km/h (2 Bft) W-SW 240 6,1 C 18,8 km/h (3 Bft) 100 %
13.03.2018 03:31 8,0 C 88 % 995,0 hPa 0,0 l/m 6,0 km/h (2 Bft) W-NW 295 6,1 C 15,7 km/h (3 Bft) 96 %
13.03.2018 03:32 8,0 C 88 % 994,9 hPa 0,0 l/m 6,0 km/h (2 Bft) W-NW 290 6,1 C 9,4 km/h (2 Bft) 100 %
13.03.2018 03:33 8,0 C 88 % 994,9 hPa 0,0 l/m 7,4 km/h (2 Bft) SW 220 6,1 C 18,8 km/h (3 Bft) 96 %
13.03.2018 03:34 8,0 C 88 % 995,0 hPa 0,0 l/m 6,5 km/h (2 Bft) W-SW 243 6,1 C 18,8 km/h (3 Bft) 100 %
13.03.2018 03:35 7,9 C 88 % 995,0 hPa 0,0 l/m 4,1 km/h (1 Bft) W 270 6,0 C 12,6 km/h (3 Bft) 96 %
13.03.2018 03:36 7,9 C 88 % 995,0 hPa 0,0 l/m 5,0 km/h (1 Bft) W-SW 252 6,0 C 12,6 km/h (3 Bft) 96 %
13.03.2018 03:37 7,9 C 88 % 995,0 hPa 0,0 l/m 10,0 km/h (2 Bft) W-SW 250 6,0 C 18,8 km/h (3 Bft) 100 %
13.03.2018 03:38 7,9 C 88 % 995,0 hPa 0,0 l/m 13,7 km/h (3 Bft) W-NW 285 6,0 C 25,1 km/h (4 Bft) 93 %
13.03.2018 03:39 7,9 C 88 % 995,0 hPa 0,0 l/m 6,4 km/h (2 Bft) W-SW 240 6,0 C 9,4 km/h (2 Bft) 100 %
13.03.2018 03:40 7,9 C 88 % 995,0 hPa 0,0 l/m 2,7 km/h (1 Bft) W-NW 298 6,0 C 6,3 km/h (2 Bft) 96 %
13.03.2018 03:41 7,9 C 88 % 995,0 hPa 0,0 l/m 6,4 km/h (2 Bft) SW 232 6,0 C 12,6 km/h (3 Bft) 100 %
13.03.2018 03:42 7,9 C 88 % 995,0 hPa 0,0 l/m 8,5 km/h (2 Bft) S-SW 212 6,0 C 15,7 km/h (3 Bft) 96 %
13.03.2018 03:43 7,9 C 88 % 995,0 hPa 0,0 l/m 4,8 km/h (1 Bft) W-NW 286 6,0 C 15,7 km/h (3 Bft) 100 %
13.03.2018 03:44 7,9 C 88 % 995,0 hPa 0,0 l/m 4,4 km/h (1 Bft) NW 311 6,0 C 12,6 km/h (3 Bft) 100 %
13.03.2018 03:45 7,9 C 88 % 994,9 hPa 0,0 l/m 6,8 km/h (2 Bft) W 268 6,0 C 15,7 km/h (3 Bft) 100 %
13.03.2018 03:46 7,9 C 88 % 994,9 hPa 0,0 l/m 4,6 km/h (1 Bft) W-NW 303 6,0 C 6,3 km/h (2 Bft) 100 %
13.03.2018 03:47 7,9 C 88 % 995,0 hPa 0,0 l/m 7,3 km/h (2 Bft) SW 229 6,0 C 22,0 km/h (4 Bft) 100 %
13.03.2018 03:48 7,9 C 88 % 995,0 hPa 0,0 l/m 4,0 km/h (1 Bft) SW 216 6,0 C 12,6 km/h (3 Bft) 100 %
13.03.2018 03:49 7,9 C 88 % 995,0 hPa 0,0 l/m 6,9 km/h (2 Bft) S-SW 200 6,0 C 12,6 km/h (3 Bft) 100 %
13.03.2018 03:50 7,9 C 88 % 995,0 hPa 0,0 l/m 6,7 km/h (2 Bft) W-SW 243 6,0 C 15,7 km/h (3 Bft) 100 %
13.03.2018 03:51 7,9 C 88 % 995,0 hPa 0,0 l/m 8,5 km/h (2 Bft) W-SW 240 6,0 C 15,7 km/h (3 Bft) 100 %
13.03.2018 03:52 7,8 C 88 % 995,0 hPa 0,0 l/m 2,6 km/h (1 Bft) SW 220 5,9 C 6,3 km/h (2 Bft) 100 %
13.03.2018 03:53 7,8 C 88 % 995,0 hPa 0,0 l/m 6,6 km/h (2 Bft) SW 226 5,9 C 15,7 km/h (3 Bft) 100 %
13.03.2018 03:54 7,8 C 88 % 995,0 hPa 0,0 l/m 8,7 km/h (2 Bft) SW 229 5,9 C 22,0 km/h (4 Bft) 100 %
13.03.2018 03:55 7,8 C 88 % 995,0 hPa 0,0 l/m 3,7 km/h (1 Bft) N 352 5,9 C 15,7 km/h (3 Bft) 100 %
13.03.2018 03:56 7,8 C 88 % 995,0 hPa 0,0 l/m 5,9 km/h (2 Bft) W 271 5,9 C 12,6 km/h (3 Bft) 100 %
13.03.2018 03:57 7,8 C 88 % 995,1 hPa 0,0 l/m 7,5 km/h (2 Bft) W-SW 245 5,9 C 12,6 km/h (3 Bft) 100 %
13.03.2018 03:58 7,8 C 88 % 995,1 hPa 0,0 l/m 7,2 km/h (2 Bft) SW 232 5,9 C 15,7 km/h (3 Bft) 100 %
13.03.2018 03:59 7,8 C 87 % 995,1 hPa 0,0 l/m 7,6 km/h (2 Bft) W-SW 243 5,8 C 18,8 km/h (3 Bft) 100 %
13.03.2018 04:00 7,8 C 87 % 995,1 hPa 0,0 l/m 3,8 km/h (1 Bft) W-SW 248 5,8 C 12,6 km/h (3 Bft) 100 %
13.03.2018 04:03 7,8 C 87 % 995,1 hPa 0,0 l/m 3,0 km/h (1 Bft) SW 225 5,8 C 9,4 km/h (2 Bft) 100 %
13.03.2018 04:04 7,8 C 87 % 995,1 hPa 0,0 l/m 1,6 km/h (1 Bft) W-NW 294 5,8 C 3,1 km/h (1 Bft) 100 %
13.03.2018 04:05 7,8 C 87 % 995,1 hPa 0,0 l/m 2,6 km/h (1 Bft) W-NW 294 5,8 C 6,3 km/h (2 Bft) 100 %
13.03.2018 04:06 7,7 C 87 % 995,1 hPa 0,0 l/m 7,2 km/h (2 Bft) W 264 5,7 C 12,6 km/h (3 Bft) 100 %
13.03.2018 04:07 7,7 C 87 % 995,0 hPa 0,0 l/m 4,3 km/h (1 Bft) S-SW 195 5,7 C 12,6 km/h (3 Bft) 100 %
13.03.2018 04:08 7,7 C 87 % 995,1 hPa 0,0 l/m 6,7 km/h (2 Bft) S 174 5,7 C 12,6 km/h (3 Bft) 100 %
13.03.2018 04:09 7,7 C 87 % 995,1 hPa 0,0 l/m 6,1 km/h (2 Bft) SW 229 5,7 C 9,4 km/h (2 Bft) 100 %
13.03.2018 04:10 7,7 C 87 % 995,1 hPa 0,0 l/m 7,4 km/h (2 Bft) SW 236 5,7 C 12,6 km/h (3 Bft) 100 %
13.03.2018 04:11 7,7 C 87 % 995,1 hPa 0,0 l/m 6,6 km/h (2 Bft) W 269 5,7 C 12,6 km/h (3 Bft) 96 %
13.03.2018 04:12 7,6 C 87 % 995,1 hPa 0,0 l/m 4,7 km/h (1 Bft) NW 309 5,6 C 9,4 km/h (2 Bft) 100 %
13.03.2018 04:13 7,6 C 87 % 995,0 hPa 0,0 l/m 3,5 km/h (1 Bft) SW 228 5,6 C 6,3 km/h (2 Bft) 100 %
13.03.2018 04:14 7,6 C 88 % 995,0 hPa 0,0 l/m 7,8 km/h (2 Bft) SW 214 5,7 C 18,8 km/h (3 Bft) 100 %
13.03.2018 04:15 7,6 C 88 % 995,1 hPa 0,0 l/m 6,8 km/h (2 Bft) S 179 5,7 C 12,6 km/h (3 Bft) 100 %
13.03.2018 04:16 7,6 C 88 % 995,1 hPa 0,0 l/m 4,1 km/h (1 Bft) W-NW 295 5,7 C 12,6 km/h (3 Bft) 100 %
13.03.2018 04:17 7,6 C 88 % 995,1 hPa 0,0 l/m 8,6 km/h (2 Bft) W-SW 257 5,7 C 18,8 km/h (3 Bft) 100 %
13.03.2018 04:18 7,6 C 88 % 995,0 hPa 0,0 l/m 3,0 km/h (1 Bft) S 172 5,7 C 9,4 km/h (2 Bft) 100 %
13.03.2018 04:19 7,6 C 88 % 995,1 hPa 0,0 l/m 5,1 km/h (1 Bft) W-NW 296 5,7 C 15,7 km/h (3 Bft) 100 %
13.03.2018 04:20 7,6 C 88 % 995,1 hPa 0,0 l/m 1,1 km/h (1 Bft) W-SW 255 5,7 C 3,1 km/h (1 Bft) 96 %
13.03.2018 04:21 7,6 C 88 % 995,1 hPa 0,0 l/m 3,1 km/h (1 Bft) SW 233 5,7 C 9,4 km/h (2 Bft) 100 %
13.03.2018 04:22 7,6 C 88 % 995,1 hPa 0,0 l/m 6,5 km/h (2 Bft) SW 217 5,7 C 22,0 km/h (4 Bft) 100 %
13.03.2018 04:23 7,6 C 88 % 995,1 hPa 0,0 l/m 5,7 km/h (1 Bft) N 352 5,7 C 12,6 km/h (3 Bft) 100 %
13.03.2018 04:24 7,6 C 88 % 995,2 hPa 0,0 l/m 1,3 km/h (1 Bft) W 276 5,7 C 6,3 km/h (2 Bft) 100 %
13.03.2018 04:25 7,6 C 88 % 995,2 hPa 0,0 l/m 8,3 km/h (2 Bft) S 191 5,7 C 18,8 km/h (3 Bft) 100 %
13.03.2018 04:26 7,6 C 88 % 995,1 hPa 0,0 l/m 7,7 km/h (2 Bft) W 265 5,7 C 12,6 km/h (3 Bft) 100 %
13.03.2018 04:27 7,6 C 88 % 995,2 hPa 0,0 l/m 3,0 km/h (1 Bft) O-NO 60 5,7 C 12,6 km/h (3 Bft) 100 %
13.03.2018 04:28 7,6 C 89 % 995,1 hPa 0,0 l/m 7,8 km/h (2 Bft) W-NW 287 5,9 C 12,6 km/h (3 Bft) 100 %
13.03.2018 04:29 7,6 C 89 % 995,2 hPa 0,0 l/m 9,1 km/h (2 Bft) SW 221 5,9 C 15,7 km/h (3 Bft) 100 %
13.03.2018 04:30 7,6 C 89 % 995,2 hPa 0,0 l/m 1,7 km/h (1 Bft) NW 308 5,9 C 9,4 km/h (2 Bft) 100 %
13.03.2018 04:31 7,6 C 89 % 995,2 hPa 0,0 l/m 3,7 km/h (1 Bft) SW 222 5,9 C 6,3 km/h (2 Bft) 100 %
13.03.2018 04:32 7,6 C 89 % 995,3 hPa 0,0 l/m 10,2 km/h (2 Bft) W-SW 249 5,9 C 18,8 km/h (3 Bft) 100 %
13.03.2018 04:33 7,6 C 89 % 995,2 hPa 0,0 l/m 2,4 km/h (1 Bft) SW 224 5,9 C 6,3 km/h (2 Bft) 100 %
13.03.2018 04:34 7,6 C 89 % 995,2 hPa 0,0 l/m 8,3 km/h (2 Bft) SW 225 5,9 C 18,8 km/h (3 Bft) 100 %
13.03.2018 04:35 7,6 C 89 % 995,3 hPa 0,0 l/m 7,6 km/h (2 Bft) S 181 5,9 C 12,6 km/h (3 Bft) 100 %
13.03.2018 04:36 7,6 C 89 % 995,3 hPa 0,0 l/m 6,3 km/h (2 Bft) SW 228 5,9 C 9,4 km/h (2 Bft) 100 %
13.03.2018 04:37 7,6 C 89 % 995,3 hPa 0,0 l/m 1,3 km/h (1 Bft) W-NW 290 5,9 C 3,1 km/h (1 Bft) 100 %
13.03.2018 04:38 7,6 C 89 % 995,2 hPa 0,0 l/m 3,5 km/h (1 Bft) S-SW 203 5,9 C 9,4 km/h (2 Bft) 100 %
13.03.2018 04:39 7,5 C 89 % 995,3 hPa 0,0 l/m 3,6 km/h (1 Bft) S-SW 194 5,8 C 9,4 km/h (2 Bft) 100 %
13.03.2018 04:40 7,5 C 89 % 995,3 hPa 0,0 l/m 5,1 km/h (1 Bft) SW 220 5,8 C 9,4 km/h (2 Bft) 100 %
13.03.2018 04:41 7,5 C 89 % 995,3 hPa 0,0 l/m 3,5 km/h (1 Bft) W-SW 243 5,8 C 9,4 km/h (2 Bft) 100 %
13.03.2018 04:42 7,5 C 89 % 995,3 hPa 0,0 l/m 5,8 km/h (2 Bft) SW 231 5,8 C 9,4 km/h (2 Bft) 100 %
13.03.2018 04:43 7,5 C 89 % 995,3 hPa 0,0 l/m 4,1 km/h (1 Bft) SW 223 5,8 C 12,6 km/h (3 Bft) 100 %
13.03.2018 04:44 7,5 C 89 % 995,3 hPa 0,0 l/m 6,9 km/h (2 Bft) W-NW 285 5,8 C 9,4 km/h (2 Bft) 100 %
13.03.2018 04:45 7,5 C 90 % 995,2 hPa 0,0 l/m 6,3 km/h (2 Bft) W 262 6,0 C 9,4 km/h (2 Bft) 100 %
13.03.2018 04:46 7,5 C 90 % 995,2 hPa 0,0 l/m 1,1 km/h (1 Bft) W-SW 257 6,0 C 3,1 km/h (1 Bft) 100 %
13.03.2018 04:47 7,5 C 90 % 995,3 hPa 0,0 l/m 0,0 km/h (0 Bft) W-NW 303 6,0 C 0,0 km/h (0 Bft) 100 %
13.03.2018 04:48 7,5 C 90 % 995,3 hPa 0,0 l/m 4,4 km/h (1 Bft) W 271 6,0 C 12,6 km/h (3 Bft) 100 %
13.03.2018 04:49 7,5 C 90 % 995,3 hPa 0,0 l/m 7,3 km/h (2 Bft) S-SW 213 6,0 C 15,7 km/h (3 Bft) 100 %
13.03.2018 04:50 7,5 C 90 % 995,3 hPa 0,0 l/m 3,1 km/h (1 Bft) NW 304 6,0 C 9,4 km/h (2 Bft) 100 %
13.03.2018 04:51 7,5 C 90 % 995,4 hPa 0,0 l/m 5,0 km/h (1 Bft) W-NW 284 6,0 C 12,6 km/h (3 Bft) 100 %
13.03.2018 04:52 7,4 C 90 % 995,4 hPa 0,0 l/m 4,0 km/h (1 Bft) W-SW 239 5,9 C 12,6 km/h (3 Bft) 100 %
13.03.2018 04:53 7,4 C 90 % 995,4 hPa 0,0 l/m 7,3 km/h (2 Bft) SW 229 5,9 C 15,7 km/h (3 Bft) 100 %
13.03.2018 04:54 7,4 C 90 % 995,4 hPa 0,0 l/m 2,9 km/h (1 Bft) SW 229 5,9 C 6,3 km/h (2 Bft) 100 %
13.03.2018 04:55 7,4 C 90 % 995,4 hPa 0,0 l/m 10,3 km/h (2 Bft) W 276 5,9 C 18,8 km/h (3 Bft) 100 %
13.03.2018 04:56 7,4 C 90 % 995,4 hPa 0,0 l/m 4,9 km/h (1 Bft) W-NW 289 5,9 C 9,4 km/h (2 Bft) 100 %
13.03.2018 04:57 7,4 C 90 % 995,4 hPa 0,0 l/m 8,5 km/h (2 Bft) W-NW 302 5,9 C 15,7 km/h (3 Bft) 100 %
13.03.2018 04:58 7,4 C 90 % 995,4 hPa 0,0 l/m 5,0 km/h (1 Bft) W 271 5,9 C 9,4 km/h (2 Bft) 100 %
13.03.2018 04:59 7,4 C 90 % 995,4 hPa 0,0 l/m 2,1 km/h (1 Bft) W-NW 302 5,9 C 6,3 km/h (2 Bft) 100 %
13.03.2018 05:00 7,4 C 90 % 995,4 hPa 0,0 l/m 1,9 km/h (1 Bft) SW 228 5,9 C 6,3 km/h (2 Bft) 100 %
13.03.2018 05:01 7,4 C 90 % 995,4 hPa 0,0 l/m 4,6 km/h (1 Bft) W-SW 247 5,9 C 9,4 km/h (2 Bft) 89 %
13.03.2018 05:02 7,4 C 90 % 995,5 hPa 0,0 l/m 3,1 km/h (1 Bft) S-SW 205 5,9 C 6,3 km/h (2 Bft) 100 %
13.03.2018 05:03 7,4 C 90 % 995,5 hPa 0,0 l/m 5,5 km/h (1 Bft) W-NW 288 5,9 C 9,4 km/h (2 Bft) 96 %
13.03.2018 05:04 7,4 C 91 % 995,5 hPa 0,0 l/m 7,4 km/h (2 Bft) SW 233 6,0 C 18,8 km/h (3 Bft) 100 %
13.03.2018 05:05 7,4 C 90 % 995,5 hPa 0,0 l/m 5,1 km/h (1 Bft) W-SW 257 5,9 C 9,4 km/h (2 Bft) 100 %
13.03.2018 05:06 7,4 C 90 % 995,5 hPa 0,0 l/m 5,3 km/h (1 Bft) W-NW 289 5,9 C 9,4 km/h (2 Bft) 96 %
13.03.2018 05:07 7,4 C 91 % 995,5 hPa 0,0 l/m 5,4 km/h (1 Bft) W-SW 246 6,0 C 9,4 km/h (2 Bft) 100 %
13.03.2018 05:08 7,4 C 91 % 995,5 hPa 0,0 l/m 1,6 km/h (1 Bft) SW 219 6,0 C 9,4 km/h (2 Bft) 100 %
13.03.2018 05:09 7,4 C 91 % 995,5 hPa 0,0 l/m 7,5 km/h (2 Bft) SW 229 6,0 C 18,8 km/h (3 Bft) 100 %
13.03.2018 05:10 7,4 C 91 % 995,5 hPa 0,0 l/m 9,3 km/h (2 Bft) W-SW 254 6,0 C 18,8 km/h (3 Bft) 93 %
13.03.2018 05:11 7,4 C 91 % 995,5 hPa 0,0 l/m 3,5 km/h (1 Bft) NO 39 6,0 C 6,3 km/h (2 Bft) 100 %
13.03.2018 05:12 7,4 C 91 % 995,5 hPa 0,0 l/m 7,5 km/h (2 Bft) S-SW 195 6,0 C 15,7 km/h (3 Bft) 96 %
13.03.2018 05:13 7,4 C 91 % 995,5 hPa 0,0 l/m 9,4 km/h (2 Bft) W-SW 237 6,0 C 22,0 km/h (4 Bft) 100 %
13.03.2018 05:14 7,4 C 91 % 995,5 hPa 0,0 l/m 5,8 km/h (2 Bft) W-SW 243 6,0 C 9,4 km/h (2 Bft) 97 %
13.03.2018 05:15 7,4 C 91 % 995,5 hPa 0,0 l/m 2,5 km/h (1 Bft) W-SW 240 6,0 C 9,4 km/h (2 Bft) 100 %
13.03.2018 05:16 7,4 C 91 % 995,5 hPa 0,0 l/m 7,0 km/h (2 Bft) S 174 6,0 C 12,6 km/h (3 Bft) 96 %
13.03.2018 05:17 7,4 C 91 % 995,5 hPa 0,0 l/m 5,9 km/h (2 Bft) W-SW 248 6,0 C 12,6 km/h (3 Bft) 96 %
13.03.2018 05:18 7,4 C 91 % 995,5 hPa 0,0 l/m 4,1 km/h (1 Bft) W 275 6,0 C 9,4 km/h (2 Bft) 100 %
13.03.2018 05:19 7,4 C 91 % 995,5 hPa 0,0 l/m 7,0 km/h (2 Bft) S-SW 210 6,0 C 12,6 km/h (3 Bft) 96 %
13.03.2018 05:20 7,4 C 91 % 995,5 hPa 0,0 l/m 3,0 km/h (1 Bft) W 270 6,0 C 12,6 km/h (3 Bft) 100 %
13.03.2018 05:21 7,4 C 91 % 995,6 hPa 0,0 l/m 8,1 km/h (2 Bft) N-NW 335 6,0 C 15,7 km/h (3 Bft) 96 %
13.03.2018 05:22 7,4 C 91 % 995,6 hPa 0,0 l/m 8,5 km/h (2 Bft) S-SW 211 6,0 C 15,7 km/h (3 Bft) 100 %
13.03.2018 05:23 7,4 C 91 % 995,5 hPa 0,0 l/m 5,1 km/h (1 Bft) W 278 6,0 C 18,8 km/h (3 Bft) 92 %
13.03.2018 05:24 7,4 C 91 % 995,5 hPa 0,0 l/m 5,0 km/h (1 Bft) NW 314 6,0 C 12,6 km/h (3 Bft) 97 %
13.03.2018 05:25 7,4 C 91 % 995,5 hPa 0,0 l/m 5,8 km/h (2 Bft) W-SW 248 6,0 C 15,7 km/h (3 Bft) 100 %
13.03.2018 05:26 7,4 C 91 % 995,6 hPa 0,0 l/m 5,9 km/h (2 Bft) W 281 6,0 C 15,7 km/h (3 Bft) 96 %
13.03.2018 05:27 7,4 C 91 % 995,6 hPa 0,0 l/m 8,3 km/h (2 Bft) W-SW 252 6,0 C 15,7 km/h (3 Bft) 100 %
13.03.2018 05:28 7,4 C 91 % 995,6 hPa 0,0 l/m 7,5 km/h (2 Bft) NW 304 6,0 C 22,0 km/h (4 Bft) 100 %
13.03.2018 05:29 7,4 C 91 % 995,6 hPa 0,2 l/m 2,4 km/h (1 Bft) SW 218 6,0 C 6,3 km/h (2 Bft) 100 %
13.03.2018 05:30 7,3 C 91 % 995,6 hPa 0,0 l/m 4,7 km/h (1 Bft) SW 233 5,9 C 6,3 km/h (2 Bft) 100 %
13.03.2018 05:32 7,3 C 92 % 995,6 hPa 0,0 l/m 6,3 km/h (2 Bft) SW 229 6,1 C 18,8 km/h (3 Bft) 100 %
13.03.2018 05:33 7,3 C 92 % 995,6 hPa 0,0 l/m 8,1 km/h (2 Bft) W 267 6,1 C 12,6 km/h (3 Bft) 100 %
13.03.2018 05:34 7,3 C 92 % 995,6 hPa 0,0 l/m 4,6 km/h (1 Bft) W-NW 293 6,1 C 9,4 km/h (2 Bft) 100 %
13.03.2018 05:35 7,3 C 92 % 995,6 hPa 0,0 l/m 4,9 km/h (1 Bft) S-SW 202 6,1 C 9,4 km/h (2 Bft) 100 %
13.03.2018 05:36 7,3 C 92 % 995,6 hPa 0,0 l/m 6,0 km/h (2 Bft) SW 231 6,1 C 9,4 km/h (2 Bft) 100 %
13.03.2018 05:37 7,3 C 92 % 995,6 hPa 0,0 l/m 1,4 km/h (1 Bft) N-NO 16 6,1 C 6,3 km/h (2 Bft) 100 %
13.03.2018 05:38 7,3 C 92 % 995,7 hPa 0,0 l/m 1,7 km/h (1 Bft) W-NW 300 6,1 C 6,3 km/h (2 Bft) 100 %
13.03.2018 05:39 7,3 C 92 % 995,6 hPa 0,0 l/m 1,7 km/h (1 Bft) W-SW 255 6,1 C 6,3 km/h (2 Bft) 100 %
13.03.2018 05:40 7,3 C 92 % 995,6 hPa 0,0 l/m 5,0 km/h (1 Bft) S-SW 200 6,1 C 12,6 km/h (3 Bft) 100 %
13.03.2018 05:41 7,3 C 92 % 995,6 hPa 0,0 l/m 3,3 km/h (1 Bft) NW 312 6,1 C 9,4 km/h (2 Bft) 100 %
13.03.2018 05:42 7,2 C 92 % 995,7 hPa 0,0 l/m 5,3 km/h (1 Bft) W-SW 246 6,0 C 12,6 km/h (3 Bft) 100 %
13.03.2018 05:43 7,2 C 92 % 995,6 hPa 0,0 l/m 0,3 km/h (0 Bft) NW 317 6,0 C 3,1 km/h (1 Bft) 100 %
13.03.2018 05:44 7,2 C 92 % 995,6 hPa 0,0 l/m 1,4 km/h (1 Bft) S-SW 207 6,0 C 6,3 km/h (2 Bft) 100 %
13.03.2018 05:45 7,2 C 92 % 995,6 hPa 0,0 l/m 0,9 km/h (0 Bft) W-SW 251 6,0 C 6,3 km/h (2 Bft) 100 %
13.03.2018 05:46 7,2 C 92 % 995,7 hPa 0,0 l/m 2,1 km/h (1 Bft) S-SO 168 6,0 C 3,1 km/h (1 Bft) 100 %
13.03.2018 05:47 7,2 C 92 % 995,7 hPa 0,0 l/m 0,3 km/h (0 Bft) W-SW 252 6,0 C 3,1 km/h (1 Bft) 100 %
13.03.2018 05:48 7,2 C 92 % 995,7 hPa 0,0 l/m 2,4 km/h (1 Bft) W-SW 245 6,0 C 6,3 km/h (2 Bft) 100 %
13.03.2018 05:49 7,2 C 92 % 995,7 hPa 0,0 l/m 1,9 km/h (1 Bft) W-NW 285 6,0 C 6,3 km/h (2 Bft) 100 %
13.03.2018 05:50 7,2 C 92 % 995,7 hPa 0,0 l/m 6,1 km/h (2 Bft) W-SW 238 6,0 C 12,6 km/h (3 Bft) 100 %
13.03.2018 05:51 7,2 C 92 % 995,7 hPa 0,0 l/m 2,7 km/h (1 Bft) W-SW 248 6,0 C 6,3 km/h (2 Bft) 100 %
13.03.2018 05:52 7,1 C 92 % 995,7 hPa 0,0 l/m 1,8 km/h (1 Bft) W-SW 248 5,9 C 6,3 km/h (2 Bft) 100 %
13.03.2018 05:53 7,1 C 92 % 995,7 hPa 0,0 l/m 0,8 km/h (0 Bft) SW 226 5,9 C 3,1 km/h (1 Bft) 100 %
13.03.2018 05:54 7,1 C 92 % 995,7 hPa 0,0 l/m 5,8 km/h (2 Bft) S-SW 213 5,9 C 15,7 km/h (3 Bft) 100 %
13.03.2018 05:55 7,1 C 92 % 995,7 hPa 0,0 l/m 2,2 km/h (1 Bft) NW 319 5,9 C 6,3 km/h (2 Bft) 100 %
13.03.2018 05:56 7,1 C 92 % 995,7 hPa 0,0 l/m 0,8 km/h (0 Bft) W 267 5,9 C 3,1 km/h (1 Bft) 100 %
13.03.2018 05:57 7,1 C 92 % 995,7 hPa 0,0 l/m 2,5 km/h (1 Bft) W-SW 251 5,9 C 9,4 km/h (2 Bft) 100 %
13.03.2018 05:58 7,1 C 92 % 995,7 hPa 0,0 l/m 0,0 km/h (0 Bft) NW 324 5,9 C 0,0 km/h (0 Bft) 100 %
13.03.2018 05:59 7,1 C 92 % 995,7 hPa 0,0 l/m 3,5 km/h (1 Bft) W-SW 257 5,9 C 9,4 km/h (2 Bft) 100 %
13.03.2018 06:00 7,1 C 92 % 995,7 hPa 0,0 l/m 4,2 km/h (1 Bft) W-NW 283 5,9 C 12,6 km/h (3 Bft) 100 %
13.03.2018 06:01 7,1 C 92 % 995,7 hPa 0,0 l/m 3,1 km/h (1 Bft) SW 221 5,9 C 6,3 km/h (2 Bft) 100 %
13.03.2018 06:02 7,1 C 92 % 995,8 hPa 0,0 l/m 5,1 km/h (1 Bft) W 268 5,9 C 9,4 km/h (2 Bft) 100 %
13.03.2018 06:03 7,1 C 92 % 995,7 hPa 0,0 l/m 5,0 km/h (1 Bft) SW 235 5,9 C 6,3 km/h (2 Bft) 100 %
13.03.2018 06:04 7,1 C 92 % 995,8 hPa 0,0 l/m 0,7 km/h (0 Bft) NW 319 5,9 C 3,1 km/h (1 Bft) 100 %
13.03.2018 06:05 7,1 C 92 % 995,7 hPa 0,0 l/m 5,5 km/h (1 Bft) S-SW 200 5,9 C 15,7 km/h (3 Bft) 100 %
13.03.2018 06:06 7,1 C 92 % 995,8 hPa 0,0 l/m 4,8 km/h (1 Bft) S-SO 162 5,9 C 9,4 km/h (2 Bft) 100 %
13.03.2018 06:07 7,1 C 92 % 995,8 hPa 0,0 l/m 6,4 km/h (2 Bft) W 274 5,9 C 12,6 km/h (3 Bft) 100 %
13.03.2018 06:08 7,1 C 92 % 995,8 hPa 0,0 l/m 3,3 km/h (1 Bft) SW 225 5,9 C 6,3 km/h (2 Bft) 100 %
13.03.2018 06:09 7,1 C 92 % 995,8 hPa 0,0 l/m 2,1 km/h (1 Bft) SW 224 5,9 C 6,3 km/h (2 Bft) 100 %
13.03.2018 06:10 7,1 C 92 % 995,8 hPa 0,0 l/m 1,4 km/h (1 Bft) W 271 5,9 C 6,3 km/h (2 Bft) 100 %
13.03.2018 06:11 7,1 C 92 % 995,8 hPa 0,0 l/m 2,9 km/h (1 Bft) S-SW 202 5,9 C 12,6 km/h (3 Bft) 100 %
13.03.2018 06:12 7,0 C 92 % 995,7 hPa 0,0 l/m 7,1 km/h (2 Bft) SW 215 5,8 C 12,6 km/h (3 Bft) 100 %
13.03.2018 06:13 7,0 C 92 % 995,8 hPa 0,0 l/m 2,7 km/h (1 Bft) W-SW 248 5,8 C 9,4 km/h (2 Bft) 100 %
13.03.2018 06:14 7,0 C 92 % 995,8 hPa 0,0 l/m 5,2 km/h (1 Bft) W 279 5,8 C 9,4 km/h (2 Bft) 100 %
13.03.2018 06:15 7,0 C 92 % 995,8 hPa 0,0 l/m 6,5 km/h (2 Bft) NW 319 5,8 C 9,4 km/h (2 Bft) 100 %
13.03.2018 06:16 7,0 C 92 % 995,8 hPa 0,0 l/m 1,5 km/h (1 Bft) S-SW 207 5,8 C 6,3 km/h (2 Bft) 100 %
13.03.2018 06:17 7,0 C 92 % 995,9 hPa 0,0 l/m 3,1 km/h (1 Bft) W-SW 247 5,8 C 6,3 km/h (2 Bft) 100 %
13.03.2018 06:18 7,0 C 92 % 995,8 hPa 0,0 l/m 4,7 km/h (1 Bft) SW 222 5,8 C 9,4 km/h (2 Bft) 100 %
13.03.2018 06:19 7,0 C 92 % 995,8 hPa 0,0 l/m 4,3 km/h (1 Bft) SW 214 5,8 C 12,6 km/h (3 Bft) 100 %
13.03.2018 06:20 6,9 C 92 % 995,8 hPa 0,0 l/m 3,0 km/h (1 Bft) S-SW 198 5,7 C 6,3 km/h (2 Bft) 100 %
13.03.2018 06:21 6,9 C 92 % 995,8 hPa 0,0 l/m 7,7 km/h (2 Bft) SW 233 5,7 C 15,7 km/h (3 Bft) 100 %
13.03.2018 06:22 6,9 C 92 % 995,9 hPa 0,0 l/m 3,5 km/h (1 Bft) S-SW 213 5,7 C 9,4 km/h (2 Bft) 100 %
13.03.2018 06:23 6,9 C 92 % 995,8 hPa 0,0 l/m 1,2 km/h (1 Bft) N 354 5,7 C 6,3 km/h (2 Bft) 100 %
13.03.2018 06:24 6,9 C 92 % 995,8 hPa 0,0 l/m 0,4 km/h (0 Bft) S-SW 200 5,7 C 3,1 km/h (1 Bft) 100 %
13.03.2018 06:25 6,9 C 92 % 995,8 hPa 0,0 l/m 5,8 km/h (2 Bft) SW 223 5,7 C 12,6 km/h (3 Bft) 100 %
13.03.2018 06:26 6,9 C 92 % 995,9 hPa 0,0 l/m 7,7 km/h (2 Bft) SW 226 5,7 C 12,6 km/h (3 Bft) 100 %
13.03.2018 06:27 6,9 C 92 % 995,9 hPa 0,0 l/m 3,3 km/h (1 Bft) SW 227 5,7 C 6,3 km/h (2 Bft) 100 %
13.03.2018 06:28 6,9 C 92 % 995,8 hPa 0,0 l/m 0,0 km/h (0 Bft) O-SO 103 5,7 C 0,0 km/h (0 Bft) 100 %
13.03.2018 06:29 6,9 C 92 % 995,8 hPa 0,0 l/m 1,2 km/h (1 Bft) S-SO 158 5,7 C 6,3 km/h (2 Bft) 100 %
13.03.2018 06:30 6,9 C 92 % 995,8 hPa 0,0 l/m 3,5 km/h (1 Bft) W-SW 246 5,7 C 12,6 km/h (3 Bft) 100 %
13.03.2018 06:31 6,8 C 92 % 995,9 hPa 0,0 l/m 1,7 km/h (1 Bft) W 270 5,6 C 6,3 km/h (2 Bft) 100 %
13.03.2018 06:32 6,8 C 92 % 995,8 hPa 0,0 l/m 8,6 km/h (2 Bft) SW 229 5,6 C 12,6 km/h (3 Bft) 100 %
13.03.2018 06:33 6,8 C 92 % 995,9 hPa 0,0 l/m 4,7 km/h (1 Bft) W 267 5,6 C 12,6 km/h (3 Bft) 100 %
13.03.2018 06:34 6,8 C 92 % 995,9 hPa 0,0 l/m 3,0 km/h (1 Bft) SW 221 5,6 C 6,3 km/h (2 Bft) 100 %
13.03.2018 06:35 6,8 C 92 % 995,9 hPa 0,0 l/m 0,5 km/h (0 Bft) W-SW 257 5,6 C 3,1 km/h (1 Bft) 100 %
13.03.2018 06:36 6,8 C 93 % 995,9 hPa 0,0 l/m 0,1 km/h (0 Bft) W 279 5,7 C 3,1 km/h (1 Bft) 100 %
13.03.2018 06:37 6,8 C 93 % 996,0 hPa 0,0 l/m 6,3 km/h (2 Bft) S-SW 203 5,7 C 12,6 km/h (3 Bft) 100 %
13.03.2018 06:38 6,8 C 93 % 995,9 hPa 0,0 l/m 1,3 km/h (1 Bft) W-NW 283 5,7 C 9,4 km/h (2 Bft) 100 %
13.03.2018 06:39 6,8 C 93 % 995,9 hPa 0,0 l/m 5,0 km/h (1 Bft) NW 321 5,7 C 9,4 km/h (2 Bft) 100 %
13.03.2018 06:40 6,8 C 93 % 995,9 hPa 0,0 l/m 4,2 km/h (1 Bft) W-SW 245 5,7 C 9,4 km/h (2 Bft) 100 %
13.03.2018 06:41 6,8 C 93 % 995,9 hPa 0,0 l/m 3,1 km/h (1 Bft) NW 313 5,7 C 9,4 km/h (2 Bft) 100 %
13.03.2018 06:42 6,8 C 93 % 996,0 hPa 0,0 l/m 2,6 km/h (1 Bft) W-NW 290 5,7 C 6,3 km/h (2 Bft) 100 %
13.03.2018 06:43 6,8 C 93 % 996,0 hPa 0,0 l/m 4,6 km/h (1 Bft) W 270 5,7 C 12,6 km/h (3 Bft) 100 %
13.03.2018 06:44 6,8 C 93 % 995,9 hPa 0,0 l/m 2,9 km/h (1 Bft) S-SO 155 5,7 C 6,3 km/h (2 Bft) 100 %
13.03.2018 06:45 6,8 C 93 % 996,0 hPa 0,0 l/m 4,6 km/h (1 Bft) W 274 5,7 C 6,3 km/h (2 Bft) 100 %
13.03.2018 06:46 6,8 C 93 % 995,9 hPa 0,0 l/m 4,1 km/h (1 Bft) NW 311 5,7 C 9,4 km/h (2 Bft) 100 %
13.03.2018 06:47 6,8 C 93 % 995,9 hPa 0,0 l/m 5,8 km/h (2 Bft) S-SW 202 5,7 C 9,4 km/h (2 Bft) 100 %
13.03.2018 06:48 6,8 C 93 % 996,0 hPa 0,0 l/m 3,4 km/h (1 Bft) W-SW 242 5,7 C 9,4 km/h (2 Bft) 100 %
13.03.2018 06:49 6,8 C 92 % 996,0 hPa 0,0 l/m 5,0 km/h (1 Bft) W 268 5,6 C 12,6 km/h (3 Bft) 100 %
13.03.2018 06:50 6,8 C 92 % 995,9 hPa 0,0 l/m 1,6 km/h (1 Bft) S-SW 204 5,6 C 6,3 km/h (2 Bft) 100 %
13.03.2018 06:51 6,8 C 92 % 996,0 hPa 0,0 l/m 4,6 km/h (1 Bft) W 271 5,6 C 9,4 km/h (2 Bft) 100 %
13.03.2018 06:52 6,8 C 92 % 996,0 hPa 0,0 l/m 1,6 km/h (1 Bft) SW 214 5,6 C 6,3 km/h (2 Bft) 100 %
13.03.2018 06:53 6,8 C 92 % 996,0 hPa 0,0 l/m 1,4 km/h (1 Bft) S-SW 209 5,6 C 3,1 km/h (1 Bft) 100 %
13.03.2018 06:54 6,8 C 92 % 996,0 hPa 0,0 l/m 0,9 km/h (0 Bft) W-NW 302 5,6 C 3,1 km/h (1 Bft) 100 %
13.03.2018 06:55 6,8 C 92 % 996,0 hPa 0,0 l/m 2,5 km/h (1 Bft) W 260 5,6 C 3,1 km/h (1 Bft) 96 %
13.03.2018 06:56 6,8 C 92 % 996,1 hPa 0,0 l/m 4,3 km/h (1 Bft) SW 228 5,6 C 9,4 km/h (2 Bft) 100 %
13.03.2018 06:57 6,7 C 92 % 996,0 hPa 0,0 l/m 4,2 km/h (1 Bft) W 265 5,5 C 6,3 km/h (2 Bft) 96 %
13.03.2018 06:58 6,7 C 92 % 996,1 hPa 0,0 l/m 5,4 km/h (1 Bft) NW 311 5,5 C 12,6 km/h (3 Bft) 96 %
13.03.2018 06:59 6,7 C 92 % 996,1 hPa 0,0 l/m 4,9 km/h (1 Bft) S-SO 160 5,5 C 12,6 km/h (3 Bft) 100 %
13.03.2018 07:00 6,7 C 92 % 996,1 hPa 0,0 l/m 5,5 km/h (1 Bft) W 275 5,5 C 12,6 km/h (3 Bft) 100 %
13.03.2018 07:01 6,7 C 92 % 996,1 hPa 0,0 l/m 1,7 km/h (1 Bft) W-NW 298 5,5 C 6,3 km/h (2 Bft) 100 %
13.03.2018 07:02 6,7 C 92 % 996,1 hPa 0,0 l/m 4,9 km/h (1 Bft) W 269 5,5 C 12,6 km/h (3 Bft) 100 %
13.03.2018 07:03 6,7 C 92 % 996,0 hPa 0,0 l/m 5,9 km/h (2 Bft) W-NW 285 5,5 C 9,4 km/h (2 Bft) 96 %
13.03.2018 07:04 6,7 C 92 % 996,0 hPa 0,0 l/m 4,3 km/h (1 Bft) W-SW 237 5,5 C 15,7 km/h (3 Bft) 100 %
13.03.2018 07:05 6,7 C 92 % 996,1 hPa 0,0 l/m 3,5 km/h (1 Bft) SW 226 5,5 C 9,4 km/h (2 Bft) 96 %
13.03.2018 07:06 6,7 C 92 % 996,1 hPa 0,0 l/m 3,6 km/h (1 Bft) W-NW 282 5,5 C 9,4 km/h (2 Bft) 100 %
13.03.2018 07:07 6,7 C 92 % 996,1 hPa 0,0 l/m 5,5 km/h (1 Bft) SW 221 5,5 C 9,4 km/h (2 Bft) 96 %
13.03.2018 07:08 6,7 C 92 % 996,1 hPa 0,0 l/m 1,6 km/h (1 Bft) S-SO 156 5,5 C 3,1 km/h (1 Bft) 100 %
13.03.2018 07:09 6,7 C 92 % 996,1 hPa 0,0 l/m 3,4 km/h (1 Bft) W-SW 251 5,5 C 9,4 km/h (2 Bft) 98 %
13.03.2018 07:10 6,7 C 92 % 996,1 hPa 0,0 l/m 3,5 km/h (1 Bft) SW 229 5,5 C 12,6 km/h (3 Bft) 96 %
13.03.2018 07:11 6,7 C 92 % 996,2 hPa 0,0 l/m 4,6 km/h (1 Bft) W-NW 293 5,5 C 6,3 km/h (2 Bft) 100 %
13.03.2018 07:12 6,7 C 92 % 996,1 hPa 0,0 l/m 7,0 km/h (2 Bft) W-NW 288 5,5 C 15,7 km/h (3 Bft) 96 %
13.03.2018 07:13 6,7 C 92 % 996,1 hPa 0,0 l/m 1,6 km/h (1 Bft) W-SW 248 5,5 C 6,3 km/h (2 Bft) 100 %
13.03.2018 07:14 6,7 C 92 % 996,1 hPa 0,0 l/m 3,3 km/h (1 Bft) SW 235 5,5 C 9,4 km/h (2 Bft) 91 %
13.03.2018 07:15 6,7 C 92 % 996,2 hPa 0,0 l/m 6,3 km/h (2 Bft) SW 216 5,5 C 12,6 km/h (3 Bft) 100 %
13.03.2018 07:16 6,7 C 92 % 996,2 hPa 0,0 l/m 5,2 km/h (1 Bft) W-SW 252 5,5 C 9,4 km/h (2 Bft) 96 %
13.03.2018 07:17 6,7 C 92 % 996,2 hPa 0,0 l/m 7,1 km/h (2 Bft) W-SW 242 5,5 C 15,7 km/h (3 Bft) 96 %
13.03.2018 07:18 6,7 C 92 % 996,2 hPa 0,0 l/m 6,6 km/h (2 Bft) W-SW 257 5,5 C 9,4 km/h (2 Bft) 100 %
13.03.2018 07:19 6,7 C 92 % 996,2 hPa 0,0 l/m 6,3 km/h (2 Bft) W-NW 287 5,5 C 12,6 km/h (3 Bft) 100 %
13.03.2018 07:20 6,7 C 92 % 996,2 hPa 0,0 l/m 6,3 km/h (2 Bft) S-SW 201 5,5 C 12,6 km/h (3 Bft) 96 %
13.03.2018 07:21 6,7 C 92 % 996,2 hPa 0,0 l/m 5,9 km/h (2 Bft) SO 136 5,5 C 15,7 km/h (3 Bft) 96 %
13.03.2018 07:22 6,8 C 92 % 996,2 hPa 0,0 l/m 5,9 km/h (2 Bft) W-SW 239 5,6 C 18,8 km/h (3 Bft) 100 %
13.03.2018 07:23 6,7 C 92 % 996,2 hPa 0,0 l/m 5,5 km/h (1 Bft) W-SW 250 5,5 C 12,6 km/h (3 Bft) 100 %
13.03.2018 07:24 6,8 C 92 % 996,2 hPa 0,0 l/m 5,1 km/h (1 Bft) W-NW 294 5,6 C 12,6 km/h (3 Bft) 100 %
13.03.2018 07:25 6,8 C 92 % 996,2 hPa 0,0 l/m 7,5 km/h (2 Bft) S-SW 199 5,6 C 12,6 km/h (3 Bft) 100 %
13.03.2018 07:26 6,8 C 92 % 996,2 hPa 0,0 l/m 5,6 km/h (1 Bft) W-NW 290 5,6 C 9,4 km/h (2 Bft) 100 %
13.03.2018 07:27 6,8 C 92 % 996,3 hPa 0,0 l/m 3,7 km/h (1 Bft) SW 226 5,6 C 9,4 km/h (2 Bft) 100 %
13.03.2018 07:28 6,8 C 92 % 996,3 hPa 0,0 l/m 4,2 km/h (1 Bft) S-SW 212 5,6 C 12,6 km/h (3 Bft) 100 %
13.03.2018 07:29 6,8 C 92 % 996,3 hPa 0,0 l/m 3,0 km/h (1 Bft) SW 217 5,6 C 9,4 km/h (2 Bft) 100 %
13.03.2018 07:30 6,8 C 92 % 996,3 hPa 0,0 l/m 6,4 km/h (2 Bft) S 179 5,6 C 15,7 km/h (3 Bft) 100 %
13.03.2018 07:31 6,8 C 92 % 996,3 hPa 0,0 l/m 5,8 km/h (2 Bft) W-SW 257 5,6 C 12,6 km/h (3 Bft) 100 %
13.03.2018 07:32 6,8 C 92 % 996,4 hPa 0,0 l/m 6,7 km/h (2 Bft) SW 216 5,6 C 15,7 km/h (3 Bft) 100 %
13.03.2018 07:33 6,8 C 92 % 996,4 hPa 0,0 l/m 2,9 km/h (1 Bft) SW 226 5,6 C 6,3 km/h (2 Bft) 100 %
13.03.2018 07:34 6,8 C 92 % 996,4 hPa 0,0 l/m 3,4 km/h (1 Bft) S-SW 213 5,6 C 6,3 km/h (2 Bft) 100 %
13.03.2018 07:35 6,8 C 92 % 996,4 hPa 0,0 l/m 1,9 km/h (1 Bft) SW 219 5,6 C 3,1 km/h (1 Bft) 100 %
13.03.2018 07:36 6,8 C 92 % 996,3 hPa 0,0 l/m 3,8 km/h (1 Bft) W-SW 257 5,6 C 9,4 km/h (2 Bft) 100 %
13.03.2018 07:37 6,8 C 92 % 996,4 hPa 0,0 l/m 2,5 km/h (1 Bft) W-SW 255 5,6 C 6,3 km/h (2 Bft) 100 %
13.03.2018 07:38 6,8 C 92 % 996,3 hPa 0,0 l/m 0,0 km/h (0 Bft) S-SW 213 5,6 C 0,0 km/h (0 Bft) 100 %
13.03.2018 07:39 6,9 C 92 % 996,4 hPa 0,0 l/m 4,7 km/h (1 Bft) SW 214 5,7 C 9,4 km/h (2 Bft) 100 %
13.03.2018 07:40 6,9 C 92 % 996,4 hPa 0,0 l/m 2,2 km/h (1 Bft) S-SW 192 5,7 C 6,3 km/h (2 Bft) 96 %
13.03.2018 07:41 6,9 C 92 % 996,4 hPa 0,0 l/m 6,7 km/h (2 Bft) S-SW 195 5,7 C 15,7 km/h (3 Bft) 100 %
13.03.2018 07:42 6,9 C 92 % 996,4 hPa 0,0 l/m 3,8 km/h (1 Bft) S-SW 212 5,7 C 6,3 km/h (2 Bft) 100 %
13.03.2018 07:43 6,9 C 92 % 996,4 hPa 0,0 l/m 6,0 km/h (2 Bft) W-NW 295 5,7 C 12,6 km/h (3 Bft) 100 %
13.03.2018 07:44 6,9 C 92 % 996,4 hPa 0,0 l/m 2,6 km/h (1 Bft) NW 316 5,7 C 6,3 km/h (2 Bft) 100 %
13.03.2018 07:45 6,9 C 92 % 996,5 hPa 0,0 l/m 4,5 km/h (1 Bft) W-SW 252 5,7 C 6,3 km/h (2 Bft) 99 %
13.03.2018 07:46 6,9 C 92 % 996,5 hPa 0,0 l/m 5,4 km/h (1 Bft) W-NW 283 5,7 C 12,6 km/h (3 Bft) 100 %
13.03.2018 07:47 6,9 C 92 % 996,4 hPa 0,0 l/m 2,2 km/h (1 Bft) S-SO 163 5,7 C 9,4 km/h (2 Bft) 100 %
13.03.2018 07:48 6,9 C 92 % 996,5 hPa 0,0 l/m 2,2 km/h (1 Bft) SW 233 5,7 C 9,4 km/h (2 Bft) 100 %
13.03.2018 07:49 6,9 C 92 % 996,5 hPa 0,0 l/m 2,5 km/h (1 Bft) SW 231 5,7 C 9,4 km/h (2 Bft) 100 %
13.03.2018 07:50 6,9 C 92 % 996,5 hPa 0,0 l/m 2,0 km/h (1 Bft) N-NW 341 5,7 C 6,3 km/h (2 Bft) 100 %
13.03.2018 07:51 6,9 C 92 % 996,5 hPa 0,0 l/m 5,6 km/h (1 Bft) W-SW 252 5,7 C 15,7 km/h (3 Bft) 100 %
13.03.2018 07:52 6,9 C 92 % 996,5 hPa 0,0 l/m 2,4 km/h (1 Bft) S 178 5,7 C 6,3 km/h (2 Bft) 100 %
13.03.2018 07:53 6,9 C 92 % 996,5 hPa 0,0 l/m 3,6 km/h (1 Bft) S-SO 159 5,7 C 6,3 km/h (2 Bft) 100 %
13.03.2018 07:54 6,9 C 92 % 996,6 hPa 0,0 l/m 0,7 km/h (0 Bft) W-SW 251 5,7 C 3,1 km/h (1 Bft) 100 %
13.03.2018 07:55 6,9 C 92 % 996,5 hPa 0,0 l/m 3,1 km/h (1 Bft) W-NW 300 5,7 C 6,3 km/h (2 Bft) 100 %
13.03.2018 07:56 6,9 C 92 % 996,6 hPa 0,0 l/m 1,6 km/h (1 Bft) SW 219 5,7 C 3,1 km/h (1 Bft) 100 %
13.03.2018 07:57 6,9 C 92 % 996,6 hPa 0,0 l/m 3,9 km/h (1 Bft) S-SW 212 5,7 C 15,7 km/h (3 Bft) 100 %
13.03.2018 07:58 6,9 C 92 % 996,6 hPa 0,0 l/m 1,0 km/h (0 Bft) SW 229 5,7 C 3,1 km/h (1 Bft) 100 %
13.03.2018 07:59 6,9 C 92 % 996,5 hPa 0,0 l/m 0,9 km/h (0 Bft) W 265 5,7 C 3,1 km/h (1 Bft) 100 %
13.03.2018 08:00 6,9 C 92 % 996,6 hPa 0,0 l/m 8,0 km/h (2 Bft) W 271 5,7 C 12,6 km/h (3 Bft) 100 %
13.03.2018 08:01 6,9 C 92 % 996,6 hPa 0,0 l/m 3,4 km/h (1 Bft) W-SW 258 5,7 C 15,7 km/h (3 Bft) 100 %
13.03.2018 08:02 6,9 C 92 % 996,6 hPa 0,0 l/m 2,1 km/h (1 Bft) S-SW 197 5,7 C 3,1 km/h (1 Bft) 99 %
13.03.2018 08:03 7,0 C 92 % 996,6 hPa 0,0 l/m 2,9 km/h (1 Bft) W 278 5,8 C 6,3 km/h (2 Bft) 100 %
13.03.2018 08:04 7,0 C 92 % 996,6 hPa 0,0 l/m 1,9 km/h (1 Bft) W-SW 250 5,8 C 3,1 km/h (1 Bft) 100 %
13.03.2018 08:05 7,0 C 92 % 996,6 hPa 0,0 l/m 1,3 km/h (1 Bft) S 176 5,8 C 6,3 km/h (2 Bft) 100 %
13.03.2018 08:06 7,0 C 92 % 996,7 hPa 0,0 l/m 0,1 km/h (0 Bft) W-SW 256 5,8 C 3,1 km/h (1 Bft) 100 %
13.03.2018 08:07 7,0 C 92 % 996,7 hPa 0,0 l/m 0,2 km/h (0 Bft) SW 231 5,8 C 3,1 km/h (1 Bft) 100 %
13.03.2018 08:10 7,1 C 92 % 996,7 hPa 0,0 l/m 3,3 km/h (1 Bft) W-NW 287 5,9 C 6,3 km/h (2 Bft) 100 %
13.03.2018 08:15 7,1 C 92 % 996,7 hPa 0,0 l/m 4,2 km/h (1 Bft) S-SW 212 5,9 C 6,3 km/h (2 Bft) 100 %
13.03.2018 08:16 7,1 C 92 % 996,8 hPa 0,0 l/m 6,3 km/h (2 Bft) SW 215 5,9 C 12,6 km/h (3 Bft) 100 %
13.03.2018 08:17 7,1 C 92 % 996,8 hPa 0,0 l/m 5,5 km/h (1 Bft) W-NW 301 5,9 C 12,6 km/h (3 Bft) 100 %
13.03.2018 08:18 7,1 C 91 % 996,7 hPa 0,0 l/m 4,1 km/h (1 Bft) W 267 5,7 C 6,3 km/h (2 Bft) 100 %
13.03.2018 08:19 7,2 C 91 % 996,7 hPa 0,0 l/m 2,6 km/h (1 Bft) W-SW 250 5,8 C 9,4 km/h (2 Bft) 100 %
13.03.2018 08:20 7,2 C 91 % 996,7 hPa 0,0 l/m 0,2 km/h (0 Bft) S-SW 207 5,8 C 3,1 km/h (1 Bft) 100 %
13.03.2018 08:21 7,2 C 91 % 996,7 hPa 0,0 l/m 4,8 km/h (1 Bft) S-SW 208 5,8 C 9,4 km/h (2 Bft) 100 %
13.03.2018 08:22 7,2 C 91 % 996,8 hPa 0,0 l/m 1,9 km/h (1 Bft) W-NW 288 5,8 C 9,4 km/h (2 Bft) 100 %
13.03.2018 08:23 7,2 C 91 % 996,8 hPa 0,0 l/m 2,4 km/h (1 Bft) W-NW 282 5,8 C 6,3 km/h (2 Bft) 100 %
13.03.2018 08:24 7,2 C 91 % 996,8 hPa 0,0 l/m 8,1 km/h (2 Bft) S 172 5,8 C 15,7 km/h (3 Bft) 100 %
13.03.2018 08:25 7,2 C 91 % 996,8 hPa 0,2 l/m 1,4 km/h (1 Bft) SO 128 5,8 C 6,3 km/h (2 Bft) 100 %
13.03.2018 08:26 7,2 C 91 % 996,7 hPa 0,0 l/m 1,6 km/h (1 Bft) W 264 5,8 C 6,3 km/h (2 Bft) 100 %
13.03.2018 08:27 7,2 C 91 % 996,8 hPa 0,0 l/m 2,5 km/h (1 Bft) W 281 5,8 C 9,4 km/h (2 Bft) 100 %
13.03.2018 08:28 7,2 C 91 % 996,8 hPa 0,0 l/m 9,9 km/h (2 Bft) O 89 5,8 C 18,8 km/h (3 Bft) 100 %
13.03.2018 08:29 7,2 C 91 % 996,8 hPa 0,0 l/m 7,5 km/h (2 Bft) NW 304 5,8 C 12,6 km/h (3 Bft) 100 %
13.03.2018 08:30 7,2 C 91 % 996,8 hPa 0,0 l/m 2,4 km/h (1 Bft) W-NW 293 5,8 C 9,4 km/h (2 Bft) 96 %
13.03.2018 08:31 7,2 C 91 % 996,8 hPa 0,0 l/m 7,2 km/h (2 Bft) SW 214 5,8 C 12,6 km/h (3 Bft) 100 %
13.03.2018 08:32 7,2 C 91 % 996,8 hPa 0,0 l/m 4,7 km/h (1 Bft) W 267 5,8 C 12,6 km/h (3 Bft) 100 %
13.03.2018 08:33 7,2 C 91 % 996,8 hPa 0,0 l/m 3,5 km/h (1 Bft) W 274 5,8 C 9,4 km/h (2 Bft) 100 %
13.03.2018 08:34 7,2 C 91 % 996,8 hPa 0,0 l/m 6,3 km/h (2 Bft) W-SW 243 5,8 C 9,4 km/h (2 Bft) 100 %
13.03.2018 08:35 7,2 C 91 % 996,8 hPa 0,0 l/m 8,5 km/h (2 Bft) SW 236 5,8 C 18,8 km/h (3 Bft) 100 %
13.03.2018 08:36 7,3 C 91 % 996,9 hPa 0,0 l/m 1,3 km/h (1 Bft) SW 224 5,9 C 3,1 km/h (1 Bft) 100 %
13.03.2018 08:37 7,2 C 91 % 996,9 hPa 0,0 l/m 2,4 km/h (1 Bft) W-SW 240 5,8 C 6,3 km/h (2 Bft) 100 %
13.03.2018 08:38 7,2 C 92 % 996,9 hPa 0,0 l/m 3,1 km/h (1 Bft) SO 146 6,0 C 6,3 km/h (2 Bft) 96 %
13.03.2018 08:39 7,2 C 92 % 996,9 hPa 0,0 l/m 3,8 km/h (1 Bft) SW 221 6,0 C 6,3 km/h (2 Bft) 100 %
13.03.2018 08:40 7,2 C 92 % 996,9 hPa 0,0 l/m 5,8 km/h (2 Bft) NW 311 6,0 C 15,7 km/h (3 Bft) 100 %
13.03.2018 08:41 7,2 C 92 % 996,9 hPa 0,0 l/m 4,6 km/h (1 Bft) N 6 6,0 C 9,4 km/h (2 Bft) 100 %
13.03.2018 08:42 7,2 C 92 % 996,9 hPa 0,0 l/m 2,7 km/h (1 Bft) SW 223 6,0 C 9,4 km/h (2 Bft) 100 %
13.03.2018 08:43 7,2 C 92 % 997,0 hPa 0,0 l/m 5,4 km/h (1 Bft) W-NW 290 6,0 C 9,4 km/h (2 Bft) 100 %
13.03.2018 08:44 7,2 C 92 % 996,9 hPa 0,0 l/m 3,7 km/h (1 Bft) S 186 6,0 C 15,7 km/h (3 Bft) 100 %
13.03.2018 08:45 7,2 C 92 % 996,9 hPa 0,0 l/m 2,1 km/h (1 Bft) SW 233 6,0 C 9,4 km/h (2 Bft) 88 %
13.03.2018 08:46 7,2 C 92 % 996,9 hPa 0,0 l/m 8,0 km/h (2 Bft) S-SW 212 6,0 C 18,8 km/h (3 Bft) 96 %
13.03.2018 08:47 7,3 C 92 % 996,9 hPa 0,0 l/m 6,4 km/h (2 Bft) SW 219 6,1 C 9,4 km/h (2 Bft) 100 %
13.03.2018 08:48 7,3 C 92 % 997,0 hPa 0,0 l/m 5,8 km/h (2 Bft) S-SW 197 6,1 C 9,4 km/h (2 Bft) 100 %
13.03.2018 08:49 7,3 C 92 % 997,0 hPa 0,0 l/m 8,8 km/h (2 Bft) S-SW 210 6,1 C 15,7 km/h (3 Bft) 100 %
13.03.2018 08:50 7,3 C 92 % 997,0 hPa 0,0 l/m 4,4 km/h (1 Bft) W 261 6,1 C 9,4 km/h (2 Bft) 92 %
13.03.2018 08:51 7,3 C 92 % 997,0 hPa 0,0 l/m 5,6 km/h (1 Bft) SW 235 6,1 C 15,7 km/h (3 Bft) 100 %
13.03.2018 08:52 7,3 C 92 % 997,0 hPa 0,0 l/m 3,0 km/h (1 Bft) W-NW 286 6,1 C 12,6 km/h (3 Bft) 96 %
13.03.2018 08:53 7,3 C 92 % 997,0 hPa 0,0 l/m 4,7 km/h (1 Bft) W-NW 293 6,1 C 9,4 km/h (2 Bft) 96 %
13.03.2018 08:54 7,3 C 92 % 997,0 hPa 0,0 l/m 3,3 km/h (1 Bft) SW 229 6,1 C 6,3 km/h (2 Bft) 100 %
13.03.2018 08:55 7,3 C 92 % 997,1 hPa 0,0 l/m 0,4 km/h (0 Bft) W-NW 293 6,1 C 3,1 km/h (1 Bft) 100 %
13.03.2018 08:56 7,3 C 92 % 997,0 hPa 0,0 l/m 5,2 km/h (1 Bft) W-NW 289 6,1 C 6,3 km/h (2 Bft) 100 %
13.03.2018 08:57 7,3 C 92 % 997,0 hPa 0,0 l/m 5,0 km/h (1 Bft) W-SW 255 6,1 C 12,6 km/h (3 Bft) 86 %
13.03.2018 08:58 7,4 C 92 % 997,0 hPa 0,0 l/m 8,0 km/h (2 Bft) W-SW 250 6,2 C 12,6 km/h (3 Bft) 92 %
13.03.2018 08:59 7,4 C 92 % 997,0 hPa 0,0 l/m 6,3 km/h (2 Bft) O-SO 109 6,2 C 15,7 km/h (3 Bft) 92 %
13.03.2018 09:00 7,4 C 92 % 997,0 hPa 0,0 l/m 3,6 km/h (1 Bft) S 187 6,2 C 6,3 km/h (2 Bft) 73 %
13.03.2018 09:01 7,4 C 92 % 997,0 hPa 0,0 l/m 8,5 km/h (2 Bft) SW 224 6,2 C 18,8 km/h (3 Bft) 75 %
13.03.2018 09:02 7,4 C 91 % 997,1 hPa 0,0 l/m 7,1 km/h (2 Bft) W-SW 244 6,0 C 12,6 km/h (3 Bft) 96 %
13.03.2018 09:03 7,4 C 91 % 997,0 hPa 0,0 l/m 5,6 km/h (1 Bft) W-NW 284 6,0 C 12,6 km/h (3 Bft) 96 %
13.03.2018 09:04 7,5 C 91 % 997,0 hPa 0,0 l/m 6,4 km/h (2 Bft) SW 217 6,1 C 18,8 km/h (3 Bft) 96 %
13.03.2018 09:05 7,5 C 91 % 997,1 hPa 0,0 l/m 3,5 km/h (1 Bft) S-SW 201 6,1 C 9,4 km/h (2 Bft) 83 %
13.03.2018 09:06 7,5 C 91 % 997,0 hPa 0,0 l/m 2,5 km/h (1 Bft) S-SW 203 6,1 C 6,3 km/h (2 Bft) 88 %
13.03.2018 09:07 7,6 C 91 % 997,1 hPa 0,0 l/m 7,6 km/h (2 Bft) S-SO 162 6,2 C 22,0 km/h (4 Bft) 100 %
13.03.2018 09:08 7,6 C 91 % 997,1 hPa 0,0 l/m 5,1 km/h (1 Bft) SW 233 6,2 C 9,4 km/h (2 Bft) 93 %
13.03.2018 09:09 7,6 C 91 % 997,1 hPa 0,0 l/m 12,4 km/h (3 Bft) SW 218 6,2 C 28,2 km/h (4 Bft) 85 %
13.03.2018 09:10 7,6 C 91 % 997,1 hPa 0,0 l/m 2,6 km/h (1 Bft) W-SW 243 6,2 C 9,4 km/h (2 Bft) 93 %
13.03.2018 09:11 7,6 C 91 % 997,1 hPa 0,0 l/m 7,5 km/h (2 Bft) W 263 6,2 C 9,4 km/h (2 Bft) 95 %
13.03.2018 09:12 7,6 C 91 % 997,1 hPa 0,0 l/m 2,4 km/h (1 Bft) S-SW 198 6,2 C 6,3 km/h (2 Bft) 87 %
13.03.2018 09:13 7,6 C 91 % 997,1 hPa 0,0 l/m 6,7 km/h (2 Bft) S-SW 197 6,2 C 15,7 km/h (3 Bft) 96 %
13.03.2018 09:14 7,7 C 91 % 997,1 hPa 0,0 l/m 5,8 km/h (2 Bft) SW 217 6,3 C 12,6 km/h (3 Bft) 100 %
13.03.2018 09:15 7,7 C 91 % 997,1 hPa 0,0 l/m 0,4 km/h (0 Bft) W-SW 242 6,3 C 3,1 km/h (1 Bft) 89 %
13.03.2018 09:16 7,7 C 91 % 997,1 hPa 0,0 l/m 0,0 km/h (0 Bft) S 188 6,3 C 0,0 km/h (0 Bft) 100 %
13.03.2018 09:17 7,7 C 91 % 997,1 hPa 0,0 l/m 3,4 km/h (1 Bft) N-NW 329 6,3 C 6,3 km/h (2 Bft) 94 %
13.03.2018 09:18 7,7 C 91 % 997,1 hPa 0,0 l/m 6,1 km/h (2 Bft) NW 304 6,3 C 18,8 km/h (3 Bft) 89 %
13.03.2018 09:19 7,8 C 91 % 997,1 hPa 0,0 l/m 5,4 km/h (1 Bft) N-NW 339 6,4 C 12,6 km/h (3 Bft) 100 %
13.03.2018 09:20 7,8 C 91 % 997,1 hPa 0,0 l/m 5,1 km/h (1 Bft) SW 217 6,4 C 12,6 km/h (3 Bft) 100 %
13.03.2018 09:21 7,8 C 91 % 997,1 hPa 0,0 l/m 3,0 km/h (1 Bft) SW 222 6,4 C 9,4 km/h (2 Bft) 96 %
13.03.2018 09:22 7,8 C 90 % 997,1 hPa 0,0 l/m 5,2 km/h (1 Bft) N 350 6,3 C 15,7 km/h (3 Bft) 100 %
13.03.2018 09:23 7,8 C 90 % 997,1 hPa 0,0 l/m 6,0 km/h (2 Bft) W 264 6,3 C 9,4 km/h (2 Bft) 100 %
13.03.2018 09:24 7,8 C 90 % 997,2 hPa 0,0 l/m 10,7 km/h (2 Bft) S 174 6,3 C 22,0 km/h (4 Bft) 96 %
13.03.2018 09:25 7,8 C 90 % 997,1 hPa 0,0 l/m 1,9 km/h (1 Bft) NW 305 6,3 C 6,3 km/h (2 Bft) 100 %
13.03.2018 09:26 7,8 C 90 % 997,1 hPa 0,0 l/m 5,9 km/h (2 Bft) NW 316 6,3 C 15,7 km/h (3 Bft) 94 %
13.03.2018 09:27 7,9 C 90 % 997,1 hPa 0,0 l/m 7,3 km/h (2 Bft) N-NO 23 6,4 C 9,4 km/h (2 Bft) 100 %
13.03.2018 09:28 7,9 C 90 % 997,1 hPa 0,0 l/m 8,8 km/h (2 Bft) S-SW 193 6,4 C 18,8 km/h (3 Bft) 100 %
13.03.2018 09:29 7,9 C 90 % 997,1 hPa 0,0 l/m 1,4 km/h (1 Bft) W-SW 258 6,4 C 3,1 km/h (1 Bft) 100 %
13.03.2018 09:30 7,9 C 90 % 997,2 hPa 0,0 l/m 3,8 km/h (1 Bft) SW 230 6,4 C 12,6 km/h (3 Bft) 100 %
13.03.2018 09:31 7,9 C 90 % 997,2 hPa 0,0 l/m 4,4 km/h (1 Bft) NW 311 6,4 C 9,4 km/h (2 Bft) 96 %
13.03.2018 09:32 7,9 C 90 % 997,1 hPa 0,0 l/m 3,5 km/h (1 Bft) SW 222 6,4 C 9,4 km/h (2 Bft) 100 %
13.03.2018 09:33 8,0 C 89 % 997,2 hPa 0,0 l/m 11,0 km/h (2 Bft) S-SW 212 6,3 C 18,8 km/h (3 Bft) 100 %
13.03.2018 09:34 8,0 C 89 % 997,2 hPa 0,0 l/m 8,9 km/h (2 Bft) O-SO 114 6,3 C 18,8 km/h (3 Bft) 96 %
13.03.2018 09:35 8,0 C 89 % 997,2 hPa 0,0 l/m 5,3 km/h (1 Bft) SW 226 6,3 C 18,8 km/h (3 Bft) 100 %
13.03.2018 09:36 8,1 C 89 % 997,2 hPa 0,0 l/m 6,1 km/h (2 Bft) W-SW 247 6,4 C 9,4 km/h (2 Bft) 100 %
13.03.2018 09:37 8,1 C 89 % 997,2 hPa 0,0 l/m 8,0 km/h (2 Bft) W-NW 295 6,4 C 15,7 km/h (3 Bft) 100 %
13.03.2018 09:38 8,1 C 89 % 997,2 hPa 0,0 l/m 7,6 km/h (2 Bft) SW 234 6,4 C 12,6 km/h (3 Bft) 100 %
13.03.2018 09:39 8,1 C 89 % 997,2 hPa 0,0 l/m 6,3 km/h (2 Bft) SO 131 6,4 C 12,6 km/h (3 Bft) 100 %
13.03.2018 09:40 8,1 C 88 % 997,2 hPa 0,0 l/m 7,3 km/h (2 Bft) W-SW 246 6,2 C 15,7 km/h (3 Bft) 100 %
13.03.2018 09:41 8,2 C 89 % 997,2 hPa 0,0 l/m 4,8 km/h (1 Bft) S-SW 206 6,5 C 12,6 km/h (3 Bft) 96 %
13.03.2018 09:42 8,2 C 89 % 997,2 hPa 0,0 l/m 5,6 km/h (1 Bft) W 260 6,5 C 12,6 km/h (3 Bft) 91 %
13.03.2018 09:43 8,2 C 88 % 997,3 hPa 0,0 l/m 6,3 km/h (2 Bft) S-SW 203 6,3 C 12,6 km/h (3 Bft) 100 %
13.03.2018 09:44 8,2 C 88 % 997,2 hPa 0,0 l/m 7,7 km/h (2 Bft) W-SW 252 6,3 C 15,7 km/h (3 Bft) 100 %
13.03.2018 09:45 8,2 C 88 % 997,2 hPa 0,0 l/m 6,7 km/h (2 Bft) SW 221 6,3 C 15,7 km/h (3 Bft) 88 %
13.03.2018 09:47 8,3 C 88 % 997,2 hPa 0,0 l/m 13,1 km/h (3 Bft) SW 222 6,4 C 25,1 km/h (4 Bft) 98 %
13.03.2018 09:48 8,3 C 87 % 997,2 hPa 0,0 l/m 10,2 km/h (2 Bft) S-SW 210 6,3 C 25,1 km/h (4 Bft) 100 %
13.03.2018 09:49 8,3 C 87 % 997,3 hPa 0,0 l/m 6,3 km/h (2 Bft) W-SW 250 6,3 C 15,7 km/h (3 Bft) 100 %
13.03.2018 09:50 8,3 C 87 % 997,2 hPa 0,0 l/m 4,1 km/h (1 Bft) SW 231 6,3 C 12,6 km/h (3 Bft) 100 %
13.03.2018 09:51 8,3 C 87 % 997,2 hPa 0,0 l/m 4,4 km/h (1 Bft) W-SW 244 6,3 C 12,6 km/h (3 Bft) 100 %
13.03.2018 09:52 8,3 C 87 % 997,2 hPa 0,0 l/m 7,0 km/h (2 Bft) S-SW 193 6,3 C 12,6 km/h (3 Bft) 92 %
13.03.2018 09:53 8,4 C 87 % 997,3 hPa 0,0 l/m 4,4 km/h (1 Bft) W-NW 283 6,4 C 9,4 km/h (2 Bft) 100 %
13.03.2018 09:54 8,4 C 87 % 997,3 hPa 0,0 l/m 3,6 km/h (1 Bft) W-SW 255 6,4 C 12,6 km/h (3 Bft) 100 %
13.03.2018 09:55 8,4 C 87 % 997,5 hPa 0,0 l/m 6,9 km/h (2 Bft) SW 219 6,4 C 25,1 km/h (4 Bft) 100 %
13.03.2018 09:56 8,4 C 87 % 997,3 hPa 0,0 l/m 5,8 km/h (2 Bft) SW 220 6,4 C 12,6 km/h (3 Bft) 100 %
13.03.2018 09:57 8,5 C 87 % 997,4 hPa 0,0 l/m 3,8 km/h (1 Bft) O-SO 115 6,5 C 12,6 km/h (3 Bft) 100 %
13.03.2018 09:58 8,5 C 87 % 997,3 hPa 0,0 l/m 8,3 km/h (2 Bft) NW 307 6,5 C 18,8 km/h (3 Bft) 100 %
13.03.2018 09:59 8,5 C 86 % 997,3 hPa 0,0 l/m 11,5 km/h (2 Bft) W-NW 295 6,3 C 25,1 km/h (4 Bft) 100 %
13.03.2018 10:00 8,5 C 86 % 997,3 hPa 0,0 l/m 5,4 km/h (1 Bft) W-SW 255 6,3 C 9,4 km/h (2 Bft) 100 %
13.03.2018 10:01 8,6 C 86 % 997,4 hPa 0,0 l/m 10,0 km/h (2 Bft) SW 226 6,4 C 22,0 km/h (4 Bft) 100 %
13.03.2018 10:02 8,6 C 85 % 997,4 hPa 0,0 l/m 17,0 km/h (3 Bft) W-SW 244 6,2 C 34,5 km/h (5 Bft) 100 %
13.03.2018 10:03 8,6 C 86 % 997,3 hPa 0,0 l/m 8,3 km/h (2 Bft) W-SW 248 6,4 C 15,7 km/h (3 Bft) 100 %
13.03.2018 10:04 8,6 C 86 % 997,4 hPa 0,0 l/m 8,2 km/h (2 Bft) S-SW 206 6,4 C 18,8 km/h (3 Bft) 100 %
13.03.2018 10:05 8,6 C 86 % 997,3 hPa 0,0 l/m 16,0 km/h (3 Bft) S-SW 193 6,4 C 25,1 km/h (4 Bft) 100 %
13.03.2018 10:06 8,7 C 85 % 997,3 hPa 0,0 l/m 4,4 km/h (1 Bft) S-SW 194 6,3 C 9,4 km/h (2 Bft) 100 %
13.03.2018 10:07 8,7 C 85 % 997,4 hPa 0,0 l/m 9,3 km/h (2 Bft) NW 323 6,3 C 22,0 km/h (4 Bft) 100 %
13.03.2018 10:08 8,7 C 85 % 997,4 hPa 0,0 l/m 8,8 km/h (2 Bft) SW 235 6,3 C 12,6 km/h (3 Bft) 100 %
13.03.2018 10:09 8,7 C 85 % 997,4 hPa 0,0 l/m 6,0 km/h (2 Bft) S-SO 164 6,3 C 9,4 km/h (2 Bft) 100 %
13.03.2018 10:10 8,7 C 85 % 997,4 hPa 0,0 l/m 9,3 km/h (2 Bft) SW 223 6,3 C 18,8 km/h (3 Bft) 100 %
13.03.2018 10:11 8,7 C 85 % 997,4 hPa 0,0 l/m 14,3 km/h (3 Bft) W-SW 238 6,3 C 25,1 km/h (4 Bft) 100 %
13.03.2018 10:12 8,7 C 85 % 997,4 hPa 0,0 l/m 8,6 km/h (2 Bft) W-NW 293 6,3 C 15,7 km/h (3 Bft) 100 %
13.03.2018 10:13 8,7 C 85 % 997,5 hPa 0,0 l/m 12,1 km/h (2 Bft) W-SW 240 6,3 C 25,1 km/h (4 Bft) 100 %
13.03.2018 10:14 8,7 C 85 % 997,4 hPa 0,0 l/m 6,0 km/h (2 Bft) SW 228 6,3 C 12,6 km/h (3 Bft) 100 %
13.03.2018 10:15 8,7 C 85 % 997,5 hPa 0,0 l/m 4,4 km/h (1 Bft) W 266 6,3 C 12,6 km/h (3 Bft) 100 %
13.03.2018 10:16 8,7 C 85 % 997,4 hPa 0,0 l/m 2,5 km/h (1 Bft) NW 305 6,3 C 12,6 km/h (3 Bft) 100 %
13.03.2018 10:17 8,7 C 85 % 997,5 hPa 0,0 l/m 2,7 km/h (1 Bft) W-NW 286 6,3 C 6,3 km/h (2 Bft) 100 %
13.03.2018 10:18 8,8 C 85 % 997,5 hPa 0,0 l/m 9,3 km/h (2 Bft) SO 128 6,4 C 18,8 km/h (3 Bft) 100 %
13.03.2018 10:19 8,8 C 85 % 997,5 hPa 0,0 l/m 4,1 km/h (1 Bft) W-NW 284 6,4 C 6,3 km/h (2 Bft) 100 %
13.03.2018 10:20 8,8 C 85 % 997,5 hPa 0,0 l/m 5,5 km/h (1 Bft) W 274 6,4 C 12,6 km/h (3 Bft) 100 %
13.03.2018 10:21 8,8 C 85 % 997,5 hPa 0,0 l/m 5,4 km/h (1 Bft) W 275 6,4 C 9,4 km/h (2 Bft) 96 %
13.03.2018 10:22 8,8 C 85 % 997,6 hPa 0,0 l/m 9,3 km/h (2 Bft) S-SW 200 6,4 C 18,8 km/h (3 Bft) 100 %
13.03.2018 10:23 8,8 C 85 % 997,6 hPa 0,0 l/m 8,1 km/h (2 Bft) S 190 6,4 C 22,0 km/h (4 Bft) 100 %
13.03.2018 10:24 8,7 C 85 % 997,6 hPa 0,0 l/m 10,9 km/h (2 Bft) W-SW 254 6,3 C 18,8 km/h (3 Bft) 100 %
13.03.2018 10:25 8,7 C 85 % 997,6 hPa 0,0 l/m 6,0 km/h (2 Bft) O-NO 75 6,3 C 18,8 km/h (3 Bft) 100 %
13.03.2018 10:26 8,7 C 85 % 997,6 hPa 0,0 l/m 7,6 km/h (2 Bft) W 280 6,3 C 15,7 km/h (3 Bft) 100 %
13.03.2018 10:27 8,7 C 85 % 997,6 hPa 0,0 l/m 15,0 km/h (3 Bft) SW 217 6,3 C 34,5 km/h (5 Bft) 100 %
13.03.2018 10:28 8,7 C 85 % 997,6 hPa 0,0 l/m 7,3 km/h (2 Bft) W 263 6,3 C 12,6 km/h (3 Bft) 100 %
13.03.2018 10:29 8,7 C 85 % 997,6 hPa 0,0 l/m 3,9 km/h (1 Bft) W-NW 291 6,3 C 9,4 km/h (2 Bft) 100 %
13.03.2018 10:30 8,7 C 85 % 997,6 hPa 0,0 l/m 4,1 km/h (1 Bft) N 2 6,3 C 12,6 km/h (3 Bft) 100 %
13.03.2018 10:31 8,7 C 85 % 997,7 hPa 0,0 l/m 7,1 km/h (2 Bft) W-SW 243 6,3 C 12,6 km/h (3 Bft) 100 %
13.03.2018 10:32 8,7 C 85 % 997,7 hPa 0,0 l/m 8,6 km/h (2 Bft) W-SW 257 6,3 C 12,6 km/h (3 Bft) 96 %
13.03.2018 10:33 8,7 C 85 % 997,7 hPa 0,0 l/m 8,5 km/h (2 Bft) W-NW 288 6,3 C 15,7 km/h (3 Bft) 100 %
13.03.2018 10:34 8,7 C 85 % 997,7 hPa 0,0 l/m 8,1 km/h (2 Bft) SW 217 6,3 C 12,6 km/h (3 Bft) 96 %
13.03.2018 10:35 8,7 C 85 % 997,7 hPa 0,0 l/m 6,1 km/h (2 Bft) W-NW 302 6,3 C 18,8 km/h (3 Bft) 98 %
13.03.2018 10:36 8,7 C 85 % 997,7 hPa 0,0 l/m 2,9 km/h (1 Bft) W 262 6,3 C 9,4 km/h (2 Bft) 98 %
13.03.2018 10:37 8,7 C 86 % 997,7 hPa 0,0 l/m 0,2 km/h (0 Bft) W 262 6,5 C 3,1 km/h (1 Bft) 100 %
13.03.2018 10:38 8,7 C 86 % 997,7 hPa 0,0 l/m 3,9 km/h (1 Bft) W-SW 241 6,5 C 12,6 km/h (3 Bft) 96 %
13.03.2018 10:39 8,7 C 86 % 997,6 hPa 0,0 l/m 0,1 km/h (0 Bft) O-SO 113 6,5 C 3,1 km/h (1 Bft) 100 %
13.03.2018 10:40 8,8 C 86 % 997,6 hPa 0,0 l/m 3,3 km/h (1 Bft) SW 229 6,6 C 9,4 km/h (2 Bft) 97 %
13.03.2018 10:41 8,8 C 86 % 997,6 hPa 0,0 l/m 6,7 km/h (2 Bft) SW 216 6,6 C 12,6 km/h (3 Bft) 96 %
13.03.2018 10:42 8,8 C 86 % 997,7 hPa 0,0 l/m 7,8 km/h (2 Bft) W 273 6,6 C 12,6 km/h (3 Bft) 96 %
13.03.2018 10:43 8,8 C 86 % 997,7 hPa 0,0 l/m 4,2 km/h (1 Bft) W-NW 293 6,6 C 9,4 km/h (2 Bft) 96 %
13.03.2018 10:44 8,8 C 86 % 997,7 hPa 0,0 l/m 3,4 km/h (1 Bft) N 354 6,6 C 9,4 km/h (2 Bft) 100 %
13.03.2018 10:45 8,8 C 86 % 997,7 hPa 0,0 l/m 5,9 km/h (2 Bft) W-NW 299 6,6 C 9,4 km/h (2 Bft) 96 %
13.03.2018 10:46 8,8 C 86 % 997,7 hPa 0,0 l/m 8,1 km/h (2 Bft) O 101 6,6 C 18,8 km/h (3 Bft) 100 %
13.03.2018 10:47 8,8 C 86 % 997,7 hPa 0,0 l/m 4,6 km/h (1 Bft) W-NW 289 6,6 C 9,4 km/h (2 Bft) 96 %
13.03.2018 10:48 8,8 C 86 % 997,7 hPa 0,0 l/m 4,6 km/h (1 Bft) W-NW 291 6,6 C 9,4 km/h (2 Bft) 100 %
13.03.2018 10:49 8,8 C 85 % 997,7 hPa 0,0 l/m 2,7 km/h (1 Bft) W-SW 250 6,4 C 9,4 km/h (2 Bft) 100 %
13.03.2018 10:50 8,8 C 85 % 997,7 hPa 0,0 l/m 3,0 km/h (1 Bft) W-SW 240 6,4 C 9,4 km/h (2 Bft) 100 %
13.03.2018 10:51 8,8 C 86 % 997,7 hPa 0,0 l/m 0,0 km/h (0 Bft) W 266 6,6 C 0,0 km/h (0 Bft) 100 %
13.03.2018 10:52 8,8 C 86 % 997,7 hPa 0,0 l/m 5,8 km/h (2 Bft) W-SW 245 6,6 C 9,4 km/h (2 Bft) 100 %
13.03.2018 10:53 8,9 C 86 % 997,7 hPa 0,0 l/m 4,3 km/h (1 Bft) W-NW 283 6,7 C 9,4 km/h (2 Bft) 100 %
13.03.2018 10:54 8,9 C 86 % 997,7 hPa 0,0 l/m 4,2 km/h (1 Bft) W-SW 257 6,7 C 9,4 km/h (2 Bft) 96 %
13.03.2018 10:55 8,9 C 86 % 997,7 hPa 0,0 l/m 1,8 km/h (1 Bft) NW 316 6,7 C 9,4 km/h (2 Bft) 100 %
13.03.2018 10:56 8,9 C 86 % 997,7 hPa 0,0 l/m 3,1 km/h (1 Bft) W-NW 283 6,7 C 9,4 km/h (2 Bft) 100 %
13.03.2018 10:57 8,9 C 85 % 997,7 hPa 0,0 l/m 7,4 km/h (2 Bft) SW 217 6,5 C 18,8 km/h (3 Bft) 100 %
13.03.2018 10:58 8,9 C 85 % 997,8 hPa 0,0 l/m 7,3 km/h (2 Bft) W-NW 295 6,5 C 18,8 km/h (3 Bft) 100 %
13.03.2018 10:59 8,9 C 85 % 997,8 hPa 0,0 l/m 9,8 km/h (2 Bft) W-SW 240 6,5 C 22,0 km/h (4 Bft) 100 %
13.03.2018 11:00 8,9 C 85 % 997,8 hPa 0,0 l/m 3,1 km/h (1 Bft) S 183 6,5 C 9,4 km/h (2 Bft) 100 %
13.03.2018 11:01 8,8 C 85 % 997,7 hPa 0,0 l/m 1,5 km/h (1 Bft) W-NW 283 6,4 C 6,3 km/h (2 Bft) 94 %
13.03.2018 11:02 8,8 C 85 % 997,7 hPa 0,0 l/m 8,5 km/h (2 Bft) W-NW 295 6,4 C 28,2 km/h (4 Bft) 100 %
13.03.2018 11:03 8,8 C 85 % 997,8 hPa 0,0 l/m 4,4 km/h (1 Bft) NO 37 6,4 C 9,4 km/h (2 Bft) 100 %
13.03.2018 11:04 8,8 C 85 % 997,7 hPa 0,0 l/m 1,4 km/h (1 Bft) NO 41 6,4 C 6,3 km/h (2 Bft) 100 %
13.03.2018 11:05 8,8 C 85 % 997,8 hPa 0,0 l/m 1,6 km/h (1 Bft) NO 51 6,4 C 3,1 km/h (1 Bft) 96 %
13.03.2018 11:06 8,8 C 86 % 997,7 hPa 0,0 l/m 1,0 km/h (0 Bft) N 4 6,6 C 6,3 km/h (2 Bft) 100 %
13.03.2018 11:07 8,8 C 86 % 997,8 hPa 0,0 l/m 9,7 km/h (2 Bft) SW 230 6,6 C 22,0 km/h (4 Bft) 100 %
13.03.2018 11:08 8,8 C 86 % 997,8 hPa 0,0 l/m 2,9 km/h (1 Bft) W 281 6,6 C 9,4 km/h (2 Bft) 100 %
13.03.2018 11:09 8,8 C 86 % 997,8 hPa 0,0 l/m 11,8 km/h (2 Bft) W-SW 238 6,6 C 25,1 km/h (4 Bft) 100 %
13.03.2018 11:10 8,8 C 85 % 997,8 hPa 0,0 l/m 2,4 km/h (1 Bft) W-SW 251 6,4 C 9,4 km/h (2 Bft) 100 %
13.03.2018 11:11 8,8 C 85 % 997,8 hPa 0,0 l/m 5,6 km/h (1 Bft) W-NW 298 6,4 C 12,6 km/h (3 Bft) 100 %
13.03.2018 11:12 8,8 C 86 % 997,8 hPa 0,0 l/m 0,9 km/h (0 Bft) W-SW 250 6,6 C 3,1 km/h (1 Bft) 100 %
13.03.2018 11:13 8,9 C 86 % 997,8 hPa 0,0 l/m 0,8 km/h (0 Bft) W-NW 287 6,7 C 3,1 km/h (1 Bft) 100 %
13.03.2018 11:14 8,9 C 86 % 997,9 hPa 0,0 l/m 5,8 km/h (2 Bft) SW 217 6,7 C 12,6 km/h (3 Bft) 100 %
13.03.2018 11:15 8,9 C 86 % 997,8 hPa 0,0 l/m 3,5 km/h (1 Bft) S-SW 207 6,7 C 12,6 km/h (3 Bft) 100 %
13.03.2018 11:16 8,9 C 86 % 997,9 hPa 0,0 l/m 2,2 km/h (1 Bft) SW 228 6,7 C 6,3 km/h (2 Bft) 100 %
13.03.2018 11:17 8,9 C 86 % 997,8 hPa 0,0 l/m 8,9 km/h (2 Bft) N 353 6,7 C 18,8 km/h (3 Bft) 100 %
13.03.2018 11:18 8,9 C 85 % 997,8 hPa 0,0 l/m 8,4 km/h (2 Bft) W-NW 284 6,5 C 18,8 km/h (3 Bft) 100 %
13.03.2018 11:19 8,9 C 85 % 997,9 hPa 0,0 l/m 4,2 km/h (1 Bft) NW 321 6,5 C 12,6 km/h (3 Bft) 100 %
13.03.2018 11:20 8,9 C 85 % 997,8 hPa 0,0 l/m 6,7 km/h (2 Bft) N-NO 28 6,5 C 12,6 km/h (3 Bft) 100 %
13.03.2018 11:21 8,9 C 85 % 997,8 hPa 0,0 l/m 3,3 km/h (1 Bft) W 268 6,5 C 6,3 km/h (2 Bft) 100 %
13.03.2018 11:22 8,9 C 86 % 997,8 hPa 0,0 l/m 5,8 km/h (2 Bft) W-SW 255 6,7 C 15,7 km/h (3 Bft) 100 %
13.03.2018 11:23 8,9 C 85 % 997,8 hPa 0,0 l/m 8,9 km/h (2 Bft) W-SW 244 6,5 C 15,7 km/h (3 Bft) 100 %
13.03.2018 11:24 8,9 C 85 % 997,9 hPa 0,0 l/m 8,5 km/h (2 Bft) W-NW 298 6,5 C 18,8 km/h (3 Bft) 100 %
13.03.2018 11:25 8,9 C 85 % 997,8 hPa 0,0 l/m 8,9 km/h (2 Bft) O-SO 111 6,5 C 18,8 km/h (3 Bft) 100 %
13.03.2018 11:26 8,9 C 85 % 997,8 hPa 0,0 l/m 7,4 km/h (2 Bft) W 275 6,5 C 15,7 km/h (3 Bft) 100 %
13.03.2018 11:27 8,9 C 85 % 997,9 hPa 0,0 l/m 2,5 km/h (1 Bft) NW 308 6,5 C 6,3 km/h (2 Bft) 100 %
13.03.2018 11:28 8,9 C 86 % 997,9 hPa 0,0 l/m 0,0 km/h (0 Bft) SW 214 6,7 C 0,0 km/h (0 Bft) 100 %
13.03.2018 11:29 8,9 C 86 % 997,9 hPa 0,0 l/m 9,9 km/h (2 Bft) W-SW 256 6,7 C 18,8 km/h (3 Bft) 100 %
13.03.2018 11:30 8,9 C 86 % 997,8 hPa 0,0 l/m 6,0 km/h (2 Bft) SW 233 6,7 C 12,6 km/h (3 Bft) 100 %
13.03.2018 11:31 8,9 C 86 % 997,9 hPa 0,0 l/m 0,9 km/h (0 Bft) W 267 6,7 C 3,1 km/h (1 Bft) 100 %
13.03.2018 11:32 9,0 C 86 % 997,9 hPa 0,0 l/m 0,9 km/h (0 Bft) S 176 6,8 C 3,1 km/h (1 Bft) 100 %
13.03.2018 11:33 9,0 C 86 % 997,9 hPa 0,0 l/m 6,8 km/h (2 Bft) W-SW 252 6,8 C 22,0 km/h (4 Bft) 100 %
13.03.2018 11:34 9,0 C 86 % 997,9 hPa 0,0 l/m 5,7 km/h (1 Bft) NO 55 6,8 C 9,4 km/h (2 Bft) 100 %
13.03.2018 11:35 9,0 C 86 % 997,9 hPa 0,0 l/m 3,4 km/h (1 Bft) W-NW 303 6,8 C 6,3 km/h (2 Bft) 100 %
13.03.2018 11:36 9,0 C 86 % 997,9 hPa 0,0 l/m 2,9 km/h (1 Bft) NO 38 6,8 C 6,3 km/h (2 Bft) 100 %
13.03.2018 11:37 9,0 C 86 % 997,9 hPa 0,0 l/m 3,4 km/h (1 Bft) NW 318 6,8 C 9,4 km/h (2 Bft) 100 %
13.03.2018 11:38 9,0 C 86 % 997,9 hPa 0,0 l/m 6,0 km/h (2 Bft) W 274 6,8 C 9,4 km/h (2 Bft) 100 %
13.03.2018 11:39 9,0 C 85 % 997,9 hPa 0,0 l/m 4,4 km/h (1 Bft) W-SW 238 6,6 C 9,4 km/h (2 Bft) 100 %
13.03.2018 11:40 8,9 C 85 % 997,9 hPa 0,0 l/m 8,1 km/h (2 Bft) SW 228 6,5 C 22,0 km/h (4 Bft) 92 %
13.03.2018 11:41 8,9 C 85 % 998,0 hPa 0,0 l/m 2,0 km/h (1 Bft) SW 229 6,5 C 6,3 km/h (2 Bft) 100 %
13.03.2018 11:42 9,0 C 86 % 998,0 hPa 0,0 l/m 1,2 km/h (1 Bft) NW 320 6,8 C 3,1 km/h (1 Bft) 100 %
13.03.2018 11:43 9,0 C 86 % 998,0 hPa 0,0 l/m 3,0 km/h (1 Bft) SW 217 6,8 C 9,4 km/h (2 Bft) 96 %
13.03.2018 11:44 9,1 C 86 % 997,9 hPa 0,0 l/m 6,1 km/h (2 Bft) S-SW 207 6,9 C 12,6 km/h (3 Bft) 100 %
13.03.2018 11:45 9,1 C 86 % 998,0 hPa 0,0 l/m 6,8 km/h (2 Bft) SW 231 6,9 C 15,7 km/h (3 Bft) 100 %
13.03.2018 11:46 9,1 C 85 % 998,0 hPa 0,0 l/m 4,9 km/h (1 Bft) W-SW 240 6,7 C 12,6 km/h (3 Bft) 100 %
13.03.2018 11:47 9,1 C 85 % 998,0 hPa 0,0 l/m 10,8 km/h (2 Bft) SW 215 6,7 C 18,8 km/h (3 Bft) 100 %
13.03.2018 11:48 9,2 C 85 % 998,0 hPa 0,0 l/m 6,0 km/h (2 Bft) W-NW 302 6,8 C 12,6 km/h (3 Bft) 96 %
13.03.2018 11:49 9,2 C 85 % 998,0 hPa 0,0 l/m 8,1 km/h (2 Bft) W-SW 255 6,8 C 15,7 km/h (3 Bft) 100 %
13.03.2018 11:50 9,2 C 86 % 998,0 hPa 0,0 l/m 5,8 km/h (2 Bft) S 187 7,0 C 12,6 km/h (3 Bft) 100 %
13.03.2018 11:51 9,3 C 86 % 998,0 hPa 0,0 l/m 6,1 km/h (2 Bft) SW 217 7,1 C 15,7 km/h (3 Bft) 100 %
13.03.2018 11:52 9,3 C 85 % 998,0 hPa 0,0 l/m 9,0 km/h (2 Bft) SW 226 6,9 C 18,8 km/h (3 Bft) 92 %
13.03.2018 11:53 9,4 C 85 % 998,0 hPa 0,0 l/m 4,9 km/h (1 Bft) S 184 7,0 C 12,6 km/h (3 Bft) 100 %
13.03.2018 11:54 9,4 C 86 % 998,0 hPa 0,0 l/m 2,2 km/h (1 Bft) O-SO 117 7,2 C 9,4 km/h (2 Bft) 100 %
13.03.2018 11:55 9,5 C 86 % 998,0 hPa 0,0 l/m 3,0 km/h (1 Bft) SW 235 7,3 C 6,3 km/h (2 Bft) 96 %
13.03.2018 11:56 9,5 C 85 % 998,0 hPa 0,0 l/m 9,4 km/h (2 Bft) O 98 7,1 C 25,1 km/h (4 Bft) 100 %
13.03.2018 11:57 9,6 C 85 % 998,0 hPa 0,0 l/m 10,3 km/h (2 Bft) NW 315 7,2 C 34,5 km/h (5 Bft) 96 %
13.03.2018 11:58 9,6 C 84 % 998,1 hPa 0,0 l/m 7,0 km/h (2 Bft) SW 230 7,0 C 15,7 km/h (3 Bft) 96 %
13.03.2018 11:59 9,6 C 84 % 998,1 hPa 0,0 l/m 12,3 km/h (3 Bft) SO 124 7,0 C 22,0 km/h (4 Bft) 100 %
13.03.2018 12:00 9,5 C 83 % 998,0 hPa 0,0 l/m 6,4 km/h (2 Bft) W-NW 297 6,8 C 12,6 km/h (3 Bft) 96 %
13.03.2018 12:01 9,5 C 84 % 998,1 hPa 0,0 l/m 3,7 km/h (1 Bft) N 2 6,9 C 9,4 km/h (2 Bft) 100 %
13.03.2018 12:02 9,5 C 84 % 998,1 hPa 0,0 l/m 3,5 km/h (1 Bft) N-NW 332 6,9 C 9,4 km/h (2 Bft) 96 %
13.03.2018 12:03 9,5 C 84 % 998,1 hPa 0,0 l/m 5,0 km/h (1 Bft) W-SW 255 6,9 C 12,6 km/h (3 Bft) 100 %
13.03.2018 12:04 9,5 C 84 % 998,1 hPa 0,0 l/m 4,3 km/h (1 Bft) W 272 6,9 C 18,8 km/h (3 Bft) 96 %
13.03.2018 12:05 9,5 C 84 % 998,1 hPa 0,0 l/m 3,1 km/h (1 Bft) W 276 6,9 C 9,4 km/h (2 Bft) 100 %
13.03.2018 12:06 9,4 C 85 % 998,1 hPa 0,0 l/m 0,3 km/h (0 Bft) O 84 7,0 C 3,1 km/h (1 Bft) 96 %
13.03.2018 12:07 9,5 C 85 % 998,1 hPa 0,0 l/m 1,7 km/h (1 Bft) W-SW 240 7,1 C 6,3 km/h (2 Bft) 96 %
13.03.2018 12:08 9,5 C 84 % 998,1 hPa 0,0 l/m 9,9 km/h (2 Bft) W 265 6,9 C 18,8 km/h (3 Bft) 98 %
13.03.2018 12:09 9,4 C 84 % 998,2 hPa 0,0 l/m 2,0 km/h (1 Bft) SW 218 6,8 C 6,3 km/h (2 Bft) 100 %
13.03.2018 12:10 9,4 C 84 % 998,2 hPa 0,0 l/m 6,0 km/h (2 Bft) W-SW 253 6,8 C 15,7 km/h (3 Bft) 100 %
13.03.2018 12:11 9,4 C 84 % 998,2 hPa 0,0 l/m 8,6 km/h (2 Bft) W 263 6,8 C 12,6 km/h (3 Bft) 100 %
13.03.2018 12:12 9,4 C 84 % 998,1 hPa 0,0 l/m 1,4 km/h (1 Bft) SW 218 6,8 C 6,3 km/h (2 Bft) 100 %
13.03.2018 12:13 9,4 C 85 % 998,1 hPa 0,0 l/m 1,0 km/h (0 Bft) O-NO 75 7,0 C 3,1 km/h (1 Bft) 100 %
13.03.2018 12:14 9,4 C 85 % 998,2 hPa 0,0 l/m 1,4 km/h (1 Bft) NW 307 7,0 C 3,1 km/h (1 Bft) 100 %
13.03.2018 12:15 9,5 C 85 % 998,1 hPa 0,0 l/m 4,7 km/h (1 Bft) W-SW 252 7,1 C 9,4 km/h (2 Bft) 100 %
13.03.2018 12:16 9,5 C 85 % 998,2 hPa 0,0 l/m 5,4 km/h (1 Bft) SW 224 7,1 C 15,7 km/h (3 Bft) 100 %
13.03.2018 12:17 9,5 C 85 % 998,2 hPa 0,0 l/m 6,9 km/h (2 Bft) O 91 7,1 C 12,6 km/h (3 Bft) 96 %
13.03.2018 12:18 9,5 C 85 % 998,1 hPa 0,0 l/m 5,8 km/h (2 Bft) W-SW 255 7,1 C 9,4 km/h (2 Bft) 100 %
13.03.2018 12:19 9,5 C 85 % 998,2 hPa 0,0 l/m 2,5 km/h (1 Bft) W-NW 303 7,1 C 6,3 km/h (2 Bft) 100 %
13.03.2018 12:20 9,4 C 85 % 998,2 hPa 0,0 l/m 0,1 km/h (0 Bft) W-NW 303 7,0 C 3,1 km/h (1 Bft) 92 %
13.03.2018 12:21 9,4 C 85 % 998,2 hPa 0,0 l/m 7,3 km/h (2 Bft) W-SW 250 7,0 C 25,1 km/h (4 Bft) 92 %
13.03.2018 12:22 9,4 C 84 % 998,2 hPa 0,0 l/m 5,9 km/h (2 Bft) O-SO 116 6,8 C 15,7 km/h (3 Bft) 100 %
13.03.2018 12:23 9,4 C 84 % 998,2 hPa 0,0 l/m 3,9 km/h (1 Bft) SO 140 6,8 C 9,4 km/h (2 Bft) 96 %
13.03.2018 12:24 9,4 C 84 % 998,2 hPa 0,0 l/m 8,6 km/h (2 Bft) SW 214 6,8 C 22,0 km/h (4 Bft) 92 %
13.03.2018 12:25 9,3 C 84 % 998,2 hPa 0,0 l/m 1,0 km/h (0 Bft) O-NO 69 6,7 C 3,1 km/h (1 Bft) 90 %
13.03.2018 12:26 9,3 C 84 % 998,2 hPa 0,0 l/m 2,4 km/h (1 Bft) SO 143 6,7 C 6,3 km/h (2 Bft) 100 %
13.03.2018 12:27 9,3 C 84 % 998,2 hPa 0,0 l/m 3,1 km/h (1 Bft) SW 234 6,7 C 6,3 km/h (2 Bft) 100 %
13.03.2018 12:28 9,3 C 84 % 998,2 hPa 0,0 l/m 3,4 km/h (1 Bft) NW 326 6,7 C 9,4 km/h (2 Bft) 100 %
13.03.2018 12:29 9,3 C 84 % 998,2 hPa 0,0 l/m 5,4 km/h (1 Bft) NW 309 6,7 C 15,7 km/h (3 Bft) 100 %
13.03.2018 12:30 9,2 C 84 % 998,2 hPa 0,0 l/m 2,4 km/h (1 Bft) SW 216 6,6 C 6,3 km/h (2 Bft) 100 %
13.03.2018 12:31 9,2 C 84 % 998,2 hPa 0,0 l/m 6,7 km/h (2 Bft) SW 219 6,6 C 15,7 km/h (3 Bft) 100 %
13.03.2018 12:32 9,2 C 85 % 998,3 hPa 0,0 l/m 1,0 km/h (0 Bft) S 178 6,8 C 6,3 km/h (2 Bft) 100 %
13.03.2018 12:33 9,2 C 85 % 998,3 hPa 0,0 l/m 3,0 km/h (1 Bft) S-SW 205 6,8 C 9,4 km/h (2 Bft) 100 %
13.03.2018 12:34 9,2 C 85 % 998,2 hPa 0,0 l/m 4,9 km/h (1 Bft) SW 221 6,8 C 9,4 km/h (2 Bft) 100 %
13.03.2018 12:35 9,2 C 85 % 998,2 hPa 0,0 l/m 6,4 km/h (2 Bft) SW 233 6,8 C 12,6 km/h (3 Bft) 100 %
13.03.2018 12:36 9,2 C 84 % 998,3 hPa 0,0 l/m 6,0 km/h (2 Bft) S-SO 158 6,6 C 12,6 km/h (3 Bft) 100 %
13.03.2018 12:37 9,1 C 84 % 998,3 hPa 0,0 l/m 8,2 km/h (2 Bft) SW 220 6,5 C 15,7 km/h (3 Bft) 98 %
13.03.2018 12:38 9,1 C 84 % 998,3 hPa 0,0 l/m 2,5 km/h (1 Bft) SW 221 6,5 C 12,6 km/h (3 Bft) 100 %
13.03.2018 12:39 9,1 C 84 % 998,4 hPa 0,0 l/m 14,1 km/h (3 Bft) W-SW 243 6,5 C 22,0 km/h (4 Bft) 100 %
13.03.2018 12:40 9,1 C 85 % 998,4 hPa 0,0 l/m 2,7 km/h (1 Bft) NO 44 6,7 C 6,3 km/h (2 Bft) 100 %
13.03.2018 12:41 9,0 C 85 % 998,4 hPa 0,0 l/m 8,8 km/h (2 Bft) W-SW 237 6,6 C 15,7 km/h (3 Bft) 100 %
13.03.2018 12:42 9,0 C 85 % 998,4 hPa 0,0 l/m 12,1 km/h (2 Bft) W-SW 250 6,6 C 25,1 km/h (4 Bft) 100 %
13.03.2018 12:43 8,9 C 85 % 998,4 hPa 0,0 l/m 1,3 km/h (1 Bft) O-SO 109 6,5 C 6,3 km/h (2 Bft) 100 %
13.03.2018 12:44 8,9 C 85 % 998,5 hPa 0,0 l/m 8,8 km/h (2 Bft) S 174 6,5 C 15,7 km/h (3 Bft) 100 %
13.03.2018 12:45 8,9 C 85 % 998,5 hPa 0,0 l/m 7,0 km/h (2 Bft) W-NW 296 6,5 C 9,4 km/h (2 Bft) 100 %
13.03.2018 12:46 8,9 C 85 % 998,4 hPa 0,0 l/m 7,3 km/h (2 Bft) W-NW 296 6,5 C 12,6 km/h (3 Bft) 100 %
13.03.2018 12:47 8,9 C 86 % 998,4 hPa 0,0 l/m 5,0 km/h (1 Bft) W-NW 289 6,7 C 12,6 km/h (3 Bft) 100 %
13.03.2018 12:48 8,8 C 86 % 998,5 hPa 0,2 l/m 6,5 km/h (2 Bft) S-SW 202 6,6 C 15,7 km/h (3 Bft) 100 %
13.03.2018 12:49 8,8 C 86 % 998,5 hPa 0,0 l/m 11,5 km/h (2 Bft) SW 233 6,6 C 15,7 km/h (3 Bft) 98 %
13.03.2018 12:50 8,7 C 86 % 998,5 hPa 0,0 l/m 10,2 km/h (2 Bft) SW 215 6,5 C 22,0 km/h (4 Bft) 100 %
13.03.2018 12:51 8,7 C 87 % 998,5 hPa 0,0 l/m 4,2 km/h (1 Bft) S 169 6,7 C 6,3 km/h (2 Bft) 100 %
13.03.2018 12:52 8,7 C 87 % 998,5 hPa 0,2 l/m 5,3 km/h (1 Bft) W 264 6,7 C 12,6 km/h (3 Bft) 100 %
13.03.2018 12:53 8,7 C 88 % 998,5 hPa 0,0 l/m 1,4 km/h (1 Bft) W 263 6,8 C 6,3 km/h (2 Bft) 100 %
13.03.2018 12:54 8,7 C 88 % 998,4 hPa 0,0 l/m 7,4 km/h (2 Bft) S 182 6,8 C 18,8 km/h (3 Bft) 98 %
13.03.2018 12:55 8,6 C 88 % 998,5 hPa 0,0 l/m 1,6 km/h (1 Bft) S-SW 210 6,7 C 9,4 km/h (2 Bft) 100 %
13.03.2018 12:56 8,6 C 88 % 998,5 hPa 0,0 l/m 8,4 km/h (2 Bft) S 187 6,7 C 12,6 km/h (3 Bft) 100 %
13.03.2018 12:57 8,6 C 88 % 998,5 hPa 0,0 l/m 6,7 km/h (2 Bft) N-NW 333 6,7 C 15,7 km/h (3 Bft) 100 %
13.03.2018 12:58 8,6 C 88 % 998,5 hPa 0,0 l/m 9,4 km/h (2 Bft) SW 236 6,7 C 15,7 km/h (3 Bft) 100 %
13.03.2018 12:59 8,6 C 89 % 998,5 hPa 0,0 l/m 4,6 km/h (1 Bft) W 279 6,9 C 9,4 km/h (2 Bft) 100 %
13.03.2018 13:00 8,6 C 89 % 998,5 hPa 0,0 l/m 1,2 km/h (1 Bft) W-SW 247 6,9 C 3,1 km/h (1 Bft) 100 %
13.03.2018 13:01 8,6 C 89 % 998,5 hPa 0,0 l/m 0,0 km/h (0 Bft) W-NW 286 6,9 C 0,0 km/h (0 Bft) 100 %
13.03.2018 13:02 8,6 C 89 % 998,5 hPa 0,0 l/m 7,3 km/h (2 Bft) W-SW 246 6,9 C 22,0 km/h (4 Bft) 100 %
13.03.2018 13:03 8,6 C 89 % 998,5 hPa 0,0 l/m 6,4 km/h (2 Bft) S-SW 210 6,9 C 12,6 km/h (3 Bft) 100 %
13.03.2018 13:04 8,6 C 89 % 998,4 hPa 0,0 l/m 3,9 km/h (1 Bft) W-NW 303 6,9 C 6,3 km/h (2 Bft) 100 %
13.03.2018 13:05 8,6 C 89 % 998,5 hPa 0,0 l/m 4,3 km/h (1 Bft) NW 326 6,9 C 6,3 km/h (2 Bft) 100 %
13.03.2018 13:06 8,6 C 89 % 998,4 hPa 0,0 l/m 5,6 km/h (1 Bft) S 189 6,9 C 18,8 km/h (3 Bft) 100 %
13.03.2018 13:07 8,6 C 89 % 998,4 hPa 0,0 l/m 4,6 km/h (1 Bft) W-NW 283 6,9 C 12,6 km/h (3 Bft) 100 %
13.03.2018 13:08 8,6 C 89 % 998,5 hPa 0,0 l/m 6,1 km/h (2 Bft) SW 217 6,9 C 9,4 km/h (2 Bft) 100 %
13.03.2018 13:09 8,5 C 90 % 998,5 hPa 0,0 l/m 5,1 km/h (1 Bft) W-SW 252 7,0 C 6,3 km/h (2 Bft) 100 %
13.03.2018 13:10 8,5 C 90 % 998,5 hPa 0,0 l/m 3,4 km/h (1 Bft) W 269 7,0 C 15,7 km/h (3 Bft) 96 %
13.03.2018 13:11 8,5 C 90 % 998,6 hPa 0,0 l/m 4,8 km/h (1 Bft) W-NW 290 7,0 C 12,6 km/h (3 Bft) 100 %
13.03.2018 13:12 8,5 C 90 % 998,6 hPa 0,0 l/m 5,4 km/h (1 Bft) W 267 7,0 C 15,7 km/h (3 Bft) 96 %
13.03.2018 13:13 8,5 C 90 % 998,6 hPa 0,0 l/m 4,7 km/h (1 Bft) W 278 7,0 C 9,4 km/h (2 Bft) 96 %
13.03.2018 13:14 8,5 C 90 % 998,6 hPa 0,0 l/m 9,0 km/h (2 Bft) W 276 7,0 C 22,0 km/h (4 Bft) 100 %
13.03.2018 13:15 8,4 C 88 % 998,7 hPa 0,0 l/m 16,9 km/h (3 Bft) W-NW 301 6,5 C 31,4 km/h (5 Bft) 100 %
13.03.2018 13:16 8,3 C 88 % 998,7 hPa 0,0 l/m 12,4 km/h (3 Bft) NW 305 6,4 C 15,7 km/h (3 Bft) 96 %
13.03.2018 13:17 8,3 C 87 % 998,7 hPa 0,0 l/m 15,4 km/h (3 Bft) NW 315 6,3 C 22,0 km/h (4 Bft) 96 %
13.03.2018 13:18 8,2 C 87 % 998,7 hPa 0,2 l/m 15,4 km/h (3 Bft) W 266 6,2 C 22,0 km/h (4 Bft) 100 %
13.03.2018 13:19 8,2 C 87 % 998,7 hPa 0,0 l/m 11,6 km/h (2 Bft) SW 224 6,2 C 25,1 km/h (4 Bft) 92 %
13.03.2018 13:20 8,1 C 87 % 998,7 hPa 0,0 l/m 8,1 km/h (2 Bft) NW 307 6,1 C 15,7 km/h (3 Bft) 100 %
13.03.2018 13:21 8,1 C 88 % 998,7 hPa 0,0 l/m 6,0 km/h (2 Bft) SW 217 6,2 C 9,4 km/h (2 Bft) 71 %
13.03.2018 13:22 8,1 C 88 % 998,7 hPa 0,0 l/m 7,3 km/h (2 Bft) W 266 6,2 C 12,6 km/h (3 Bft) 100 %
13.03.2018 13:23 8,0 C 88 % 998,8 hPa 0,0 l/m 10,8 km/h (2 Bft) NW 316 6,1 C 22,0 km/h (4 Bft) 88 %
13.03.2018 13:24 8,0 C 87 % 998,7 hPa 0,0 l/m 12,0 km/h (2 Bft) W-NW 300 6,0 C 18,8 km/h (3 Bft) 100 %
13.03.2018 13:25 7,9 C 88 % 998,7 hPa 0,0 l/m 10,2 km/h (2 Bft) W-NW 289 6,0 C 18,8 km/h (3 Bft) 96 %
13.03.2018 13:26 7,9 C 88 % 998,7 hPa 0,0 l/m 9,5 km/h (2 Bft) SW 222 6,0 C 15,7 km/h (3 Bft) 96 %
13.03.2018 13:27 7,8 C 88 % 998,8 hPa 0,0 l/m 10,5 km/h (2 Bft) W-NW 298 5,9 C 15,7 km/h (3 Bft) 86 %
13.03.2018 13:28 7,8 C 88 % 998,9 hPa 0,0 l/m 10,2 km/h (2 Bft) SW 229 5,9 C 12,6 km/h (3 Bft) 94 %
13.03.2018 13:29 7,8 C 88 % 998,8 hPa 0,0 l/m 8,8 km/h (2 Bft) W 276 5,9 C 15,7 km/h (3 Bft) 100 %
13.03.2018 13:30 7,7 C 88 % 998,8 hPa 0,0 l/m 3,8 km/h (1 Bft) NW 305 5,8 C 15,7 km/h (3 Bft) 98 %
13.03.2018 13:31 7,7 C 89 % 998,8 hPa 0,0 l/m 5,5 km/h (1 Bft) W 262 6,0 C 15,7 km/h (3 Bft) 100 %
13.03.2018 13:32 7,7 C 88 % 998,8 hPa 0,0 l/m 5,9 km/h (2 Bft) SW 227 5,8 C 12,6 km/h (3 Bft) 100 %
13.03.2018 13:33 7,7 C 88 % 998,9 hPa 0,0 l/m 8,1 km/h (2 Bft) W-NW 290 5,8 C 18,8 km/h (3 Bft) 100 %
13.03.2018 13:34 7,6 C 89 % 998,9 hPa 0,2 l/m 4,4 km/h (1 Bft) NW 324 5,9 C 9,4 km/h (2 Bft) 100 %
13.03.2018 13:35 7,6 C 89 % 999,0 hPa 0,0 l/m 9,8 km/h (2 Bft) N-NW 327 5,9 C 18,8 km/h (3 Bft) 100 %
13.03.2018 13:36 7,6 C 89 % 999,0 hPa 0,0 l/m 8,5 km/h (2 Bft) W 265 5,9 C 18,8 km/h (3 Bft) 100 %
13.03.2018 13:37 7,6 C 89 % 999,0 hPa 0,0 l/m 11,9 km/h (2 Bft) W-NW 283 5,9 C 15,7 km/h (3 Bft) 96 %
13.03.2018 13:38 7,5 C 89 % 999,0 hPa 0,0 l/m 7,6 km/h (2 Bft) W 276 5,8 C 12,6 km/h (3 Bft) 100 %
13.03.2018 13:39 7,5 C 89 % 999,0 hPa 0,0 l/m 11,1 km/h (2 Bft) W 278 5,8 C 25,1 km/h (4 Bft) 100 %
13.03.2018 13:40 7,4 C 89 % 999,0 hPa 0,0 l/m 13,1 km/h (3 Bft) W-NW 289 5,7 C 22,0 km/h (4 Bft) 100 %
13.03.2018 13:41 7,4 C 89 % 999,1 hPa 0,0 l/m 7,5 km/h (2 Bft) NW 314 5,7 C 12,6 km/h (3 Bft) 100 %
13.03.2018 13:42 7,4 C 89 % 999,1 hPa 0,0 l/m 6,1 km/h (2 Bft) SW 229 5,7 C 12,6 km/h (3 Bft) 100 %
13.03.2018 13:43 7,4 C 89 % 999,1 hPa 0,0 l/m 8,1 km/h (2 Bft) NW 311 5,7 C 15,7 km/h (3 Bft) 100 %
13.03.2018 13:44 7,4 C 90 % 999,1 hPa 0,0 l/m 5,5 km/h (1 Bft) W 281 5,9 C 9,4 km/h (2 Bft) 100 %
13.03.2018 13:45 7,4 C 90 % 999,1 hPa 0,0 l/m 8,9 km/h (2 Bft) W-NW 290 5,9 C 12,6 km/h (3 Bft) 100 %
13.03.2018 13:46 7,4 C 90 % 999,1 hPa 0,0 l/m 6,9 km/h (2 Bft) W-NW 300 5,9 C 9,4 km/h (2 Bft) 100 %
13.03.2018 13:47 7,4 C 90 % 999,1 hPa 0,0 l/m 5,6 km/h (1 Bft) W 269 5,9 C 9,4 km/h (2 Bft) 100 %
13.03.2018 13:48 7,4 C 90 % 999,1 hPa 0,2 l/m 6,9 km/h (2 Bft) W-NW 297 5,9 C 15,7 km/h (3 Bft) 100 %
13.03.2018 13:49 7,4 C 90 % 999,1 hPa 0,0 l/m 9,9 km/h (2 Bft) W 268 5,9 C 18,8 km/h (3 Bft) 100 %
13.03.2018 13:50 7,4 C 90 % 999,1 hPa 0,0 l/m 5,0 km/h (1 Bft) W 259 5,9 C 9,4 km/h (2 Bft) 100 %
13.03.2018 13:51 7,4 C 91 % 999,1 hPa 0,0 l/m 5,8 km/h (2 Bft) W-NW 300 6,0 C 12,6 km/h (3 Bft) 100 %
13.03.2018 13:52 7,4 C 91 % 999,1 hPa 0,0 l/m 7,6 km/h (2 Bft) W 271 6,0 C 9,4 km/h (2 Bft) 100 %
13.03.2018 13:53 7,4 C 91 % 999,1 hPa 0,0 l/m 4,7 km/h (1 Bft) W-NW 296 6,0 C 9,4 km/h (2 Bft) 100 %
13.03.2018 13:54 7,4 C 91 % 999,1 hPa 0,0 l/m 5,1 km/h (1 Bft) W-SW 252 6,0 C 9,4 km/h (2 Bft) 100 %
13.03.2018 13:55 7,4 C 91 % 999,1 hPa 0,0 l/m 4,2 km/h (1 Bft) SW 226 6,0 C 9,4 km/h (2 Bft) 100 %
13.03.2018 13:56 7,4 C 91 % 999,2 hPa 0,0 l/m 7,2 km/h (2 Bft) NW 307 6,0 C 12,6 km/h (3 Bft) 100 %
13.03.2018 13:57 7,4 C 91 % 999,2 hPa 0,0 l/m 8,0 km/h (2 Bft) W 270 6,0 C 15,7 km/h (3 Bft) 100 %
13.03.2018 13:58 7,4 C 91 % 999,2 hPa 0,0 l/m 7,1 km/h (2 Bft) W-NW 292 6,0 C 15,7 km/h (3 Bft) 100 %
13.03.2018 13:59 7,3 C 91 % 999,2 hPa 0,0 l/m 9,5 km/h (2 Bft) W-SW 249 5,9 C 15,7 km/h (3 Bft) 100 %
13.03.2018 14:00 7,3 C 91 % 999,2 hPa 0,0 l/m 5,1 km/h (1 Bft) S-SW 212 5,9 C 12,6 km/h (3 Bft) 100 %
13.03.2018 14:01 7,3 C 91 % 999,2 hPa 0,0 l/m 3,7 km/h (1 Bft) W 261 5,9 C 6,3 km/h (2 Bft) 100 %
13.03.2018 14:02 7,3 C 91 % 999,2 hPa 0,0 l/m 0,7 km/h (0 Bft) NW 314 5,9 C 3,1 km/h (1 Bft) 100 %
13.03.2018 14:03 7,3 C 91 % 999,2 hPa 0,0 l/m 3,7 km/h (1 Bft) W-SW 252 5,9 C 6,3 km/h (2 Bft) 100 %
13.03.2018 14:04 7,3 C 92 % 999,2 hPa 0,0 l/m 1,0 km/h (0 Bft) W-NW 295 6,1 C 3,1 km/h (1 Bft) 100 %
13.03.2018 14:05 7,4 C 92 % 999,2 hPa 0,2 l/m 2,9 km/h (1 Bft) W-NW 283 6,2 C 6,3 km/h (2 Bft) 100 %
13.03.2018 14:06 7,4 C 92 % 999,3 hPa 0,0 l/m 2,1 km/h (1 Bft) W-NW 288 6,2 C 6,3 km/h (2 Bft) 100 %
13.03.2018 14:07 7,4 C 92 % 999,3 hPa 0,0 l/m 5,3 km/h (1 Bft) W-NW 299 6,2 C 9,4 km/h (2 Bft) 96 %
13.03.2018 14:08 7,3 C 91 % 999,3 hPa 0,0 l/m 7,6 km/h (2 Bft) W-SW 247 5,9 C 12,6 km/h (3 Bft) 91 %
13.03.2018 14:09 7,3 C 91 % 999,3 hPa 0,0 l/m 11,0 km/h (2 Bft) W-NW 296 5,9 C 18,8 km/h (3 Bft) 96 %
13.03.2018 14:10 7,3 C 91 % 999,3 hPa 0,0 l/m 8,2 km/h (2 Bft) W-NW 294 5,9 C 15,7 km/h (3 Bft) 100 %
13.03.2018 14:11 7,3 C 91 % 999,3 hPa 0,0 l/m 7,9 km/h (2 Bft) W-SW 252 5,9 C 12,6 km/h (3 Bft) 100 %
13.03.2018 14:12 7,3 C 91 % 999,4 hPa 0,0 l/m 5,8 km/h (2 Bft) SW 231 5,9 C 12,6 km/h (3 Bft) 100 %
13.03.2018 14:13 7,3 C 91 % 999,3 hPa 0,0 l/m 7,8 km/h (2 Bft) NW 309 5,9 C 15,7 km/h (3 Bft) 100 %
13.03.2018 14:14 7,3 C 92 % 999,3 hPa 0,0 l/m 6,9 km/h (2 Bft) W 270 6,1 C 12,6 km/h (3 Bft) 100 %
13.03.2018 14:15 7,3 C 92 % 999,4 hPa 0,0 l/m 4,6 km/h (1 Bft) W-NW 295 6,1 C 6,3 km/h (2 Bft) 100 %
13.03.2018 14:16 7,3 C 92 % 999,4 hPa 0,0 l/m 6,9 km/h (2 Bft) W 275 6,1 C 9,4 km/h (2 Bft) 100 %
13.03.2018 14:17 7,3 C 92 % 999,5 hPa 0,0 l/m 3,4 km/h (1 Bft) W-NW 288 6,1 C 6,3 km/h (2 Bft) 100 %
13.03.2018 14:18 7,3 C 92 % 999,5 hPa 0,0 l/m 8,9 km/h (2 Bft) W-SW 250 6,1 C 15,7 km/h (3 Bft) 100 %
13.03.2018 14:19 7,3 C 92 % 999,4 hPa 0,0 l/m 6,7 km/h (2 Bft) S-SW 196 6,1 C 12,6 km/h (3 Bft) 100 %
13.03.2018 14:20 7,3 C 92 % 999,4 hPa 0,0 l/m 10,4 km/h (2 Bft) W 280 6,1 C 15,7 km/h (3 Bft) 100 %
13.03.2018 14:22 7,3 C 91 % 999,5 hPa 0,0 l/m 13,5 km/h (3 Bft) W-NW 299 5,9 C 22,0 km/h (4 Bft) 100 %
13.03.2018 14:23 7,3 C 91 % 999,5 hPa 0,0 l/m 12,8 km/h (3 Bft) NW 306 5,9 C 18,8 km/h (3 Bft) 100 %
13.03.2018 14:24 7,3 C 91 % 999,5 hPa 0,0 l/m 14,2 km/h (3 Bft) W 275 5,9 C 25,1 km/h (4 Bft) 100 %
13.03.2018 14:25 7,3 C 91 % 999,6 hPa 0,2 l/m 8,8 km/h (2 Bft) W-NW 298 5,9 C 15,7 km/h (3 Bft) 100 %
13.03.2018 14:27 7,2 C 91 % 999,6 hPa 0,0 l/m 8,1 km/h (2 Bft) W 271 5,8 C 15,7 km/h (3 Bft) 100 %
13.03.2018 14:28 7,2 C 91 % 999,6 hPa 0,0 l/m 7,5 km/h (2 Bft) W 276 5,8 C 12,6 km/h (3 Bft) 100 %
13.03.2018 14:29 7,2 C 91 % 999,6 hPa 0,0 l/m 10,2 km/h (2 Bft) W-NW 292 5,8 C 15,7 km/h (3 Bft) 100 %
13.03.2018 14:30 7,2 C 91 % 999,6 hPa 0,0 l/m 4,8 km/h (1 Bft) NW 314 5,8 C 9,4 km/h (2 Bft) 100 %
13.03.2018 14:31 7,2 C 91 % 999,7 hPa 0,0 l/m 4,6 km/h (1 Bft) W 273 5,8 C 9,4 km/h (2 Bft) 100 %
13.03.2018 14:32 7,2 C 92 % 999,7 hPa 0,0 l/m 5,7 km/h (1 Bft) W 272 6,0 C 12,6 km/h (3 Bft) 100 %
13.03.2018 14:33 7,2 C 91 % 999,7 hPa 0,0 l/m 10,2 km/h (2 Bft) W 271 5,8 C 15,7 km/h (3 Bft) 100 %
13.03.2018 14:34 7,2 C 91 % 999,7 hPa 0,0 l/m 4,5 km/h (1 Bft) W-SW 245 5,8 C 12,6 km/h (3 Bft) 100 %
13.03.2018 14:35 7,2 C 91 % 999,7 hPa 0,0 l/m 11,1 km/h (2 Bft) NW 318 5,8 C 18,8 km/h (3 Bft) 92 %
13.03.2018 14:36 7,2 C 91 % 999,7 hPa 0,0 l/m 8,2 km/h (2 Bft) W-SW 245 5,8 C 18,8 km/h (3 Bft) 96 %
13.03.2018 14:37 7,2 C 91 % 999,7 hPa 0,0 l/m 10,0 km/h (2 Bft) NW 313 5,8 C 12,6 km/h (3 Bft) 85 %
13.03.2018 14:38 7,1 C 91 % 999,8 hPa 0,0 l/m 10,8 km/h (2 Bft) NW 311 5,7 C 18,8 km/h (3 Bft) 85 %
13.03.2018 14:39 7,1 C 91 % 999,8 hPa 0,2 l/m 6,5 km/h (2 Bft) W-NW 287 5,7 C 9,4 km/h (2 Bft) 92 %
13.03.2018 14:40 7,1 C 91 % 999,8 hPa 0,0 l/m 3,8 km/h (1 Bft) W-SW 252 5,7 C 6,3 km/h (2 Bft) 92 %
13.03.2018 14:41 7,1 C 92 % 999,7 hPa 0,0 l/m 4,0 km/h (1 Bft) W 274 5,9 C 6,3 km/h (2 Bft) 100 %
13.03.2018 14:42 7,1 C 92 % 999,8 hPa 0,0 l/m 3,1 km/h (1 Bft) W 278 5,9 C 6,3 km/h (2 Bft) 96 %
13.03.2018 14:43 7,1 C 92 % 999,8 hPa 0,0 l/m 5,0 km/h (1 Bft) W-NW 301 5,9 C 9,4 km/h (2 Bft) 88 %
13.03.2018 14:44 7,1 C 91 % 999,8 hPa 0,0 l/m 7,9 km/h (2 Bft) W 279 5,7 C 12,6 km/h (3 Bft) 92 %
13.03.2018 14:45 7,1 C 91 % 999,8 hPa 0,2 l/m 4,5 km/h (1 Bft) W 273 5,7 C 9,4 km/h (2 Bft) 88 %
13.03.2018 14:46 7,1 C 91 % 999,8 hPa 0,0 l/m 8,1 km/h (2 Bft) NW 319 5,7 C 12,6 km/h (3 Bft) 79 %
13.03.2018 14:47 7,0 C 91 % 999,8 hPa 0,0 l/m 4,1 km/h (1 Bft) W 280 5,6 C 9,4 km/h (2 Bft) 57 %
13.03.2018 14:48 7,0 C 91 % 999,8 hPa 0,0 l/m 6,4 km/h (2 Bft) W 278 5,6 C 12,6 km/h (3 Bft) 79 %
13.03.2018 14:49 7,0 C 91 % 999,8 hPa 0,0 l/m 4,4 km/h (1 Bft) SW 233 5,6 C 15,7 km/h (3 Bft) 96 %
13.03.2018 14:50 7,0 C 92 % 999,8 hPa 0,2 l/m 0,4 km/h (0 Bft) W-NW 293 5,8 C 3,1 km/h (1 Bft) 78 %
13.03.2018 14:51 7,0 C 92 % 999,9 hPa 0,0 l/m 2,3 km/h (1 Bft) W-NW 287 5,8 C 6,3 km/h (2 Bft) 71 %
13.03.2018 14:52 7,0 C 92 % 999,9 hPa 0,0 l/m 2,2 km/h (1 Bft) W 261 5,8 C 6,3 km/h (2 Bft) 83 %
13.03.2018 14:53 7,0 C 92 % 999,9 hPa 0,0 l/m 1,4 km/h (1 Bft) W-SW 257 5,8 C 6,3 km/h (2 Bft) 96 %
13.03.2018 14:54 7,1 C 92 % 999,9 hPa 0,0 l/m 0,5 km/h (0 Bft) SW 231 5,9 C 3,1 km/h (1 Bft) 48 %
13.03.2018 14:55 7,1 C 93 % 999,9 hPa 0,0 l/m 3,6 km/h (1 Bft) SW 226 6,0 C 6,3 km/h (2 Bft) 83 %
13.03.2018 14:56 7,0 C 92 % 999,9 hPa 0,0 l/m 2,0 km/h (1 Bft) NW 310 5,8 C 6,3 km/h (2 Bft) 55 %
13.03.2018 14:57 7,0 C 92 % 999,9 hPa 0,0 l/m 3,0 km/h (1 Bft) W-SW 249 5,8 C 6,3 km/h (2 Bft) 58 %
13.03.2018 14:58 7,0 C 92 % 999,9 hPa 0,0 l/m 1,4 km/h (1 Bft) W-NW 292 5,8 C 3,1 km/h (1 Bft) 77 %
13.03.2018 14:59 7,0 C 93 % 999,9 hPa 0,0 l/m 0,9 km/h (0 Bft) W-NW 288 5,9 C 3,1 km/h (1 Bft) 83 %
13.03.2018 15:00 7,0 C 93 % 999,9 hPa 0,0 l/m 1,3 km/h (1 Bft) NW 320 5,9 C 3,1 km/h (1 Bft) 92 %
13.03.2018 15:01 7,0 C 93 % 999,9 hPa 0,0 l/m 1,6 km/h (1 Bft) W-SW 240 5,9 C 3,1 km/h (1 Bft) 94 %
13.03.2018 15:02 7,0 C 93 % 999,9 hPa 0,0 l/m 1,3 km/h (1 Bft) W-NW 291 5,9 C 6,3 km/h (2 Bft) 80 %
13.03.2018 15:03 7,0 C 93 % 1000,0 hPa 0,0 l/m 4,5 km/h (1 Bft) W-NW 302 5,9 C 9,4 km/h (2 Bft) 93 %
13.03.2018 15:04 7,0 C 92 % 1000,0 hPa 0,0 l/m 1,0 km/h (0 Bft) W 275 5,8 C 3,1 km/h (1 Bft) 100 %
13.03.2018 15:05 7,0 C 93 % 999,9 hPa 0,0 l/m 3,0 km/h (1 Bft) W-NW 300 5,9 C 6,3 km/h (2 Bft) 96 %
13.03.2018 15:06 7,0 C 93 % 999,9 hPa 0,0 l/m 2,7 km/h (1 Bft) W-NW 287 5,9 C 6,3 km/h (2 Bft) 100 %
13.03.2018 15:07 7,0 C 92 % 999,9 hPa 0,0 l/m 4,6 km/h (1 Bft) W-NW 298 5,8 C 6,3 km/h (2 Bft) 96 %
13.03.2018 15:08 7,0 C 92 % 1000,0 hPa 0,0 l/m 4,0 km/h (1 Bft) W-SW 252 5,8 C 6,3 km/h (2 Bft) 85 %
13.03.2018 15:09 7,0 C 93 % 1000,0 hPa 0,0 l/m 1,9 km/h (1 Bft) W 277 5,9 C 6,3 km/h (2 Bft) 100 %
13.03.2018 15:10 7,0 C 92 % 1000,0 hPa 0,0 l/m 5,1 km/h (1 Bft) W-NW 283 5,8 C 9,4 km/h (2 Bft) 88 %
13.03.2018 15:11 7,0 C 92 % 1000,0 hPa 0,0 l/m 2,1 km/h (1 Bft) W-NW 293 5,8 C 3,1 km/h (1 Bft) 96 %
13.03.2018 15:12 7,1 C 93 % 1000,0 hPa 0,0 l/m 5,3 km/h (1 Bft) SW 231 6,0 C 9,4 km/h (2 Bft) 100 %
13.03.2018 15:13 7,1 C 93 % 1000,0 hPa 0,0 l/m 1,8 km/h (1 Bft) NW 304 6,0 C 3,1 km/h (1 Bft) 100 %
13.03.2018 15:14 7,1 C 93 % 1000,0 hPa 0,0 l/m 0,9 km/h (0 Bft) SW 231 6,0 C 6,3 km/h (2 Bft) 100 %
13.03.2018 15:15 7,1 C 93 % 1000,0 hPa 0,0 l/m 0,1 km/h (0 Bft) W 276 6,0 C 3,1 km/h (1 Bft) 100 %
13.03.2018 15:16 7,1 C 93 % 1000,1 hPa 0,0 l/m 5,0 km/h (1 Bft) NW 306 6,0 C 12,6 km/h (3 Bft) 100 %
13.03.2018 15:17 7,1 C 93 % 1000,1 hPa 0,0 l/m 0,5 km/h (0 Bft) W-NW 287 6,0 C 3,1 km/h (1 Bft) 96 %
13.03.2018 15:18 7,1 C 93 % 1000,1 hPa 0,0 l/m 1,5 km/h (1 Bft) W-NW 282 6,0 C 3,1 km/h (1 Bft) 100 %
13.03.2018 15:19 7,1 C 93 % 1000,1 hPa 0,0 l/m 2,5 km/h (1 Bft) NW 304 6,0 C 6,3 km/h (2 Bft) 100 %
13.03.2018 15:20 7,1 C 93 % 1000,2 hPa 0,0 l/m 3,3 km/h (1 Bft) W 271 6,0 C 6,3 km/h (2 Bft) 100 %
13.03.2018 15:21 7,2 C 93 % 1000,1 hPa 0,0 l/m 1,6 km/h (1 Bft) W-NW 285 6,1 C 3,1 km/h (1 Bft) 81 %
13.03.2018 15:22 7,2 C 93 % 1000,1 hPa 0,0 l/m 4,8 km/h (1 Bft) NW 304 6,1 C 9,4 km/h (2 Bft) 100 %
13.03.2018 15:23 7,2 C 93 % 1000,1 hPa 0,0 l/m 2,8 km/h (1 Bft) W 261 6,1 C 6,3 km/h (2 Bft) 97 %
13.03.2018 15:24 7,2 C 93 % 1000,2 hPa 0,2 l/m 0,6 km/h (0 Bft) NW 313 6,1 C 3,1 km/h (1 Bft) 100 %
13.03.2018 15:25 7,2 C 93 % 1000,2 hPa 0,0 l/m 2,3 km/h (1 Bft) NW 318 6,1 C 3,1 km/h (1 Bft) 100 %
13.03.2018 15:26 7,2 C 93 % 1000,2 hPa 0,0 l/m 4,7 km/h (1 Bft) W-SW 251 6,1 C 9,4 km/h (2 Bft) 100 %
13.03.2018 15:27 7,2 C 93 % 1000,2 hPa 0,0 l/m 4,7 km/h (1 Bft) W 274 6,1 C 6,3 km/h (2 Bft) 100 %
13.03.2018 15:28 7,2 C 93 % 1000,2 hPa 0,0 l/m 0,4 km/h (0 Bft) SW 235 6,1 C 3,1 km/h (1 Bft) 100 %
13.03.2018 15:29 7,2 C 93 % 1000,2 hPa 0,0 l/m 4,9 km/h (1 Bft) W-NW 302 6,1 C 12,6 km/h (3 Bft) 100 %
13.03.2018 15:30 7,2 C 93 % 1000,2 hPa 0,0 l/m 9,1 km/h (2 Bft) SW 222 6,1 C 18,8 km/h (3 Bft) 100 %
13.03.2018 15:31 7,2 C 92 % 1000,2 hPa 0,0 l/m 6,6 km/h (2 Bft) W-NW 298 6,0 C 12,6 km/h (3 Bft) 100 %
13.03.2018 15:32 7,2 C 92 % 1000,3 hPa 0,0 l/m 8,1 km/h (2 Bft) W 277 6,0 C 12,6 km/h (3 Bft) 100 %
13.03.2018 15:33 7,2 C 92 % 1000,3 hPa 0,0 l/m 1,1 km/h (1 Bft) S-SW 206 6,0 C 6,3 km/h (2 Bft) 100 %
13.03.2018 15:34 7,2 C 92 % 1000,3 hPa 0,0 l/m 4,7 km/h (1 Bft) W-NW 290 6,0 C 12,6 km/h (3 Bft) 100 %
13.03.2018 15:35 7,2 C 92 % 1000,3 hPa 0,0 l/m 8,8 km/h (2 Bft) W 271 6,0 C 15,7 km/h (3 Bft) 100 %
13.03.2018 15:36 7,2 C 92 % 1000,3 hPa 0,0 l/m 14,2 km/h (3 Bft) W 271 6,0 C 22,0 km/h (4 Bft) 100 %
13.03.2018 15:37 7,2 C 92 % 1000,3 hPa 0,0 l/m 9,7 km/h (2 Bft) W-NW 285 6,0 C 18,8 km/h (3 Bft) 100 %
13.03.2018 15:38 7,2 C 92 % 1000,3 hPa 0,0 l/m 5,7 km/h (1 Bft) W-SW 238 6,0 C 9,4 km/h (2 Bft) 100 %
13.03.2018 15:39 7,2 C 92 % 1000,3 hPa 0,0 l/m 6,9 km/h (2 Bft) NW 308 6,0 C 12,6 km/h (3 Bft) 100 %
13.03.2018 15:40 7,2 C 92 % 1000,3 hPa 0,0 l/m 6,4 km/h (2 Bft) SW 225 6,0 C 12,6 km/h (3 Bft) 100 %
13.03.2018 15:41 7,2 C 92 % 1000,4 hPa 0,0 l/m 8,7 km/h (2 Bft) W-NW 285 6,0 C 18,8 km/h (3 Bft) 100 %
13.03.2018 15:42 7,1 C 92 % 1000,4 hPa 0,0 l/m 7,7 km/h (2 Bft) W-SW 250 5,9 C 12,6 km/h (3 Bft) 100 %
13.03.2018 15:43 7,1 C 92 % 1000,4 hPa 0,0 l/m 4,7 km/h (1 Bft) W-SW 251 5,9 C 9,4 km/h (2 Bft) 100 %
13.03.2018 15:44 7,1 C 92 % 1000,4 hPa 0,0 l/m 9,5 km/h (2 Bft) W-NW 301 5,9 C 15,7 km/h (3 Bft) 96 %
13.03.2018 15:45 7,1 C 92 % 1000,4 hPa 0,0 l/m 15,8 km/h (3 Bft) W-SW 241 5,9 C 25,1 km/h (4 Bft) 100 %
13.03.2018 15:46 7,1 C 92 % 1000,5 hPa 0,0 l/m 12,1 km/h (2 Bft) W 280 5,9 C 18,8 km/h (3 Bft) 100 %
13.03.2018 15:47 7,0 C 92 % 1000,5 hPa 0,0 l/m 10,6 km/h (2 Bft) W 266 5,8 C 15,7 km/h (3 Bft) 100 %
13.03.2018 15:48 7,0 C 91 % 1000,4 hPa 0,0 l/m 13,3 km/h (3 Bft) W-SW 238 5,6 C 18,8 km/h (3 Bft) 100 %
13.03.2018 15:49 7,0 C 91 % 1000,5 hPa 0,0 l/m 12,2 km/h (2 Bft) W-NW 303 5,6 C 18,8 km/h (3 Bft) 97 %
13.03.2018 15:50 7,0 C 91 % 1000,5 hPa 0,0 l/m 9,3 km/h (2 Bft) W-SW 245 5,6 C 18,8 km/h (3 Bft) 100 %
13.03.2018 15:51 7,0 C 91 % 1000,5 hPa 0,0 l/m 11,4 km/h (2 Bft) W-NW 295 5,6 C 18,8 km/h (3 Bft) 95 %
13.03.2018 15:52 7,0 C 91 % 1000,5 hPa 0,0 l/m 10,5 km/h (2 Bft) NW 308 5,6 C 15,7 km/h (3 Bft) 100 %
13.03.2018 15:53 7,0 C 91 % 1000,5 hPa 0,0 l/m 10,5 km/h (2 Bft) W-NW 302 5,6 C 18,8 km/h (3 Bft) 100 %
13.03.2018 15:54 7,0 C 91 % 1000,5 hPa 0,0 l/m 11,3 km/h (2 Bft) NW 309 5,6 C 15,7 km/h (3 Bft) 100 %
13.03.2018 15:55 7,0 C 91 % 1000,5 hPa 0,0 l/m 13,7 km/h (3 Bft) SW 229 5,6 C 18,8 km/h (3 Bft) 100 %
13.03.2018 15:56 6,9 C 91 % 1000,5 hPa 0,0 l/m 7,7 km/h (2 Bft) W 274 5,5 C 12,6 km/h (3 Bft) 100 %
13.03.2018 15:57 6,9 C 91 % 1000,6 hPa 0,0 l/m 4,8 km/h (1 Bft) W-SW 253 5,5 C 9,4 km/h (2 Bft) 100 %
13.03.2018 15:58 6,9 C 91 % 1000,6 hPa 0,0 l/m 6,4 km/h (2 Bft) NW 318 5,5 C 12,6 km/h (3 Bft) 100 %
13.03.2018 15:59 6,9 C 91 % 1000,6 hPa 0,0 l/m 9,3 km/h (2 Bft) W 272 5,5 C 15,7 km/h (3 Bft) 100 %
13.03.2018 16:00 6,9 C 91 % 1000,6 hPa 0,0 l/m 8,2 km/h (2 Bft) SW 221 5,5 C 15,7 km/h (3 Bft) 100 %
13.03.2018 16:01 6,9 C 91 % 1000,6 hPa 0,2 l/m 7,4 km/h (2 Bft) W 273 5,5 C 12,6 km/h (3 Bft) 96 %
13.03.2018 16:02 6,9 C 92 % 1000,6 hPa 0,0 l/m 4,3 km/h (1 Bft) NW 309 5,7 C 12,6 km/h (3 Bft) 70 %
13.03.2018 16:03 6,9 C 92 % 1000,7 hPa 0,0 l/m 9,9 km/h (2 Bft) W-NW 288 5,7 C 15,7 km/h (3 Bft) 54 %
13.03.2018 16:04 6,9 C 92 % 1000,7 hPa 0,0 l/m 7,3 km/h (2 Bft) W 261 5,7 C 12,6 km/h (3 Bft) 83 %
13.03.2018 16:05 6,9 C 92 % 1000,7 hPa 0,0 l/m 6,7 km/h (2 Bft) W 276 5,7 C 15,7 km/h (3 Bft) 96 %
13.03.2018 16:06 6,9 C 92 % 1000,7 hPa 0,0 l/m 4,8 km/h (1 Bft) W 269 5,7 C 6,3 km/h (2 Bft) 63 %
13.03.2018 16:07 6,9 C 92 % 1000,7 hPa 0,0 l/m 4,2 km/h (1 Bft) SW 229 5,7 C 6,3 km/h (2 Bft) 70 %
13.03.2018 16:08 6,9 C 92 % 1000,7 hPa 0,0 l/m 7,6 km/h (2 Bft) W 281 5,7 C 22,0 km/h (4 Bft) 74 %
13.03.2018 16:09 6,9 C 92 % 1000,7 hPa 0,0 l/m 15,0 km/h (3 Bft) W 278 5,7 C 22,0 km/h (4 Bft) 79 %
13.03.2018 16:10 6,9 C 92 % 1000,7 hPa 0,0 l/m 5,9 km/h (2 Bft) NO 54 5,7 C 18,8 km/h (3 Bft) 94 %
13.03.2018 16:11 6,9 C 92 % 1000,8 hPa 0,0 l/m 12,6 km/h (3 Bft) W-SW 246 5,7 C 18,8 km/h (3 Bft) 96 %
13.03.2018 16:12 6,9 C 92 % 1000,8 hPa 0,0 l/m 7,5 km/h (2 Bft) W-NW 302 5,7 C 12,6 km/h (3 Bft) 100 %
13.03.2018 16:13 6,9 C 92 % 1000,8 hPa 0,0 l/m 6,4 km/h (2 Bft) N-NW 335 5,7 C 15,7 km/h (3 Bft) 96 %
13.03.2018 16:14 6,9 C 91 % 1000,8 hPa 0,0 l/m 10,2 km/h (2 Bft) SW 230 5,5 C 22,0 km/h (4 Bft) 100 %
13.03.2018 16:15 6,9 C 91 % 1000,8 hPa 0,0 l/m 3,7 km/h (1 Bft) SW 236 5,5 C 9,4 km/h (2 Bft) 100 %
13.03.2018 16:16 6,9 C 92 % 1000,8 hPa 0,0 l/m 4,5 km/h (1 Bft) W-SW 253 5,7 C 9,4 km/h (2 Bft) 100 %
13.03.2018 16:17 6,9 C 92 % 1000,8 hPa 0,0 l/m 7,5 km/h (2 Bft) W-SW 250 5,7 C 15,7 km/h (3 Bft) 100 %
13.03.2018 16:18 6,9 C 91 % 1000,8 hPa 0,0 l/m 11,0 km/h (2 Bft) W 278 5,5 C 15,7 km/h (3 Bft) 100 %
13.03.2018 16:19 6,9 C 91 % 1000,8 hPa 0,0 l/m 3,3 km/h (1 Bft) NW 315 5,5 C 9,4 km/h (2 Bft) 100 %
13.03.2018 16:20 7,0 C 92 % 1000,9 hPa 0,0 l/m 7,5 km/h (2 Bft) W-SW 242 5,8 C 12,6 km/h (3 Bft) 97 %
13.03.2018 16:21 7,0 C 92 % 1000,9 hPa 0,0 l/m 5,4 km/h (1 Bft) W-NW 290 5,8 C 12,6 km/h (3 Bft) 100 %
13.03.2018 16:22 7,0 C 92 % 1000,9 hPa 0,0 l/m 6,7 km/h (2 Bft) W 271 5,8 C 12,6 km/h (3 Bft) 100 %
13.03.2018 16:23 7,0 C 92 % 1000,9 hPa 0,0 l/m 4,6 km/h (1 Bft) W-NW 285 5,8 C 12,6 km/h (3 Bft) 100 %
13.03.2018 16:24 7,0 C 92 % 1000,9 hPa 0,0 l/m 8,0 km/h (2 Bft) W-NW 303 5,8 C 12,6 km/h (3 Bft) 96 %
13.03.2018 16:25 7,0 C 92 % 1000,9 hPa 0,0 l/m 5,5 km/h (1 Bft) W-NW 283 5,8 C 12,6 km/h (3 Bft) 100 %
13.03.2018 16:26 7,0 C 92 % 1000,9 hPa 0,0 l/m 8,0 km/h (2 Bft) W-NW 295 5,8 C 18,8 km/h (3 Bft) 100 %
13.03.2018 16:27 7,0 C 92 % 1000,9 hPa 0,0 l/m 4,4 km/h (1 Bft) W-NW 298 5,8 C 6,3 km/h (2 Bft) 100 %
13.03.2018 16:28 7,0 C 92 % 1000,9 hPa 0,0 l/m 5,7 km/h (1 Bft) SW 232 5,8 C 12,6 km/h (3 Bft) 96 %
13.03.2018 16:29 7,0 C 92 % 1001,0 hPa 0,0 l/m 8,0 km/h (2 Bft) W 280 5,8 C 12,6 km/h (3 Bft) 100 %
13.03.2018 16:30 7,0 C 92 % 1000,9 hPa 0,0 l/m 4,3 km/h (1 Bft) W 280 5,8 C 9,4 km/h (2 Bft) 92 %
13.03.2018 16:31 7,0 C 92 % 1000,9 hPa 0,0 l/m 8,5 km/h (2 Bft) W 276 5,8 C 15,7 km/h (3 Bft) 100 %
13.03.2018 16:32 7,0 C 92 % 1001,0 hPa 0,0 l/m 5,8 km/h (2 Bft) W-NW 293 5,8 C 9,4 km/h (2 Bft) 96 %
13.03.2018 16:33 7,0 C 92 % 1000,9 hPa 0,0 l/m 8,9 km/h (2 Bft) W 268 5,8 C 15,7 km/h (3 Bft) 92 %
13.03.2018 16:34 7,0 C 92 % 1001,0 hPa 0,0 l/m 6,3 km/h (2 Bft) SW 229 5,8 C 12,6 km/h (3 Bft) 100 %
13.03.2018 16:35 7,0 C 92 % 1001,0 hPa 0,0 l/m 11,8 km/h (2 Bft) W-NW 289 5,8 C 18,8 km/h (3 Bft) 96 %
13.03.2018 16:36 7,0 C 91 % 1001,0 hPa 0,0 l/m 8,1 km/h (2 Bft) W 272 5,6 C 15,7 km/h (3 Bft) 100 %
13.03.2018 16:37 7,0 C 91 % 1001,0 hPa 0,0 l/m 8,2 km/h (2 Bft) N-NW 332 5,6 C 15,7 km/h (3 Bft) 100 %
13.03.2018 16:38 7,0 C 91 % 1001,0 hPa 0,0 l/m 9,4 km/h (2 Bft) NW 309 5,6 C 12,6 km/h (3 Bft) 92 %
13.03.2018 16:39 7,0 C 92 % 1001,0 hPa 0,0 l/m 10,5 km/h (2 Bft) W-SW 238 5,8 C 15,7 km/h (3 Bft) 92 %
13.03.2018 16:40 7,0 C 92 % 1001,1 hPa 0,0 l/m 10,0 km/h (2 Bft) N-NW 327 5,8 C 18,8 km/h (3 Bft) 58 %
13.03.2018 16:41 7,0 C 91 % 1001,0 hPa 0,0 l/m 12,7 km/h (3 Bft) W-SW 243 5,6 C 22,0 km/h (4 Bft) 90 %
13.03.2018 16:42 6,9 C 91 % 1001,1 hPa 0,0 l/m 10,0 km/h (2 Bft) W 271 5,5 C 15,7 km/h (3 Bft) 96 %
13.03.2018 16:43 6,9 C 91 % 1001,1 hPa 0,0 l/m 7,7 km/h (2 Bft) W-NW 283 5,5 C 12,6 km/h (3 Bft) 100 %
13.03.2018 16:44 6,9 C 91 % 1001,1 hPa 0,0 l/m 10,2 km/h (2 Bft) W 264 5,5 C 12,6 km/h (3 Bft) 92 %
13.03.2018 16:45 6,9 C 91 % 1001,2 hPa 0,0 l/m 3,7 km/h (1 Bft) W 269 5,5 C 9,4 km/h (2 Bft) 75 %
13.03.2018 16:46 6,9 C 92 % 1001,1 hPa 0,0 l/m 7,5 km/h (2 Bft) W-SW 242 5,7 C 12,6 km/h (3 Bft) 100 %
13.03.2018 16:47 6,9 C 92 % 1001,1 hPa 0,0 l/m 2,8 km/h (1 Bft) SW 226 5,7 C 6,3 km/h (2 Bft) 96 %
13.03.2018 16:48 6,9 C 92 % 1001,2 hPa 0,0 l/m 5,4 km/h (1 Bft) W-SW 240 5,7 C 12,6 km/h (3 Bft) 100 %
13.03.2018 16:49 6,9 C 92 % 1001,2 hPa 0,0 l/m 10,5 km/h (2 Bft) W 259 5,7 C 15,7 km/h (3 Bft) 88 %
13.03.2018 16:50 6,9 C 92 % 1001,2 hPa 0,0 l/m 11,6 km/h (2 Bft) W 266 5,7 C 15,7 km/h (3 Bft) 100 %
13.03.2018 16:51 6,9 C 92 % 1001,2 hPa 0,0 l/m 9,9 km/h (2 Bft) W 270 5,7 C 12,6 km/h (3 Bft) 92 %
13.03.2018 16:52 6,9 C 92 % 1001,2 hPa 0,0 l/m 8,4 km/h (2 Bft) W-NW 290 5,7 C 15,7 km/h (3 Bft) 100 %
13.03.2018 16:53 6,9 C 92 % 1001,2 hPa 0,0 l/m 9,7 km/h (2 Bft) NW 310 5,7 C 18,8 km/h (3 Bft) 97 %
13.03.2018 16:54 6,9 C 92 % 1001,2 hPa 0,0 l/m 2,2 km/h (1 Bft) W-NW 282 5,7 C 12,6 km/h (3 Bft) 96 %
13.03.2018 16:55 6,9 C 92 % 1001,2 hPa 0,0 l/m 6,4 km/h (2 Bft) SW 222 5,7 C 12,6 km/h (3 Bft) 100 %
13.03.2018 16:56 6,9 C 92 % 1001,3 hPa 0,0 l/m 4,7 km/h (1 Bft) NW 308 5,7 C 6,3 km/h (2 Bft) 100 %
13.03.2018 16:57 6,9 C 92 % 1001,3 hPa 0,0 l/m 9,4 km/h (2 Bft) SW 234 5,7 C 15,7 km/h (3 Bft) 100 %
13.03.2018 16:58 6,9 C 92 % 1001,2 hPa 0,0 l/m 6,9 km/h (2 Bft) W-SW 238 5,7 C 9,4 km/h (2 Bft) 97 %
13.03.2018 16:59 6,9 C 92 % 1001,3 hPa 0,0 l/m 5,0 km/h (1 Bft) W-NW 283 5,7 C 6,3 km/h (2 Bft) 100 %
13.03.2018 17:00 6,9 C 92 % 1001,3 hPa 0,0 l/m 10,5 km/h (2 Bft) W-NW 293 5,7 C 15,7 km/h (3 Bft) 100 %
13.03.2018 17:01 6,9 C 92 % 1001,3 hPa 0,0 l/m 7,6 km/h (2 Bft) SW 236 5,7 C 12,6 km/h (3 Bft) 100 %
13.03.2018 17:02 6,9 C 92 % 1001,3 hPa 0,0 l/m 12,3 km/h (3 Bft) NW 305 5,7 C 15,7 km/h (3 Bft) 100 %
13.03.2018 17:03 6,8 C 92 % 1001,3 hPa 0,0 l/m 11,5 km/h (2 Bft) SW 229 5,6 C 18,8 km/h (3 Bft) 96 %
13.03.2018 17:04 6,8 C 92 % 1001,4 hPa 0,0 l/m 11,5 km/h (2 Bft) W-NW 300 5,6 C 15,7 km/h (3 Bft) 100 %
13.03.2018 17:05 6,8 C 93 % 1001,4 hPa 0,0 l/m 8,2 km/h (2 Bft) NW 311 5,7 C 12,6 km/h (3 Bft) 96 %
13.03.2018 17:06 6,8 C 93 % 1001,4 hPa 0,0 l/m 5,3 km/h (1 Bft) W-SW 256 5,7 C 9,4 km/h (2 Bft) 100 %
13.03.2018 17:07 6,8 C 93 % 1001,5 hPa 0,0 l/m 9,3 km/h (2 Bft) W 275 5,7 C 28,2 km/h (4 Bft) 100 %
13.03.2018 17:08 6,8 C 93 % 1001,5 hPa 0,0 l/m 7,4 km/h (2 Bft) NW 319 5,7 C 12,6 km/h (3 Bft) 100 %
13.03.2018 17:09 6,8 C 93 % 1001,5 hPa 0,0 l/m 7,8 km/h (2 Bft) W 267 5,7 C 12,6 km/h (3 Bft) 100 %
13.03.2018 17:10 6,8 C 93 % 1001,5 hPa 0,0 l/m 9,4 km/h (2 Bft) W-NW 283 5,7 C 12,6 km/h (3 Bft) 100 %
13.03.2018 17:11 6,8 C 93 % 1001,5 hPa 0,0 l/m 6,0 km/h (2 Bft) W-NW 300 5,7 C 9,4 km/h (2 Bft) 100 %
13.03.2018 17:12 6,7 C 93 % 1001,6 hPa 0,0 l/m 9,9 km/h (2 Bft) W-NW 293 5,6 C 22,0 km/h (4 Bft) 100 %
13.03.2018 17:13 6,7 C 93 % 1001,6 hPa 0,0 l/m 5,6 km/h (1 Bft) W-NW 291 5,6 C 12,6 km/h (3 Bft) 100 %
13.03.2018 17:14 6,7 C 94 % 1001,6 hPa 0,0 l/m 11,1 km/h (2 Bft) NW 326 5,8 C 15,7 km/h (3 Bft) 100 %
13.03.2018 17:15 6,7 C 94 % 1001,6 hPa 0,0 l/m 10,9 km/h (2 Bft) W-SW 250 5,8 C 15,7 km/h (3 Bft) 91 %
13.03.2018 17:16 6,7 C 94 % 1001,7 hPa 0,0 l/m 7,5 km/h (2 Bft) W 262 5,8 C 15,7 km/h (3 Bft) 100 %
13.03.2018 17:17 6,7 C 94 % 1001,7 hPa 0,0 l/m 9,4 km/h (2 Bft) W-SW 238 5,8 C 22,0 km/h (4 Bft) 100 %
13.03.2018 17:18 6,7 C 94 % 1001,7 hPa 0,0 l/m 10,8 km/h (2 Bft) W 268 5,8 C 18,8 km/h (3 Bft) 92 %
13.03.2018 17:19 6,7 C 94 % 1001,8 hPa 0,0 l/m 10,8 km/h (2 Bft) W-NW 293 5,8 C 18,8 km/h (3 Bft) 100 %
13.03.2018 17:20 6,7 C 94 % 1001,8 hPa 0,0 l/m 10,3 km/h (2 Bft) NW 307 5,8 C 18,8 km/h (3 Bft) 94 %
13.03.2018 17:21 6,7 C 94 % 1001,9 hPa 0,0 l/m 18,2 km/h (3 Bft) W-NW 288 5,8 C 31,4 km/h (5 Bft) 100 %
13.03.2018 17:22 6,7 C 94 % 1001,9 hPa 0,0 l/m 19,5 km/h (3 Bft) N-NW 330 5,8 C 28,2 km/h (4 Bft) 100 %
13.03.2018 17:23 6,6 C 94 % 1002,0 hPa 0,0 l/m 21,0 km/h (4 Bft) W-NW 297 5,7 C 34,5 km/h (5 Bft) 97 %
13.03.2018 17:24 6,6 C 93 % 1002,1 hPa 0,0 l/m 23,2 km/h (4 Bft) W 262 5,6 C 34,5 km/h (5 Bft) 100 %
13.03.2018 17:25 6,4 C 93 % 1002,1 hPa 0,0 l/m 18,8 km/h (3 Bft) W-NW 302 5,4 C 34,5 km/h (5 Bft) 100 %
13.03.2018 17:26 6,4 C 93 % 1002,1 hPa 0,0 l/m 18,8 km/h (3 Bft) N-NW 327 5,4 C 34,5 km/h (5 Bft) 100 %
13.03.2018 17:27 6,4 C 92 % 1002,2 hPa 0,0 l/m 14,1 km/h (3 Bft) NW 306 5,2 C 31,4 km/h (5 Bft) 100 %
13.03.2018 17:28 6,3 C 92 % 1002,2 hPa 0,0 l/m 26,3 km/h (4 Bft) W-NW 288 5,1 C 50,2 km/h (7 Bft) 96 %
13.03.2018 17:29 6,3 C 92 % 1002,3 hPa 0,0 l/m 18,7 km/h (3 Bft) W-NW 285 5,1 C 28,2 km/h (4 Bft) 100 %
13.03.2018 17:30 6,3 C 92 % 1002,3 hPa 0,0 l/m 19,3 km/h (3 Bft) W-NW 290 5,1 C 28,2 km/h (4 Bft) 100 %
13.03.2018 17:31 6,2 C 92 % 1002,3 hPa 0,0 l/m 16,7 km/h (3 Bft) NW 314 5,0 C 25,1 km/h (4 Bft) 100 %
13.03.2018 17:32 6,2 C 92 % 1002,4 hPa 0,0 l/m 13,7 km/h (3 Bft) W-NW 283 5,0 C 25,1 km/h (4 Bft) 96 %
13.03.2018 17:33 6,2 C 92 % 1002,5 hPa 0,0 l/m 17,4 km/h (3 Bft) W-NW 293 5,0 C 34,5 km/h (5 Bft) 100 %
13.03.2018 17:34 6,2 C 92 % 1002,5 hPa 0,0 l/m 11,2 km/h (2 Bft) W-NW 289 5,0 C 25,1 km/h (4 Bft) 100 %
13.03.2018 17:35 6,2 C 92 % 1002,5 hPa 0,0 l/m 17,6 km/h (3 Bft) W-NW 295 5,0 C 28,2 km/h (4 Bft) 100 %
13.03.2018 17:36 6,2 C 92 % 1002,6 hPa 0,0 l/m 13,3 km/h (3 Bft) W-NW 294 5,0 C 25,1 km/h (4 Bft) 100 %
13.03.2018 17:37 6,2 C 92 % 1002,7 hPa 0,0 l/m 10,2 km/h (2 Bft) W 272 5,0 C 18,8 km/h (3 Bft) 100 %
13.03.2018 17:38 6,1 C 92 % 1002,6 hPa 0,0 l/m 11,9 km/h (2 Bft) W-NW 283 4,9 C 28,2 km/h (4 Bft) 100 %
13.03.2018 17:39 6,1 C 92 % 1002,7 hPa 0,0 l/m 13,5 km/h (3 Bft) W-NW 302 4,9 C 22,0 km/h (4 Bft) 100 %
13.03.2018 17:40 6,1 C 92 % 1002,7 hPa 0,0 l/m 9,3 km/h (2 Bft) W 265 4,9 C 18,8 km/h (3 Bft) 100 %
13.03.2018 17:41 6,1 C 92 % 1002,8 hPa 0,0 l/m 10,9 km/h (2 Bft) W 281 4,9 C 18,8 km/h (3 Bft) 100 %
13.03.2018 17:42 6,1 C 92 % 1002,8 hPa 0,0 l/m 10,5 km/h (2 Bft) NW 326 4,9 C 18,8 km/h (3 Bft) 100 %
13.03.2018 17:43 6,1 C 92 % 1002,8 hPa 0,0 l/m 9,3 km/h (2 Bft) W 278 4,9 C 18,8 km/h (3 Bft) 100 %
13.03.2018 17:44 6,1 C 92 % 1002,9 hPa 0,0 l/m 12,1 km/h (2 Bft) O-SO 117 4,9 C 22,0 km/h (4 Bft) 100 %
13.03.2018 17:45 6,0 C 91 % 1003,0 hPa 0,0 l/m 19,5 km/h (3 Bft) NW 307 4,6 C 43,9 km/h (6 Bft) 100 %
13.03.2018 17:46 5,9 C 91 % 1003,0 hPa 0,0 l/m 24,7 km/h (4 Bft) W-NW 282 4,5 C 43,9 km/h (6 Bft) 100 %
13.03.2018 17:47 5,9 C 91 % 1003,0 hPa 0,0 l/m 15,4 km/h (3 Bft) W 269 4,5 C 31,4 km/h (5 Bft) 100 %
13.03.2018 17:48 5,9 C 91 % 1003,0 hPa 0,0 l/m 16,9 km/h (3 Bft) W 278 4,5 C 28,2 km/h (4 Bft) 96 %
13.03.2018 17:49 5,8 C 91 % 1003,1 hPa 0,0 l/m 10,5 km/h (2 Bft) W-NW 293 4,4 C 18,8 km/h (3 Bft) 91 %
13.03.2018 17:50 5,8 C 91 % 1003,2 hPa 0,0 l/m 16,1 km/h (3 Bft) NW 316 4,4 C 37,7 km/h (5 Bft) 100 %
13.03.2018 17:51 5,8 C 90 % 1003,2 hPa 0,0 l/m 13,8 km/h (3 Bft) W-SW 255 4,3 C 25,1 km/h (4 Bft) 96 %
13.03.2018 17:52 5,8 C 90 % 1003,3 hPa 0,0 l/m 24,6 km/h (4 Bft) NW 306 4,3 C 34,5 km/h (5 Bft) 100 %
13.03.2018 17:53 5,7 C 90 % 1003,3 hPa 0,0 l/m 16,3 km/h (3 Bft) W-NW 285 4,2 C 31,4 km/h (5 Bft) 100 %
13.03.2018 17:54 5,7 C 90 % 1003,4 hPa 0,0 l/m 13,2 km/h (3 Bft) W-NW 294 4,2 C 25,1 km/h (4 Bft) 100 %
13.03.2018 17:55 5,7 C 90 % 1003,4 hPa 0,0 l/m 10,7 km/h (2 Bft) W-NW 294 4,2 C 12,6 km/h (3 Bft) 100 %
13.03.2018 17:56 5,6 C 90 % 1003,4 hPa 0,0 l/m 16,0 km/h (3 Bft) NW 319 4,1 C 28,2 km/h (4 Bft) 97 %
13.03.2018 17:57 5,6 C 91 % 1003,4 hPa 0,0 l/m 8,5 km/h (2 Bft) NW 306 4,2 C 15,7 km/h (3 Bft) 100 %
13.03.2018 17:58 5,6 C 91 % 1003,5 hPa 0,0 l/m 9,3 km/h (2 Bft) W 272 4,2 C 15,7 km/h (3 Bft) 100 %
13.03.2018 17:59 5,6 C 91 % 1003,4 hPa 0,0 l/m 8,6 km/h (2 Bft) NW 309 4,2 C 18,8 km/h (3 Bft) 100 %
13.03.2018 18:00 5,5 C 91 % 1003,5 hPa 0,0 l/m 9,1 km/h (2 Bft) N-NW 344 4,2 C 12,6 km/h (3 Bft) 96 %
13.03.2018 18:01 5,4 C 91 % 1003,5 hPa 0,0 l/m 22,4 km/h (4 Bft) W-NW 286 4,1 C 31,4 km/h (5 Bft) 100 %
13.03.2018 18:02 5,4 C 91 % 1003,5 hPa 0,0 l/m 11,0 km/h (2 Bft) N 357 4,1 C 18,8 km/h (3 Bft) 100 %
13.03.2018 18:03 5,3 C 91 % 1003,6 hPa 0,0 l/m 14,1 km/h (3 Bft) SW 224 4,0 C 25,1 km/h (4 Bft) 96 %
13.03.2018 18:04 5,3 C 91 % 1003,6 hPa 0,0 l/m 15,5 km/h (3 Bft) W-NW 287 4,0 C 31,4 km/h (5 Bft) 100 %
13.03.2018 18:05 5,3 C 91 % 1003,7 hPa 0,0 l/m 11,2 km/h (2 Bft) W-SW 254 4,0 C 28,2 km/h (4 Bft) 100 %
13.03.2018 18:06 5,2 C 91 % 1003,7 hPa 0,0 l/m 22,1 km/h (4 Bft) W-NW 289 3,9 C 40,8 km/h (6 Bft) 100 %
13.03.2018 18:07 5,2 C 91 % 1003,7 hPa 0,0 l/m 18,3 km/h (3 Bft) W-SW 255 3,9 C 31,4 km/h (5 Bft) 100 %
13.03.2018 18:08 5,1 C 91 % 1003,7 hPa 0,0 l/m 16,4 km/h (3 Bft) NW 311 3,8 C 28,2 km/h (4 Bft) 100 %
13.03.2018 18:09 5,1 C 91 % 1003,8 hPa 0,0 l/m 11,4 km/h (2 Bft) W-NW 303 3,8 C 22,0 km/h (4 Bft) 100 %
13.03.2018 18:11 5,1 C 91 % 1003,9 hPa 0,0 l/m 13,8 km/h (3 Bft) W-NW 282 3,8 C 18,8 km/h (3 Bft) 100 %
13.03.2018 18:12 5,0 C 91 % 1003,9 hPa 0,0 l/m 11,1 km/h (2 Bft) NW 306 3,7 C 18,8 km/h (3 Bft) 100 %
13.03.2018 18:13 4,9 C 91 % 1003,9 hPa 0,0 l/m 9,3 km/h (2 Bft) NW 323 3,6 C 15,7 km/h (3 Bft) 100 %
13.03.2018 18:14 4,9 C 91 % 1004,0 hPa 0,0 l/m 14,9 km/h (3 Bft) NW 319 3,6 C 25,1 km/h (4 Bft) 96 %
13.03.2018 18:15 4,9 C 91 % 1004,0 hPa 0,0 l/m 10,5 km/h (2 Bft) W 262 3,6 C 18,8 km/h (3 Bft) 100 %
13.03.2018 18:16 4,9 C 92 % 1004,1 hPa 0,0 l/m 11,1 km/h (2 Bft) W 260 3,7 C 25,1 km/h (4 Bft) 92 %
13.03.2018 18:17 4,8 C 92 % 1004,1 hPa 0,0 l/m 13,4 km/h (3 Bft) N-NW 331 3,6 C 25,1 km/h (4 Bft) 100 %
13.03.2018 18:18 4,8 C 92 % 1004,1 hPa 0,0 l/m 11,8 km/h (2 Bft) W-NW 297 3,6 C 22,0 km/h (4 Bft) 100 %
13.03.2018 18:19 4,8 C 92 % 1004,2 hPa 0,0 l/m 16,6 km/h (3 Bft) NW 317 3,6 C 31,4 km/h (5 Bft) 100 %
13.03.2018 18:20 4,8 C 92 % 1004,3 hPa 0,0 l/m 15,8 km/h (3 Bft) N-NW 335 3,6 C 34,5 km/h (5 Bft) 100 %
13.03.2018 18:21 4,8 C 92 % 1004,3 hPa 0,0 l/m 17,7 km/h (3 Bft) NW 314 3,6 C 28,2 km/h (4 Bft) 100 %
13.03.2018 18:22 4,7 C 92 % 1004,3 hPa 0,0 l/m 19,2 km/h (3 Bft) W-NW 282 3,5 C 34,5 km/h (5 Bft) 100 %
13.03.2018 18:23 4,7 C 92 % 1004,4 hPa 0,0 l/m 19,5 km/h (3 Bft) NW 314 3,5 C 31,4 km/h (5 Bft) 100 %
13.03.2018 18:24 4,7 C 91 % 1004,4 hPa 0,0 l/m 17,1 km/h (3 Bft) W 264 3,4 C 28,2 km/h (4 Bft) 100 %
13.03.2018 18:25 4,6 C 91 % 1004,4 hPa 0,0 l/m 21,8 km/h (4 Bft) W 261 3,3 C 34,5 km/h (5 Bft) 100 %
13.03.2018 18:26 4,6 C 91 % 1004,5 hPa 0,0 l/m 16,8 km/h (3 Bft) NW 308 3,3 C 25,1 km/h (4 Bft) 100 %
13.03.2018 18:27 4,6 C 91 % 1004,5 hPa 0,0 l/m 21,2 km/h (4 Bft) W-NW 302 3,3 C 37,7 km/h (5 Bft) 96 %
13.03.2018 18:28 4,5 C 91 % 1004,5 hPa 0,0 l/m 12,9 km/h (3 Bft) NW 309 3,2 C 18,8 km/h (3 Bft) 100 %
13.03.2018 18:29 4,5 C 91 % 1004,6 hPa 0,0 l/m 9,7 km/h (2 Bft) NW 311 3,2 C 15,7 km/h (3 Bft) 96 %
13.03.2018 18:30 4,4 C 91 % 1004,6 hPa 0,0 l/m 9,0 km/h (2 Bft) NW 309 3,1 C 18,8 km/h (3 Bft) 96 %
13.03.2018 18:31 4,4 C 91 % 1004,7 hPa 0,0 l/m 11,2 km/h (2 Bft) W-NW 293 3,1 C 31,4 km/h (5 Bft) 99 %
13.03.2018 18:32 4,4 C 92 % 1004,7 hPa 0,0 l/m 15,1 km/h (3 Bft) W-NW 284 3,2 C 22,0 km/h (4 Bft) 98 %
13.03.2018 18:33 4,4 C 92 % 1004,8 hPa 0,0 l/m 12,2 km/h (2 Bft) W-NW 289 3,2 C 22,0 km/h (4 Bft) 100 %
13.03.2018 18:34 4,4 C 92 % 1004,7 hPa 0,2 l/m 14,6 km/h (3 Bft) W-NW 293 3,2 C 22,0 km/h (4 Bft) 100 %
13.03.2018 18:35 4,3 C 92 % 1004,8 hPa 0,0 l/m 18,7 km/h (3 Bft) W 274 3,1 C 28,2 km/h (4 Bft) 100 %
13.03.2018 18:36 4,3 C 92 % 1004,8 hPa 0,0 l/m 10,9 km/h (2 Bft) N-NW 333 3,1 C 18,8 km/h (3 Bft) 100 %
13.03.2018 18:37 4,3 C 92 % 1004,8 hPa 0,0 l/m 9,8 km/h (2 Bft) W-NW 299 3,1 C 15,7 km/h (3 Bft) 97 %
13.03.2018 18:38 4,3 C 92 % 1004,9 hPa 0,0 l/m 6,7 km/h (2 Bft) NW 309 3,1 C 12,6 km/h (3 Bft) 100 %
13.03.2018 18:39 4,3 C 92 % 1005,0 hPa 0,0 l/m 19,1 km/h (3 Bft) N-NO 26 3,1 C 31,4 km/h (5 Bft) 97 %
13.03.2018 18:40 4,2 C 92 % 1005,0 hPa 0,0 l/m 15,5 km/h (3 Bft) W 281 3,0 C 37,7 km/h (5 Bft) 100 %
13.03.2018 18:41 4,2 C 92 % 1005,0 hPa 0,0 l/m 13,0 km/h (3 Bft) NW 319 3,0 C 18,8 km/h (3 Bft) 92 %
13.03.2018 18:42 4,2 C 92 % 1005,0 hPa 0,0 l/m 16,5 km/h (3 Bft) W 280 3,0 C 25,1 km/h (4 Bft) 100 %
13.03.2018 18:43 4,1 C 92 % 1005,0 hPa 0,0 l/m 20,4 km/h (4 Bft) NW 325 2,9 C 31,4 km/h (5 Bft) 92 %
13.03.2018 18:44 4,1 C 92 % 1005,0 hPa 0,0 l/m 18,3 km/h (3 Bft) W 260 2,9 C 34,5 km/h (5 Bft) 100 %
13.03.2018 18:45 4,1 C 92 % 1005,1 hPa 0,0 l/m 12,0 km/h (2 Bft) NW 324 2,9 C 22,0 km/h (4 Bft) 96 %
13.03.2018 18:46 4,1 C 92 % 1005,1 hPa 0,0 l/m 15,4 km/h (3 Bft) W-NW 285 2,9 C 28,2 km/h (4 Bft) 100 %
13.03.2018 18:47 4,0 C 92 % 1005,2 hPa 0,0 l/m 7,8 km/h (2 Bft) W-NW 298 2,8 C 18,8 km/h (3 Bft) 96 %
13.03.2018 18:48 4,0 C 92 % 1005,2 hPa 0,0 l/m 18,0 km/h (3 Bft) N-NW 338 2,8 C 22,0 km/h (4 Bft) 100 %
13.03.2018 18:49 3,9 C 92 % 1005,2 hPa 0,0 l/m 15,2 km/h (3 Bft) W-NW 301 2,7 C 28,2 km/h (4 Bft) 97 %
13.03.2018 18:50 3,9 C 92 % 1005,3 hPa 0,0 l/m 17,3 km/h (3 Bft) NW 314 2,7 C 28,2 km/h (4 Bft) 96 %
13.03.2018 18:51 3,9 C 92 % 1005,2 hPa 0,0 l/m 13,8 km/h (3 Bft) W-SW 253 2,7 C 22,0 km/h (4 Bft) 100 %
13.03.2018 18:52 3,8 C 92 % 1005,3 hPa 0,0 l/m 16,8 km/h (3 Bft) W 265 2,6 C 22,0 km/h (4 Bft) 96 %
13.03.2018 18:53 3,8 C 92 % 1005,3 hPa 0,0 l/m 12,4 km/h (3 Bft) N 349 2,6 C 22,0 km/h (4 Bft) 100 %
13.03.2018 18:54 3,8 C 93 % 1005,4 hPa 0,0 l/m 13,7 km/h (3 Bft) W 262 2,8 C 25,1 km/h (4 Bft) 97 %
13.03.2018 18:55 3,8 C 93 % 1005,4 hPa 0,0 l/m 12,2 km/h (2 Bft) W 266 2,8 C 28,2 km/h (4 Bft) 100 %
13.03.2018 18:56 3,7 C 93 % 1005,4 hPa 0,0 l/m 8,2 km/h (2 Bft) W-NW 285 2,7 C 12,6 km/h (3 Bft) 96 %
13.03.2018 18:57 3,7 C 93 % 1005,4 hPa 0,0 l/m 13,2 km/h (3 Bft) W-NW 287 2,7 C 18,8 km/h (3 Bft) 100 %
13.03.2018 18:58 3,7 C 93 % 1005,4 hPa 0,0 l/m 16,2 km/h (3 Bft) NW 322 2,7 C 31,4 km/h (5 Bft) 96 %
13.03.2018 18:59 3,7 C 93 % 1005,4 hPa 0,0 l/m 10,5 km/h (2 Bft) W-NW 293 2,7 C 18,8 km/h (3 Bft) 96 %
13.03.2018 19:00 3,7 C 93 % 1005,5 hPa 0,0 l/m 15,0 km/h (3 Bft) W-NW 289 2,7 C 18,8 km/h (3 Bft) 98 %
13.03.2018 19:01 3,6 C 93 % 1005,5 hPa 0,0 l/m 11,5 km/h (2 Bft) W-NW 296 2,6 C 18,8 km/h (3 Bft) 97 %
13.03.2018 19:02 3,6 C 93 % 1005,5 hPa 0,0 l/m 6,0 km/h (2 Bft) NW 317 2,6 C 12,6 km/h (3 Bft) 100 %
13.03.2018 19:03 3,6 C 93 % 1005,5 hPa 0,0 l/m 6,3 km/h (2 Bft) W-NW 284 2,6 C 9,4 km/h (2 Bft) 93 %
13.03.2018 19:04 3,6 C 93 % 1005,5 hPa 0,0 l/m 2,8 km/h (1 Bft) W-SW 240 2,6 C 6,3 km/h (2 Bft) 100 %
13.03.2018 19:05 3,6 C 93 % 1005,5 hPa 0,0 l/m 5,0 km/h (1 Bft) NW 308 2,6 C 12,6 km/h (3 Bft) 97 %
13.03.2018 19:06 3,6 C 93 % 1005,6 hPa 0,0 l/m 3,1 km/h (1 Bft) NW 319 2,6 C 6,3 km/h (2 Bft) 100 %
13.03.2018 19:07 3,6 C 93 % 1005,5 hPa 0,0 l/m 9,0 km/h (2 Bft) NW 308 2,6 C 12,6 km/h (3 Bft) 100 %
13.03.2018 19:08 3,5 C 93 % 1005,5 hPa 0,0 l/m 7,7 km/h (2 Bft) W-NW 297 2,5 C 12,6 km/h (3 Bft) 100 %
13.03.2018 19:09 3,5 C 93 % 1005,6 hPa 0,0 l/m 13,2 km/h (3 Bft) W-NW 302 2,5 C 22,0 km/h (4 Bft) 100 %
13.03.2018 19:10 3,5 C 93 % 1005,6 hPa 0,0 l/m 8,5 km/h (2 Bft) W 280 2,5 C 15,7 km/h (3 Bft) 100 %
13.03.2018 19:11 3,4 C 93 % 1005,7 hPa 0,0 l/m 5,7 km/h (1 Bft) W-NW 302 2,4 C 9,4 km/h (2 Bft) 100 %
13.03.2018 19:12 3,4 C 93 % 1005,7 hPa 0,0 l/m 8,6 km/h (2 Bft) W-NW 299 2,4 C 18,8 km/h (3 Bft) 100 %
13.03.2018 19:13 3,4 C 93 % 1005,7 hPa 0,0 l/m 9,0 km/h (2 Bft) N-NO 15 2,4 C 18,8 km/h (3 Bft) 100 %
13.03.2018 19:14 3,4 C 93 % 1005,7 hPa 0,0 l/m 13,2 km/h (3 Bft) W-NW 299 2,4 C 18,8 km/h (3 Bft) 100 %
13.03.2018 19:15 3,4 C 93 % 1005,8 hPa 0,0 l/m 9,4 km/h (2 Bft) W-NW 289 2,4 C 18,8 km/h (3 Bft) 100 %
13.03.2018 19:16 3,4 C 93 % 1005,7 hPa 0,0 l/m 7,4 km/h (2 Bft) NW 323 2,4 C 12,6 km/h (3 Bft) 100 %
13.03.2018 19:17 3,4 C 93 % 1005,7 hPa 0,0 l/m 5,4 km/h (1 Bft) W-NW 289 2,4 C 12,6 km/h (3 Bft) 100 %
13.03.2018 19:18 3,4 C 93 % 1005,8 hPa 0,0 l/m 3,3 km/h (1 Bft) NW 304 2,4 C 9,4 km/h (2 Bft) 100 %
13.03.2018 19:19 3,4 C 93 % 1005,8 hPa 0,0 l/m 5,5 km/h (1 Bft) W-SW 255 2,4 C 9,4 km/h (2 Bft) 100 %
13.03.2018 19:20 3,3 C 93 % 1005,8 hPa 0,0 l/m 9,1 km/h (2 Bft) W-NW 295 2,3 C 15,7 km/h (3 Bft) 100 %
13.03.2018 19:21 3,3 C 93 % 1005,8 hPa 0,0 l/m 8,5 km/h (2 Bft) W-NW 299 2,3 C 12,6 km/h (3 Bft) 100 %
13.03.2018 19:22 3,3 C 93 % 1005,8 hPa 0,0 l/m 9,0 km/h (2 Bft) W-NW 301 2,3 C 12,6 km/h (3 Bft) 100 %
13.03.2018 19:23 3,3 C 93 % 1005,8 hPa 0,0 l/m 12,4 km/h (3 Bft) W-NW 301 2,3 C 18,8 km/h (3 Bft) 100 %
13.03.2018 19:24 3,3 C 93 % 1005,8 hPa 0,0 l/m 5,9 km/h (2 Bft) NW 306 2,3 C 9,4 km/h (2 Bft) 100 %
13.03.2018 19:25 3,3 C 94 % 1005,8 hPa 0,0 l/m 3,5 km/h (1 Bft) NW 317 2,4 C 6,3 km/h (2 Bft) 100 %
13.03.2018 19:26 3,3 C 94 % 1005,8 hPa 0,0 l/m 3,0 km/h (1 Bft) W-NW 300 2,4 C 6,3 km/h (2 Bft) 100 %
13.03.2018 19:27 3,3 C 94 % 1005,9 hPa 0,0 l/m 7,2 km/h (2 Bft) W-NW 300 2,4 C 15,7 km/h (3 Bft) 100 %
13.03.2018 19:28 3,3 C 94 % 1005,9 hPa 0,0 l/m 2,7 km/h (1 Bft) W-NW 292 2,4 C 3,1 km/h (1 Bft) 100 %
13.03.2018 19:29 3,3 C 94 % 1005,9 hPa 0,0 l/m 8,3 km/h (2 Bft) SW 230 2,4 C 12,6 km/h (3 Bft) 100 %
13.03.2018 19:30 3,3 C 94 % 1005,9 hPa 0,0 l/m 4,1 km/h (1 Bft) W-NW 295 2,4 C 6,3 km/h (2 Bft) 100 %
13.03.2018 19:31 3,3 C 94 % 1005,9 hPa 0,0 l/m 2,5 km/h (1 Bft) NW 304 2,4 C 6,3 km/h (2 Bft) 100 %
13.03.2018 19:32 3,3 C 94 % 1005,9 hPa 0,0 l/m 5,8 km/h (2 Bft) W-SW 240 2,4 C 9,4 km/h (2 Bft) 100 %
13.03.2018 19:33 3,3 C 94 % 1005,9 hPa 0,0 l/m 7,9 km/h (2 Bft) W-NW 297 2,4 C 12,6 km/h (3 Bft) 100 %
13.03.2018 19:34 3,3 C 94 % 1006,0 hPa 0,0 l/m 5,4 km/h (1 Bft) W 278 2,4 C 6,3 km/h (2 Bft) 100 %
13.03.2018 19:35 3,3 C 94 % 1006,0 hPa 0,0 l/m 5,5 km/h (1 Bft) W 272 2,4 C 12,6 km/h (3 Bft) 100 %
13.03.2018 19:36 3,3 C 94 % 1006,0 hPa 0,0 l/m 5,6 km/h (1 Bft) W-NW 296 2,4 C 9,4 km/h (2 Bft) 100 %
13.03.2018 19:37 3,3 C 94 % 1006,0 hPa 0,0 l/m 1,1 km/h (1 Bft) NW 316 2,4 C 3,1 km/h (1 Bft) 100 %
13.03.2018 19:38 3,3 C 94 % 1006,1 hPa 0,0 l/m 1,2 km/h (1 Bft) W 266 2,4 C 3,1 km/h (1 Bft) 100 %
13.03.2018 19:39 3,3 C 94 % 1006,1 hPa 0,0 l/m 4,4 km/h (1 Bft) W 264 2,4 C 6,3 km/h (2 Bft) 100 %
13.03.2018 19:40 3,3 C 95 % 1006,1 hPa 0,0 l/m 4,7 km/h (1 Bft) W 259 2,6 C 9,4 km/h (2 Bft) 100 %
13.03.2018 19:41 3,3 C 95 % 1006,1 hPa 0,0 l/m 7,8 km/h (2 Bft) NW 305 2,6 C 12,6 km/h (3 Bft) 100 %
13.03.2018 19:42 3,3 C 95 % 1006,1 hPa 0,0 l/m 7,5 km/h (2 Bft) W-NW 291 2,6 C 12,6 km/h (3 Bft) 100 %
13.03.2018 19:43 3,3 C 95 % 1006,1 hPa 0,0 l/m 7,3 km/h (2 Bft) W-NW 296 2,6 C 9,4 km/h (2 Bft) 100 %
13.03.2018 19:44 3,3 C 95 % 1006,1 hPa 0,0 l/m 7,5 km/h (2 Bft) NW 316 2,6 C 12,6 km/h (3 Bft) 100 %
13.03.2018 19:45 3,3 C 95 % 1006,1 hPa 0,0 l/m 1,3 km/h (1 Bft) W-NW 288 2,6 C 3,1 km/h (1 Bft) 100 %
13.03.2018 19:46 3,3 C 95 % 1006,2 hPa 0,0 l/m 1,7 km/h (1 Bft) NW 316 2,6 C 6,3 km/h (2 Bft) 100 %
13.03.2018 19:47 3,3 C 95 % 1006,2 hPa 0,0 l/m 7,8 km/h (2 Bft) NW 310 2,6 C 12,6 km/h (3 Bft) 100 %
13.03.2018 19:48 3,3 C 95 % 1006,2 hPa 0,0 l/m 5,3 km/h (1 Bft) W 263 2,6 C 9,4 km/h (2 Bft) 100 %
13.03.2018 19:49 3,3 C 95 % 1006,2 hPa 0,0 l/m 6,3 km/h (2 Bft) NW 315 2,6 C 9,4 km/h (2 Bft) 100 %
13.03.2018 19:50 3,3 C 95 % 1006,2 hPa 0,0 l/m 11,6 km/h (2 Bft) NW 307 2,6 C 15,7 km/h (3 Bft) 100 %
13.03.2018 19:51 3,3 C 95 % 1006,2 hPa 0,0 l/m 8,8 km/h (2 Bft) W 281 2,6 C 12,6 km/h (3 Bft) 100 %
13.03.2018 19:52 3,4 C 95 % 1006,3 hPa 0,0 l/m 12,7 km/h (3 Bft) W-NW 288 2,7 C 22,0 km/h (4 Bft) 100 %
13.03.2018 19:53 3,4 C 95 % 1006,3 hPa 0,0 l/m 7,7 km/h (2 Bft) W-NW 293 2,7 C 9,4 km/h (2 Bft) 100 %
13.03.2018 19:54 3,4 C 95 % 1006,3 hPa 0,0 l/m 10,2 km/h (2 Bft) W-NW 300 2,7 C 18,8 km/h (3 Bft) 100 %
13.03.2018 19:55 3,4 C 95 % 1006,3 hPa 0,0 l/m 13,7 km/h (3 Bft) W 280 2,7 C 22,0 km/h (4 Bft) 100 %
13.03.2018 19:56 3,4 C 95 % 1006,3 hPa 0,0 l/m 10,2 km/h (2 Bft) W-SW 250 2,7 C 22,0 km/h (4 Bft) 100 %
13.03.2018 19:57 3,4 C 95 % 1006,3 hPa 0,0 l/m 11,7 km/h (2 Bft) SW 228 2,7 C 22,0 km/h (4 Bft) 100 %
13.03.2018 19:58 3,4 C 94 % 1006,3 hPa 0,0 l/m 5,5 km/h (1 Bft) W 279 2,5 C 12,6 km/h (3 Bft) 100 %
13.03.2018 19:59 3,4 C 94 % 1006,3 hPa 0,0 l/m 2,2 km/h (1 Bft) W-NW 302 2,5 C 6,3 km/h (2 Bft) 100 %
13.03.2018 20:00 3,4 C 94 % 1006,4 hPa 0,0 l/m 8,4 km/h (2 Bft) W-NW 295 2,5 C 15,7 km/h (3 Bft) 100 %
13.03.2018 20:01 3,4 C 94 % 1006,4 hPa 0,0 l/m 11,4 km/h (2 Bft) W-NW 285 2,5 C 22,0 km/h (4 Bft) 100 %
13.03.2018 20:02 3,4 C 94 % 1006,4 hPa 0,0 l/m 6,5 km/h (2 Bft) W-NW 284 2,5 C 12,6 km/h (3 Bft) 100 %
13.03.2018 20:03 3,4 C 94 % 1006,4 hPa 0,0 l/m 8,1 km/h (2 Bft) W-NW 299 2,5 C 15,7 km/h (3 Bft) 100 %
13.03.2018 20:04 3,4 C 94 % 1006,4 hPa 0,0 l/m 7,7 km/h (2 Bft) NW 314 2,5 C 15,7 km/h (3 Bft) 100 %
13.03.2018 20:05 3,4 C 94 % 1006,5 hPa 0,0 l/m 4,3 km/h (1 Bft) W-NW 293 2,5 C 6,3 km/h (2 Bft) 100 %
13.03.2018 20:06 3,4 C 94 % 1006,5 hPa 0,0 l/m 12,4 km/h (3 Bft) NW 314 2,5 C 22,0 km/h (4 Bft) 100 %
13.03.2018 20:07 3,4 C 94 % 1006,5 hPa 0,0 l/m 13,6 km/h (3 Bft) NW 318 2,5 C 22,0 km/h (4 Bft) 99 %
13.03.2018 20:08 3,4 C 94 % 1006,5 hPa 0,0 l/m 7,8 km/h (2 Bft) NW 320 2,5 C 12,6 km/h (3 Bft) 100 %
13.03.2018 20:09 3,4 C 94 % 1006,5 hPa 0,0 l/m 9,7 km/h (2 Bft) W 280 2,5 C 12,6 km/h (3 Bft) 100 %
13.03.2018 20:10 3,4 C 94 % 1006,5 hPa 0,0 l/m 7,6 km/h (2 Bft) W-NW 300 2,5 C 12,6 km/h (3 Bft) 100 %
13.03.2018 20:11 3,4 C 94 % 1006,6 hPa 0,0 l/m 5,2 km/h (1 Bft) NW 314 2,5 C 9,4 km/h (2 Bft) 100 %
13.03.2018 20:12 3,4 C 94 % 1006,6 hPa 0,0 l/m 9,0 km/h (2 Bft) NW 315 2,5 C 18,8 km/h (3 Bft) 100 %
13.03.2018 20:13 3,4 C 94 % 1006,6 hPa 0,0 l/m 6,9 km/h (2 Bft) W-NW 288 2,5 C 15,7 km/h (3 Bft) 100 %
13.03.2018 20:14 3,4 C 94 % 1006,7 hPa 0,0 l/m 11,9 km/h (2 Bft) NW 324 2,5 C 18,8 km/h (3 Bft) 100 %
13.03.2018 20:15 3,4 C 94 % 1006,7 hPa 0,0 l/m 6,4 km/h (2 Bft) W-NW 296 2,5 C 12,6 km/h (3 Bft) 100 %
13.03.2018 20:16 3,4 C 94 % 1006,7 hPa 0,0 l/m 6,1 km/h (2 Bft) NW 311 2,5 C 12,6 km/h (3 Bft) 100 %
13.03.2018 20:17 3,4 C 94 % 1006,7 hPa 0,0 l/m 8,1 km/h (2 Bft) W-SW 255 2,5 C 12,6 km/h (3 Bft) 100 %
13.03.2018 20:18 3,4 C 93 % 1006,7 hPa 0,0 l/m 8,1 km/h (2 Bft) W-NW 287 2,4 C 12,6 km/h (3 Bft) 100 %
13.03.2018 20:19 3,4 C 94 % 1006,7 hPa 0,0 l/m 7,5 km/h (2 Bft) W-NW 285 2,5 C 12,6 km/h (3 Bft) 100 %
13.03.2018 20:20 3,4 C 94 % 1006,8 hPa 0,0 l/m 5,4 km/h (1 Bft) NW 316 2,5 C 9,4 km/h (2 Bft) 100 %
13.03.2018 20:21 3,4 C 94 % 1006,8 hPa 0,0 l/m 7,1 km/h (2 Bft) W-NW 285 2,5 C 12,6 km/h (3 Bft) 100 %
13.03.2018 20:22 3,4 C 94 % 1006,8 hPa 0,0 l/m 8,4 km/h (2 Bft) NW 309 2,5 C 12,6 km/h (3 Bft) 100 %
13.03.2018 20:23 3,4 C 94 % 1006,8 hPa 0,0 l/m 13,5 km/h (3 Bft) W 271 2,5 C 28,2 km/h (4 Bft) 100 %
13.03.2018 20:24 3,4 C 94 % 1006,8 hPa 0,0 l/m 10,2 km/h (2 Bft) W-NW 285 2,5 C 22,0 km/h (4 Bft) 100 %
13.03.2018 20:25 3,4 C 94 % 1006,9 hPa 0,0 l/m 7,5 km/h (2 Bft) W-NW 298 2,5 C 15,7 km/h (3 Bft) 100 %
13.03.2018 20:26 3,4 C 93 % 1006,9 hPa 0,0 l/m 6,8 km/h (2 Bft) W 275 2,4 C 15,7 km/h (3 Bft) 100 %
13.03.2018 20:27 3,4 C 94 % 1006,9 hPa 0,0 l/m 8,1 km/h (2 Bft) W-NW 290 2,5 C 22,0 km/h (4 Bft) 100 %
13.03.2018 20:28 3,4 C 94 % 1006,9 hPa 0,0 l/m 6,1 km/h (2 Bft) W 268 2,5 C 12,6 km/h (3 Bft) 100 %
13.03.2018 20:29 3,4 C 94 % 1006,9 hPa 0,0 l/m 8,2 km/h (2 Bft) NW 307 2,5 C 15,7 km/h (3 Bft) 100 %
13.03.2018 20:30 3,4 C 94 % 1006,9 hPa 0,0 l/m 6,8 km/h (2 Bft) NW 310 2,5 C 9,4 km/h (2 Bft) 100 %
13.03.2018 20:31 3,4 C 94 % 1006,9 hPa 0,0 l/m 10,4 km/h (2 Bft) W 281 2,5 C 15,7 km/h (3 Bft) 100 %
13.03.2018 20:32 3,4 C 93 % 1006,9 hPa 0,0 l/m 9,5 km/h (2 Bft) W-NW 290 2,4 C 18,8 km/h (3 Bft) 100 %
13.03.2018 20:33 3,4 C 93 % 1006,9 hPa 0,0 l/m 15,6 km/h (3 Bft) NW 305 2,4 C 22,0 km/h (4 Bft) 100 %
13.03.2018 20:34 3,4 C 93 % 1006,9 hPa 0,0 l/m 9,8 km/h (2 Bft) NW 306 2,4 C 15,7 km/h (3 Bft) 100 %
13.03.2018 20:35 3,4 C 93 % 1007,0 hPa 0,0 l/m 6,4 km/h (2 Bft) W-NW 292 2,4 C 12,6 km/h (3 Bft) 100 %
13.03.2018 20:36 3,5 C 93 % 1007,0 hPa 0,0 l/m 8,9 km/h (2 Bft) W-NW 283 2,5 C 22,0 km/h (4 Bft) 100 %
13.03.2018 20:37 3,5 C 93 % 1007,0 hPa 0,0 l/m 11,3 km/h (2 Bft) NW 315 2,5 C 18,8 km/h (3 Bft) 100 %
13.03.2018 20:38 3,5 C 93 % 1007,0 hPa 0,0 l/m 5,5 km/h (1 Bft) NW 304 2,5 C 12,6 km/h (3 Bft) 100 %
13.03.2018 20:39 3,5 C 93 % 1007,1 hPa 0,0 l/m 3,9 km/h (1 Bft) W-NW 288 2,5 C 9,4 km/h (2 Bft) 100 %
13.03.2018 20:40 3,5 C 93 % 1007,1 hPa 0,0 l/m 7,8 km/h (2 Bft) NW 308 2,5 C 12,6 km/h (3 Bft) 100 %
13.03.2018 20:41 3,5 C 93 % 1007,1 hPa 0,0 l/m 5,3 km/h (1 Bft) W-NW 287 2,5 C 12,6 km/h (3 Bft) 100 %
13.03.2018 20:42 3,5 C 93 % 1007,1 hPa 0,0 l/m 5,4 km/h (1 Bft) W 272 2,5 C 18,8 km/h (3 Bft) 100 %
13.03.2018 20:43 3,5 C 93 % 1007,1 hPa 0,0 l/m 8,6 km/h (2 Bft) W-NW 290 2,5 C 18,8 km/h (3 Bft) 100 %
13.03.2018 20:44 3,5 C 93 % 1007,1 hPa 0,0 l/m 5,9 km/h (2 Bft) W-NW 288 2,5 C 12,6 km/h (3 Bft) 100 %
13.03.2018 20:45 3,5 C 93 % 1007,1 hPa 0,0 l/m 9,3 km/h (2 Bft) S-SW 212 2,5 C 15,7 km/h (3 Bft) 100 %
13.03.2018 20:46 3,5 C 93 % 1007,1 hPa 0,0 l/m 6,0 km/h (2 Bft) NW 316 2,5 C 9,4 km/h (2 Bft) 100 %
13.03.2018 20:47 3,5 C 93 % 1007,1 hPa 0,0 l/m 3,7 km/h (1 Bft) W-NW 302 2,5 C 9,4 km/h (2 Bft) 100 %
13.03.2018 20:48 3,5 C 93 % 1007,1 hPa 0,0 l/m 9,5 km/h (2 Bft) W-NW 290 2,5 C 15,7 km/h (3 Bft) 100 %
13.03.2018 20:49 3,5 C 93 % 1007,2 hPa 0,0 l/m 7,3 km/h (2 Bft) NW 304 2,5 C 12,6 km/h (3 Bft) 100 %
13.03.2018 20:50 3,5 C 93 % 1007,2 hPa 0,0 l/m 0,4 km/h (0 Bft) NW 305 2,5 C 3,1 km/h (1 Bft) 100 %
13.03.2018 20:51 3,5 C 93 % 1007,2 hPa 0,0 l/m 2,6 km/h (1 Bft) NW 305 2,5 C 9,4 km/h (2 Bft) 100 %
13.03.2018 20:52 3,5 C 93 % 1007,2 hPa 0,0 l/m 8,6 km/h (2 Bft) NW 313 2,5 C 15,7 km/h (3 Bft) 100 %
13.03.2018 20:53 3,5 C 93 % 1007,2 hPa 0,0 l/m 3,1 km/h (1 Bft) W 276 2,5 C 6,3 km/h (2 Bft) 100 %
13.03.2018 20:54 3,4 C 93 % 1007,3 hPa 0,0 l/m 4,8 km/h (1 Bft) N-NW 338 2,4 C 6,3 km/h (2 Bft) 100 %
13.03.2018 20:55 3,5 C 93 % 1007,3 hPa 0,0 l/m 3,3 km/h (1 Bft) W-NW 290 2,5 C 6,3 km/h (2 Bft) 100 %
13.03.2018 20:56 3,4 C 93 % 1007,3 hPa 0,0 l/m 4,2 km/h (1 Bft) W 265 2,4 C 9,4 km/h (2 Bft) 100 %
13.03.2018 20:57 3,5 C 93 % 1007,3 hPa 0,0 l/m 4,6 km/h (1 Bft) N-NW 328 2,5 C 9,4 km/h (2 Bft) 100 %
13.03.2018 20:58 3,5 C 93 % 1007,3 hPa 0,0 l/m 2,5 km/h (1 Bft) NW 309 2,5 C 6,3 km/h (2 Bft) 100 %
13.03.2018 20:59 3,4 C 93 % 1007,3 hPa 0,0 l/m 4,7 km/h (1 Bft) NW 305 2,4 C 9,4 km/h (2 Bft) 100 %
13.03.2018 21:00 3,4 C 93 % 1007,3 hPa 0,0 l/m 7,1 km/h (2 Bft) SW 225 2,4 C 9,4 km/h (2 Bft) 100 %
13.03.2018 21:01 3,4 C 93 % 1007,3 hPa 0,0 l/m 7,5 km/h (2 Bft) W-NW 302 2,4 C 18,8 km/h (3 Bft) 100 %
13.03.2018 21:02 3,4 C 93 % 1007,3 hPa 0,0 l/m 8,6 km/h (2 Bft) W-NW 289 2,4 C 12,6 km/h (3 Bft) 100 %
13.03.2018 21:03 3,4 C 93 % 1007,3 hPa 0,0 l/m 5,1 km/h (1 Bft) W-NW 302 2,4 C 9,4 km/h (2 Bft) 100 %
13.03.2018 21:04 3,4 C 93 % 1007,3 hPa 0,0 l/m 6,5 km/h (2 Bft) W-NW 303 2,4 C 9,4 km/h (2 Bft) 100 %
13.03.2018 21:05 3,4 C 93 % 1007,3 hPa 0,0 l/m 2,5 km/h (1 Bft) W-NW 290 2,4 C 6,3 km/h (2 Bft) 100 %
13.03.2018 21:06 3,4 C 93 % 1007,4 hPa 0,0 l/m 5,8 km/h (2 Bft) W-NW 287 2,4 C 12,6 km/h (3 Bft) 100 %
13.03.2018 21:07 3,4 C 93 % 1007,3 hPa 0,0 l/m 3,3 km/h (1 Bft) W-NW 287 2,4 C 9,4 km/h (2 Bft) 100 %
13.03.2018 21:08 3,4 C 93 % 1007,3 hPa 0,0 l/m 3,1 km/h (1 Bft) W-SW 248 2,4 C 6,3 km/h (2 Bft) 100 %
13.03.2018 21:09 3,4 C 93 % 1007,4 hPa 0,0 l/m 4,2 km/h (1 Bft) W-NW 285 2,4 C 6,3 km/h (2 Bft) 100 %
13.03.2018 21:10 3,4 C 94 % 1007,4 hPa 0,0 l/m 3,6 km/h (1 Bft) W-NW 288 2,5 C 6,3 km/h (2 Bft) 100 %
13.03.2018 21:11 3,4 C 94 % 1007,5 hPa 0,0 l/m 3,8 km/h (1 Bft) W-NW 298 2,5 C 6,3 km/h (2 Bft) 100 %
13.03.2018 21:12 3,4 C 94 % 1007,5 hPa 0,0 l/m 3,3 km/h (1 Bft) W-NW 285 2,5 C 9,4 km/h (2 Bft) 100 %
13.03.2018 21:13 3,4 C 94 % 1007,5 hPa 0,0 l/m 4,2 km/h (1 Bft) W-SW 257 2,5 C 9,4 km/h (2 Bft) 100 %
13.03.2018 21:14 3,4 C 94 % 1007,5 hPa 0,0 l/m 6,9 km/h (2 Bft) W-NW 300 2,5 C 12,6 km/h (3 Bft) 100 %
13.03.2018 21:15 3,4 C 94 % 1007,5 hPa 0,0 l/m 4,6 km/h (1 Bft) W-NW 302 2,5 C 9,4 km/h (2 Bft) 100 %
13.03.2018 21:16 3,4 C 94 % 1007,5 hPa 0,0 l/m 3,5 km/h (1 Bft) W 267 2,5 C 6,3 km/h (2 Bft) 100 %
13.03.2018 21:17 3,4 C 94 % 1007,5 hPa 0,0 l/m 7,8 km/h (2 Bft) N-NW 338 2,5 C 15,7 km/h (3 Bft) 100 %
13.03.2018 21:18 3,4 C 94 % 1007,6 hPa 0,0 l/m 7,7 km/h (2 Bft) W-NW 288 2,5 C 15,7 km/h (3 Bft) 100 %
13.03.2018 21:19 3,4 C 94 % 1007,6 hPa 0,0 l/m 8,3 km/h (2 Bft) NW 320 2,5 C 22,0 km/h (4 Bft) 100 %
13.03.2018 21:20 3,4 C 94 % 1007,6 hPa 0,0 l/m 8,3 km/h (2 Bft) W-NW 297 2,5 C 15,7 km/h (3 Bft) 100 %
13.03.2018 21:21 3,4 C 94 % 1007,6 hPa 0,0 l/m 7,8 km/h (2 Bft) W-NW 297 2,5 C 15,7 km/h (3 Bft) 100 %
13.03.2018 21:22 3,4 C 94 % 1007,6 hPa 0,0 l/m 7,7 km/h (2 Bft) W 275 2,5 C 25,1 km/h (4 Bft) 100 %
13.03.2018 21:23 3,4 C 94 % 1007,6 hPa 0,0 l/m 11,6 km/h (2 Bft) W 264 2,5 C 25,1 km/h (4 Bft) 100 %
13.03.2018 21:24 3,4 C 94 % 1007,6 hPa 0,0 l/m 15,2 km/h (3 Bft) NW 311 2,5 C 22,0 km/h (4 Bft) 100 %
13.03.2018 21:25 3,4 C 93 % 1007,6 hPa 0,0 l/m 9,5 km/h (2 Bft) W 277 2,4 C 18,8 km/h (3 Bft) 100 %
13.03.2018 21:26 3,3 C 93 % 1007,6 hPa 0,0 l/m 9,7 km/h (2 Bft) N-NW 329 2,3 C 18,8 km/h (3 Bft) 100 %
13.03.2018 21:27 3,3 C 94 % 1007,6 hPa 0,0 l/m 10,0 km/h (2 Bft) W-NW 283 2,4 C 22,0 km/h (4 Bft) 100 %
13.03.2018 21:28 3,3 C 94 % 1007,6 hPa 0,0 l/m 11,5 km/h (2 Bft) NW 310 2,4 C 18,8 km/h (3 Bft) 100 %
13.03.2018 21:29 3,3 C 94 % 1007,6 hPa 0,0 l/m 7,8 km/h (2 Bft) N-NW 330 2,4 C 15,7 km/h (3 Bft) 100 %
13.03.2018 21:30 3,3 C 94 % 1007,7 hPa 0,0 l/m 12,4 km/h (3 Bft) NW 319 2,4 C 18,8 km/h (3 Bft) 100 %
13.03.2018 21:31 3,3 C 94 % 1007,6 hPa 0,0 l/m 9,3 km/h (2 Bft) NW 323 2,4 C 15,7 km/h (3 Bft) 100 %
13.03.2018 21:32 3,3 C 94 % 1007,6 hPa 0,0 l/m 9,1 km/h (2 Bft) NW 315 2,4 C 15,7 km/h (3 Bft) 100 %
13.03.2018 21:33 3,3 C 94 % 1007,6 hPa 0,0 l/m 10,3 km/h (2 Bft) NW 319 2,4 C 18,8 km/h (3 Bft) 100 %
13.03.2018 21:34 3,3 C 94 % 1007,6 hPa 0,0 l/m 10,5 km/h (2 Bft) W 274 2,4 C 18,8 km/h (3 Bft) 100 %
13.03.2018 21:35 3,3 C 94 % 1007,7 hPa 0,0 l/m 10,5 km/h (2 Bft) N-NW 328 2,4 C 18,8 km/h (3 Bft) 100 %
13.03.2018 21:36 3,3 C 94 % 1007,7 hPa 0,0 l/m 11,5 km/h (2 Bft) W-NW 298 2,4 C 22,0 km/h (4 Bft) 100 %
13.03.2018 21:37 3,3 C 94 % 1007,7 hPa 0,0 l/m 6,7 km/h (2 Bft) W-NW 302 2,4 C 12,6 km/h (3 Bft) 100 %
13.03.2018 21:38 3,3 C 94 % 1007,7 hPa 0,0 l/m 9,9 km/h (2 Bft) W-NW 298 2,4 C 15,7 km/h (3 Bft) 100 %
13.03.2018 21:39 3,3 C 94 % 1007,7 hPa 0,0 l/m 6,3 km/h (2 Bft) NW 307 2,4 C 12,6 km/h (3 Bft) 100 %
13.03.2018 21:40 3,3 C 94 % 1007,7 hPa 0,0 l/m 10,2 km/h (2 Bft) W-NW 299 2,4 C 18,8 km/h (3 Bft) 100 %
13.03.2018 21:41 3,2 C 94 % 1007,7 hPa 0,0 l/m 10,4 km/h (2 Bft) NW 321 2,3 C 15,7 km/h (3 Bft) 100 %
13.03.2018 21:42 3,3 C 94 % 1007,7 hPa 0,0 l/m 12,9 km/h (3 Bft) NW 321 2,4 C 18,8 km/h (3 Bft) 100 %
13.03.2018 21:43 3,3 C 93 % 1007,7 hPa 0,0 l/m 8,9 km/h (2 Bft) W-NW 283 2,3 C 15,7 km/h (3 Bft) 100 %
13.03.2018 21:44 3,3 C 93 % 1007,8 hPa 0,0 l/m 8,6 km/h (2 Bft) W-NW 287 2,3 C 18,8 km/h (3 Bft) 100 %
13.03.2018 21:45 3,3 C 93 % 1007,7 hPa 0,0 l/m 8,6 km/h (2 Bft) W-NW 296 2,3 C 15,7 km/h (3 Bft) 100 %
13.03.2018 21:46 3,3 C 94 % 1007,9 hPa 0,0 l/m 3,9 km/h (1 Bft) NW 323 2,4 C 6,3 km/h (2 Bft) 100 %
13.03.2018 21:47 3,3 C 93 % 1007,7 hPa 0,0 l/m 12,9 km/h (3 Bft) W-NW 295 2,3 C 22,0 km/h (4 Bft) 100 %
13.03.2018 21:48 3,3 C 93 % 1007,9 hPa 0,0 l/m 10,9 km/h (2 Bft) W-NW 291 2,3 C 18,8 km/h (3 Bft) 100 %
13.03.2018 21:49 3,3 C 93 % 1007,8 hPa 0,0 l/m 9,1 km/h (2 Bft) NW 316 2,3 C 18,8 km/h (3 Bft) 100 %
13.03.2018 21:50 3,3 C 93 % 1007,9 hPa 0,0 l/m 4,5 km/h (1 Bft) NW 307 2,3 C 9,4 km/h (2 Bft) 100 %
13.03.2018 21:51 3,3 C 93 % 1007,9 hPa 0,0 l/m 16,2 km/h (3 Bft) W-NW 295 2,3 C 25,1 km/h (4 Bft) 100 %
13.03.2018 21:52 3,3 C 93 % 1007,9 hPa 0,0 l/m 6,8 km/h (2 Bft) W-NW 290 2,3 C 9,4 km/h (2 Bft) 100 %
13.03.2018 21:53 3,3 C 94 % 1007,9 hPa 0,0 l/m 3,5 km/h (1 Bft) NW 317 2,4 C 9,4 km/h (2 Bft) 100 %
13.03.2018 21:54 3,3 C 94 % 1007,9 hPa 0,0 l/m 5,9 km/h (2 Bft) NW 324 2,4 C 9,4 km/h (2 Bft) 100 %
13.03.2018 21:55 3,3 C 94 % 1007,9 hPa 0,0 l/m 2,5 km/h (1 Bft) W-NW 282 2,4 C 6,3 km/h (2 Bft) 100 %
13.03.2018 21:56 3,3 C 94 % 1007,9 hPa 0,0 l/m 5,7 km/h (1 Bft) W-NW 297 2,4 C 12,6 km/h (3 Bft) 100 %
13.03.2018 21:57 3,3 C 94 % 1007,9 hPa 0,0 l/m 4,4 km/h (1 Bft) W-NW 297 2,4 C 9,4 km/h (2 Bft) 95 %
13.03.2018 21:58 3,3 C 94 % 1007,9 hPa 0,0 l/m 2,2 km/h (1 Bft) W-NW 297 2,4 C 6,3 km/h (2 Bft) 100 %
13.03.2018 21:59 3,3 C 94 % 1007,9 hPa 0,0 l/m 11,4 km/h (2 Bft) W-NW 303 2,4 C 18,8 km/h (3 Bft) 100 %
13.03.2018 22:00 3,3 C 94 % 1008,0 hPa 0,0 l/m 6,3 km/h (2 Bft) NW 321 2,4 C 15,7 km/h (3 Bft) 96 %
13.03.2018 22:01 3,3 C 94 % 1008,0 hPa 0,0 l/m 3,5 km/h (1 Bft) NW 314 2,4 C 6,3 km/h (2 Bft) 100 %
13.03.2018 22:02 3,3 C 94 % 1008,0 hPa 0,0 l/m 3,7 km/h (1 Bft) W-NW 300 2,4 C 9,4 km/h (2 Bft) 100 %
13.03.2018 22:03 3,3 C 94 % 1007,9 hPa 0,0 l/m 4,6 km/h (1 Bft) N-NW 333 2,4 C 9,4 km/h (2 Bft) 100 %
13.03.2018 22:04 3,3 C 94 % 1008,0 hPa 0,0 l/m 4,7 km/h (1 Bft) NW 315 2,4 C 9,4 km/h (2 Bft) 96 %
13.03.2018 22:05 3,3 C 94 % 1008,0 hPa 0,0 l/m 6,9 km/h (2 Bft) NW 311 2,4 C 12,6 km/h (3 Bft) 100 %
13.03.2018 22:06 3,3 C 94 % 1008,0 hPa 0,0 l/m 6,7 km/h (2 Bft) W-NW 302 2,4 C 15,7 km/h (3 Bft) 100 %
13.03.2018 22:07 3,3 C 94 % 1008,0 hPa 0,0 l/m 4,9 km/h (1 Bft) N-NW 334 2,4 C 12,6 km/h (3 Bft) 96 %
13.03.2018 22:08 3,3 C 94 % 1008,0 hPa 0,0 l/m 8,5 km/h (2 Bft) N-NW 339 2,4 C 12,6 km/h (3 Bft) 100 %
13.03.2018 22:09 3,3 C 94 % 1008,0 hPa 0,0 l/m 0,5 km/h (0 Bft) W-SW 257 2,4 C 3,1 km/h (1 Bft) 100 %
13.03.2018 22:10 3,3 C 94 % 1008,0 hPa 0,0 l/m 3,3 km/h (1 Bft) W-NW 285 2,4 C 9,4 km/h (2 Bft) 100 %
13.03.2018 22:11 3,3 C 94 % 1008,1 hPa 0,0 l/m 1,3 km/h (1 Bft) SW 226 2,4 C 3,1 km/h (1 Bft) 97 %
13.03.2018 22:12 3,3 C 94 % 1008,0 hPa 0,0 l/m 2,5 km/h (1 Bft) NW 311 2,4 C 6,3 km/h (2 Bft) 100 %
13.03.2018 22:13 3,3 C 94 % 1008,1 hPa 0,0 l/m 4,2 km/h (1 Bft) W 274 2,4 C 6,3 km/h (2 Bft) 100 %
13.03.2018 22:14 3,2 C 94 % 1008,1 hPa 0,0 l/m 2,1 km/h (1 Bft) W 259 2,3 C 3,1 km/h (1 Bft) 96 %
13.03.2018 22:15 3,2 C 94 % 1008,1 hPa 0,0 l/m 3,8 km/h (1 Bft) W-SW 258 2,3 C 6,3 km/h (2 Bft) 100 %
13.03.2018 22:16 3,2 C 94 % 1008,1 hPa 0,0 l/m 3,3 km/h (1 Bft) W-SW 248 2,3 C 6,3 km/h (2 Bft) 100 %
13.03.2018 22:17 3,2 C 94 % 1008,1 hPa 0,0 l/m 0,3 km/h (0 Bft) W 259 2,3 C 3,1 km/h (1 Bft) 96 %
13.03.2018 22:18 3,2 C 94 % 1008,1 hPa 0,0 l/m 4,6 km/h (1 Bft) SW 231 2,3 C 9,4 km/h (2 Bft) 96 %
13.03.2018 22:19 3,2 C 94 % 1008,1 hPa 0,0 l/m 5,5 km/h (1 Bft) W-SW 251 2,3 C 9,4 km/h (2 Bft) 100 %
13.03.2018 22:20 3,2 C 94 % 1008,1 hPa 0,0 l/m 0,7 km/h (0 Bft) W 261 2,3 C 3,1 km/h (1 Bft) 96 %
13.03.2018 22:21 3,2 C 94 % 1008,2 hPa 0,0 l/m 0,9 km/h (0 Bft) SW 226 2,3 C 3,1 km/h (1 Bft) 100 %
13.03.2018 22:22 3,2 C 94 % 1008,2 hPa 0,0 l/m 2,4 km/h (1 Bft) W 259 2,3 C 3,1 km/h (1 Bft) 96 %
13.03.2018 22:23 3,2 C 94 % 1008,2 hPa 0,0 l/m 0,9 km/h (0 Bft) W 280 2,3 C 6,3 km/h (2 Bft) 96 %
13.03.2018 22:24 3,2 C 94 % 1008,2 hPa 0,0 l/m 1,3 km/h (1 Bft) W 266 2,3 C 6,3 km/h (2 Bft) 100 %
13.03.2018 22:25 3,2 C 94 % 1008,2 hPa 0,0 l/m 0,0 km/h (0 Bft) W 266 2,3 C 0,0 km/h (0 Bft) 96 %
13.03.2018 22:26 3,2 C 94 % 1008,2 hPa 0,0 l/m 1,4 km/h (1 Bft) S-SW 209 2,3 C 3,1 km/h (1 Bft) 100 %
13.03.2018 22:27 3,2 C 94 % 1008,2 hPa 0,0 l/m 5,2 km/h (1 Bft) W-NW 297 2,3 C 9,4 km/h (2 Bft) 96 %
13.03.2018 22:28 3,2 C 94 % 1008,2 hPa 0,0 l/m 5,8 km/h (2 Bft) W 271 2,3 C 9,4 km/h (2 Bft) 100 %
13.03.2018 22:29 3,2 C 94 % 1008,3 hPa 0,0 l/m 7,2 km/h (2 Bft) NW 316 2,3 C 12,6 km/h (3 Bft) 93 %
13.03.2018 22:30 3,2 C 94 % 1008,3 hPa 0,0 l/m 3,0 km/h (1 Bft) NW 310 2,3 C 9,4 km/h (2 Bft) 100 %
13.03.2018 22:31 3,2 C 94 % 1008,3 hPa 0,0 l/m 5,0 km/h (1 Bft) W-NW 302 2,3 C 12,6 km/h (3 Bft) 96 %
13.03.2018 22:32 3,2 C 94 % 1008,3 hPa 0,0 l/m 4,9 km/h (1 Bft) W-SW 255 2,3 C 15,7 km/h (3 Bft) 100 %
13.03.2018 22:33 3,2 C 94 % 1008,3 hPa 0,0 l/m 3,1 km/h (1 Bft) N-NW 335 2,3 C 12,6 km/h (3 Bft) 96 %
13.03.2018 22:34 3,2 C 94 % 1008,3 hPa 0,0 l/m 3,1 km/h (1 Bft) W-NW 288 2,3 C 6,3 km/h (2 Bft) 96 %
13.03.2018 22:35 3,1 C 94 % 1008,3 hPa 0,0 l/m 6,7 km/h (2 Bft) NW 305 2,2 C 9,4 km/h (2 Bft) 100 %
13.03.2018 22:36 3,2 C 94 % 1008,3 hPa 0,0 l/m 3,9 km/h (1 Bft) W-NW 290 2,3 C 6,3 km/h (2 Bft) 93 %
13.03.2018 22:37 3,1 C 94 % 1008,3 hPa 0,0 l/m 2,0 km/h (1 Bft) W 278 2,2 C 6,3 km/h (2 Bft) 100 %
13.03.2018 22:38 3,2 C 94 % 1008,3 hPa 0,0 l/m 2,4 km/h (1 Bft) W-NW 287 2,3 C 3,1 km/h (1 Bft) 91 %
13.03.2018 22:39 3,1 C 94 % 1008,4 hPa 0,0 l/m 6,1 km/h (2 Bft) W-NW 288 2,2 C 12,6 km/h (3 Bft) 100 %
13.03.2018 22:40 3,1 C 94 % 1008,4 hPa 0,0 l/m 2,7 km/h (1 Bft) N-NW 338 2,2 C 6,3 km/h (2 Bft) 96 %
13.03.2018 22:42 3,1 C 94 % 1008,4 hPa 0,0 l/m 5,1 km/h (1 Bft) NW 316 2,2 C 9,4 km/h (2 Bft) 98 %
13.03.2018 22:43 3,1 C 94 % 1008,4 hPa 0,0 l/m 5,5 km/h (1 Bft) W 271 2,2 C 9,4 km/h (2 Bft) 96 %
13.03.2018 22:44 3,2 C 94 % 1008,4 hPa 0,0 l/m 1,2 km/h (1 Bft) W-SW 243 2,3 C 3,1 km/h (1 Bft) 100 %
13.03.2018 22:45 3,1 C 94 % 1008,4 hPa 0,0 l/m 0,0 km/h (0 Bft) W 261 2,2 C 0,0 km/h (0 Bft) 96 %
13.03.2018 22:47 3,1 C 94 % 1008,4 hPa 0,0 l/m 1,4 km/h (1 Bft) SW 219 2,2 C 6,3 km/h (2 Bft) 98 %
13.03.2018 22:48 3,1 C 94 % 1008,4 hPa 0,0 l/m 4,6 km/h (1 Bft) SW 219 2,2 C 9,4 km/h (2 Bft) 100 %
13.03.2018 22:49 3,1 C 94 % 1008,4 hPa 0,0 l/m 1,3 km/h (1 Bft) W 262 2,2 C 3,1 km/h (1 Bft) 96 %
13.03.2018 22:50 3,1 C 94 % 1008,5 hPa 0,0 l/m 3,1 km/h (1 Bft) W-SW 246 2,2 C 6,3 km/h (2 Bft) 100 %
13.03.2018 22:51 3,1 C 94 % 1008,5 hPa 0,0 l/m 1,7 km/h (1 Bft) W-NW 290 2,2 C 6,3 km/h (2 Bft) 96 %
13.03.2018 22:52 3,1 C 94 % 1008,4 hPa 0,0 l/m 2,2 km/h (1 Bft) W-SW 240 2,2 C 6,3 km/h (2 Bft) 96 %
13.03.2018 22:53 3,1 C 94 % 1008,5 hPa 0,0 l/m 0,4 km/h (0 Bft) W-SW 249 2,2 C 3,1 km/h (1 Bft) 100 %
13.03.2018 22:54 3,1 C 94 % 1008,5 hPa 0,0 l/m 3,5 km/h (1 Bft) SW 226 2,2 C 6,3 km/h (2 Bft) 96 %
13.03.2018 22:55 3,1 C 94 % 1008,5 hPa 0,0 l/m 1,0 km/h (0 Bft) SW 226 2,2 C 3,1 km/h (1 Bft) 100 %
13.03.2018 22:56 3,1 C 94 % 1008,5 hPa 0,0 l/m 0,8 km/h (0 Bft) NW 307 2,2 C 3,1 km/h (1 Bft) 96 %
13.03.2018 22:57 3,1 C 94 % 1008,5 hPa 0,0 l/m 7,3 km/h (2 Bft) W-SW 245 2,2 C 15,7 km/h (3 Bft) 100 %
13.03.2018 22:58 3,1 C 94 % 1008,5 hPa 0,0 l/m 7,7 km/h (2 Bft) W-NW 302 2,2 C 12,6 km/h (3 Bft) 100 %
13.03.2018 22:59 3,1 C 94 % 1008,5 hPa 0,0 l/m 5,5 km/h (1 Bft) W 272 2,2 C 9,4 km/h (2 Bft) 100 %
13.03.2018 23:00 3,1 C 94 % 1008,5 hPa 0,0 l/m 0,7 km/h (0 Bft) W-SW 240 2,2 C 3,1 km/h (1 Bft) 100 %
13.03.2018 23:01 3,1 C 94 % 1008,5 hPa 0,0 l/m 3,4 km/h (1 Bft) W-SW 257 2,2 C 9,4 km/h (2 Bft) 100 %
13.03.2018 23:02 3,1 C 94 % 1008,5 hPa 0,0 l/m 4,1 km/h (1 Bft) SW 235 2,2 C 9,4 km/h (2 Bft) 100 %
13.03.2018 23:03 3,1 C 94 % 1008,5 hPa 0,0 l/m 1,2 km/h (1 Bft) W-NW 294 2,2 C 3,1 km/h (1 Bft) 100 %
13.03.2018 23:04 3,2 C 94 % 1008,6 hPa 0,0 l/m 1,2 km/h (1 Bft) W 260 2,3 C 3,1 km/h (1 Bft) 100 %
13.03.2018 23:05 3,2 C 94 % 1008,6 hPa 0,0 l/m 1,8 km/h (1 Bft) W 270 2,3 C 6,3 km/h (2 Bft) 100 %
13.03.2018 23:06 3,2 C 94 % 1008,6 hPa 0,0 l/m 5,8 km/h (2 Bft) W 264 2,3 C 6,3 km/h (2 Bft) 100 %
13.03.2018 23:07 3,2 C 94 % 1008,6 hPa 0,0 l/m 1,0 km/h (0 Bft) W-SW 245 2,3 C 3,1 km/h (1 Bft) 100 %
13.03.2018 23:08 3,2 C 94 % 1008,6 hPa 0,0 l/m 2,2 km/h (1 Bft) W-SW 257 2,3 C 6,3 km/h (2 Bft) 100 %
13.03.2018 23:09 3,2 C 94 % 1008,6 hPa 0,0 l/m 3,9 km/h (1 Bft) W 260 2,3 C 6,3 km/h (2 Bft) 100 %
13.03.2018 23:10 3,2 C 94 % 1008,6 hPa 0,0 l/m 0,7 km/h (0 Bft) W-NW 284 2,3 C 3,1 km/h (1 Bft) 100 %
13.03.2018 23:11 3,2 C 94 % 1008,6 hPa 0,0 l/m 0,0 km/h (0 Bft) W-NW 284 2,3 C 0,0 km/h (0 Bft) 100 %
13.03.2018 23:12 3,2 C 94 % 1008,6 hPa 0,0 l/m 1,2 km/h (1 Bft) W 268 2,3 C 3,1 km/h (1 Bft) 100 %
13.03.2018 23:13 3,2 C 94 % 1008,7 hPa 0,0 l/m 3,3 km/h (1 Bft) W-SW 239 2,3 C 12,6 km/h (3 Bft) 100 %
13.03.2018 23:14 3,2 C 94 % 1008,7 hPa 0,0 l/m 4,2 km/h (1 Bft) NW 313 2,3 C 9,4 km/h (2 Bft) 100 %
13.03.2018 23:15 3,2 C 94 % 1008,7 hPa 0,0 l/m 0,7 km/h (0 Bft) W 259 2,3 C 3,1 km/h (1 Bft) 100 %
13.03.2018 23:16 3,2 C 94 % 1008,7 hPa 0,0 l/m 0,1 km/h (0 Bft) W 263 2,3 C 3,1 km/h (1 Bft) 100 %
13.03.2018 23:17 3,2 C 94 % 1008,7 hPa 0,0 l/m 0,9 km/h (0 Bft) W 264 2,3 C 3,1 km/h (1 Bft) 100 %
13.03.2018 23:18 3,2 C 94 % 1008,7 hPa 0,0 l/m 3,3 km/h (1 Bft) W 275 2,3 C 9,4 km/h (2 Bft) 100 %
13.03.2018 23:19 3,2 C 94 % 1008,6 hPa 0,0 l/m 3,0 km/h (1 Bft) W-NW 302 2,3 C 9,4 km/h (2 Bft) 100 %
13.03.2018 23:20 3,2 C 94 % 1008,7 hPa 0,0 l/m 0,5 km/h (0 Bft) W-NW 283 2,3 C 3,1 km/h (1 Bft) 100 %
13.03.2018 23:21 3,2 C 94 % 1008,6 hPa 0,0 l/m 0,0 km/h (0 Bft) W-NW 283 2,3 C 0,0 km/h (0 Bft) 100 %
13.03.2018 23:22 3,2 C 94 % 1008,7 hPa 0,0 l/m 2,0 km/h (1 Bft) S-SO 166 2,3 C 6,3 km/h (2 Bft) 100 %
13.03.2018 23:23 3,2 C 94 % 1008,7 hPa 0,0 l/m 2,9 km/h (1 Bft) W-NW 302 2,3 C 9,4 km/h (2 Bft) 100 %
13.03.2018 23:24 3,2 C 94 % 1008,7 hPa 0,0 l/m 8,9 km/h (2 Bft) NW 307 2,3 C 12,6 km/h (3 Bft) 100 %
13.03.2018 23:25 3,2 C 93 % 1008,7 hPa 0,0 l/m 9,0 km/h (2 Bft) NW 317 2,2 C 15,7 km/h (3 Bft) 100 %
13.03.2018 23:26 3,2 C 94 % 1008,7 hPa 0,0 l/m 1,7 km/h (1 Bft) W 269 2,3 C 6,3 km/h (2 Bft) 100 %
13.03.2018 23:27 3,2 C 93 % 1008,7 hPa 0,0 l/m 3,9 km/h (1 Bft) W 263 2,2 C 6,3 km/h (2 Bft) 96 %
13.03.2018 23:28 3,2 C 93 % 1008,7 hPa 0,0 l/m 0,9 km/h (0 Bft) NW 305 2,2 C 3,1 km/h (1 Bft) 100 %
13.03.2018 23:29 3,2 C 93 % 1008,8 hPa 0,0 l/m 3,3 km/h (1 Bft) W-NW 300 2,2 C 9,4 km/h (2 Bft) 100 %
13.03.2018 23:30 3,2 C 93 % 1008,8 hPa 0,0 l/m 8,6 km/h (2 Bft) W-NW 301 2,2 C 18,8 km/h (3 Bft) 100 %
13.03.2018 23:31 3,2 C 93 % 1008,8 hPa 0,0 l/m 5,6 km/h (1 Bft) NW 305 2,2 C 12,6 km/h (3 Bft) 100 %
13.03.2018 23:32 3,3 C 93 % 1008,8 hPa 0,0 l/m 0,6 km/h (0 Bft) NW 305 2,3 C 3,1 km/h (1 Bft) 100 %
13.03.2018 23:33 3,3 C 93 % 1008,8 hPa 0,0 l/m 0,7 km/h (0 Bft) W 279 2,3 C 3,1 km/h (1 Bft) 100 %
13.03.2018 23:34 3,3 C 93 % 1008,8 hPa 0,0 l/m 3,5 km/h (1 Bft) W-NW 291 2,3 C 9,4 km/h (2 Bft) 100 %
13.03.2018 23:35 3,3 C 93 % 1008,8 hPa 0,0 l/m 2,1 km/h (1 Bft) W 263 2,3 C 6,3 km/h (2 Bft) 100 %
13.03.2018 23:36 3,3 C 93 % 1008,8 hPa 0,0 l/m 7,5 km/h (2 Bft) W-NW 291 2,3 C 9,4 km/h (2 Bft) 100 %
13.03.2018 23:37 3,3 C 93 % 1008,8 hPa 0,0 l/m 8,2 km/h (2 Bft) W-NW 294 2,3 C 12,6 km/h (3 Bft) 100 %
13.03.2018 23:38 3,3 C 93 % 1008,8 hPa 0,0 l/m 6,7 km/h (2 Bft) W 270 2,3 C 15,7 km/h (3 Bft) 100 %
13.03.2018 23:39 3,3 C 93 % 1008,9 hPa 0,0 l/m 9,1 km/h (2 Bft) W-NW 283 2,3 C 22,0 km/h (4 Bft) 100 %
13.03.2018 23:40 3,3 C 93 % 1008,9 hPa 0,0 l/m 1,6 km/h (1 Bft) W-SW 247 2,3 C 6,3 km/h (2 Bft) 100 %
13.03.2018 23:41 3,3 C 93 % 1008,9 hPa 0,0 l/m 2,8 km/h (1 Bft) NW 314 2,3 C 6,3 km/h (2 Bft) 100 %
13.03.2018 23:42 3,3 C 93 % 1008,9 hPa 0,0 l/m 2,2 km/h (1 Bft) W-SW 256 2,3 C 6,3 km/h (2 Bft) 100 %
13.03.2018 23:43 3,3 C 93 % 1008,9 hPa 0,0 l/m 3,4 km/h (1 Bft) W 274 2,3 C 6,3 km/h (2 Bft) 100 %
13.03.2018 23:44 3,3 C 93 % 1008,9 hPa 0,0 l/m 5,4 km/h (1 Bft) SW 218 2,3 C 9,4 km/h (2 Bft) 100 %
13.03.2018 23:45 3,3 C 93 % 1008,8 hPa 0,0 l/m 3,9 km/h (1 Bft) W-NW 292 2,3 C 9,4 km/h (2 Bft) 100 %
13.03.2018 23:46 3,3 C 93 % 1008,9 hPa 0,0 l/m 2,1 km/h (1 Bft) NW 305 2,3 C 3,1 km/h (1 Bft) 100 %
13.03.2018 23:47 3,3 C 93 % 1008,9 hPa 0,0 l/m 1,1 km/h (1 Bft) SW 221 2,3 C 3,1 km/h (1 Bft) 100 %
13.03.2018 23:48 3,3 C 93 % 1008,9 hPa 0,0 l/m 2,2 km/h (1 Bft) W-NW 297 2,3 C 6,3 km/h (2 Bft) 100 %
13.03.2018 23:49 3,3 C 93 % 1008,9 hPa 0,0 l/m 6,3 km/h (2 Bft) W-NW 285 2,3 C 12,6 km/h (3 Bft) 100 %
13.03.2018 23:50 3,3 C 93 % 1008,9 hPa 0,0 l/m 3,5 km/h (1 Bft) W 275 2,3 C 9,4 km/h (2 Bft) 100 %
13.03.2018 23:51 3,3 C 93 % 1008,9 hPa 0,0 l/m 3,8 km/h (1 Bft) W-NW 283 2,3 C 9,4 km/h (2 Bft) 100 %
13.03.2018 23:52 3,3 C 93 % 1008,9 hPa 0,0 l/m 9,6 km/h (2 Bft) W 281 2,3 C 15,7 km/h (3 Bft) 100 %
13.03.2018 23:53 3,3 C 93 % 1008,9 hPa 0,0 l/m 2,0 km/h (1 Bft) W-NW 296 2,3 C 6,3 km/h (2 Bft) 100 %
13.03.2018 23:54 3,3 C 93 % 1008,9 hPa 0,0 l/m 6,8 km/h (2 Bft) SW 215 2,3 C 12,6 km/h (3 Bft) 99 %
13.03.2018 23:55 3,3 C 93 % 1008,9 hPa 0,0 l/m 5,2 km/h (1 Bft) W-NW 297 2,3 C 9,4 km/h (2 Bft) 100 %
13.03.2018 23:56 3,4 C 93 % 1008,9 hPa 0,0 l/m 2,7 km/h (1 Bft) W-SW 243 2,4 C 6,3 km/h (2 Bft) 99 %
13.03.2018 23:57 3,4 C 93 % 1008,9 hPa 0,0 l/m 3,4 km/h (1 Bft) NW 314 2,4 C 6,3 km/h (2 Bft) 100 %
13.03.2018 23:58 3,4 C 93 % 1008,9 hPa 0,0 l/m 5,9 km/h (2 Bft) W 264 2,4 C 9,4 km/h (2 Bft) 100 %
13.03.2018 23:59 3,4 C 93 % 1008,9 hPa 0,0 l/m 10,0 km/h (2 Bft) W-SW 256 2,4 C 15,7 km/h (3 Bft) 100 %
_ Min-Zeit 22:35 12:00 00:09 - 00:01 - - 23:25 00:01 00:02
Minimum _ 3,1 C 83 % 994,3 hPa - 0,0 km/h (0 Bft) - - 2,2 C 0,0 km/h (0 Bft) 11 %
_ Max-Zeit 11:57 19:40 23:39 05:29 17:28 - - 11:55 17:28 00:00
Maximum _ 9,6 C 95 % 1008,9 hPa 0,2 l/m 26,3 km/h
W-NW (4 Bft)
- - 7,3 C 50,2 km/h
NW (7 Bft)
100 %
Durchschnitt _ 6,6 C 91 % 999,7 hPa #3,0 l/m 6,2 km/h (2 Bft) W-NW - 5,2 C 12,7 km/h (3 Bft) 98 %